<?xml version="1.0" encoding="UTF-8" standalone="no" ?>
<gpx xmlns="http://www.topografix.com/GPX/1/1" xmlns:xsi="http://www.w3.org/2001/XMLSchema-instance" xsi:schemaLocation="http://www.topografix.com/GPX/1/1 http://www.topografix.com/GPX/1/1/gpx.xsd" version="1.1" creator="VisuGPX - https://www.visugpx.com">
  <metadata>
    <name>VTT XC / AM Grabels</name>
    <desc><![CDATA[Sortie typée XC / AM autour de Grabels.
Un peu le même itinéraire que celui du 17 mai dernier, mais ici on rajoute un petit crochet qui nous amène à hauteur de l'entrée de St Gely du Fesc.
puis l'on retrouve l'itinéraire classique aprés une cote et une descente.
On repart chercher le raidillon de la semajne dernière situé au sud du cimetière (ça passe avec le 30 x 42) pour recoller à nouveau sur la trace du 17-05-2017. ]]></desc>
  </metadata>
  <trk>
    <name><![CDATA[VTT XC / AM Grabels_1]]></name>
    <trkseg>
      <trkpt lat="43.63759" lon="3.82856">
        <ele>133.4</ele>
        <time>2017-06-07T10:09:50Z</time>
      </trkpt>
      <trkpt lat="43.63775" lon="3.82842">
        <ele>131.4</ele>
        <time>2017-06-07T10:12:52Z</time>
      </trkpt>
      <trkpt lat="43.63772" lon="3.8283">
        <ele>130.1</ele>
        <time>2017-06-07T10:12:55Z</time>
      </trkpt>
      <trkpt lat="43.63777" lon="3.82818">
        <ele>129.7</ele>
        <time>2017-06-07T10:12:58Z</time>
      </trkpt>
      <trkpt lat="43.63785" lon="3.82815">
        <ele>129.5</ele>
        <time>2017-06-07T10:13:00Z</time>
      </trkpt>
      <trkpt lat="43.63794" lon="3.82811">
        <ele>129.5</ele>
        <time>2017-06-07T10:13:03Z</time>
      </trkpt>
      <trkpt lat="43.63804" lon="3.82804">
        <ele>129.2</ele>
        <time>2017-06-07T10:13:06Z</time>
      </trkpt>
      <trkpt lat="43.63813" lon="3.82801">
        <ele>129.1</ele>
        <time>2017-06-07T10:13:09Z</time>
      </trkpt>
      <trkpt lat="43.63822" lon="3.82797">
        <ele>129.1</ele>
        <time>2017-06-07T10:13:12Z</time>
      </trkpt>
      <trkpt lat="43.63831" lon="3.82796">
        <ele>129.1</ele>
        <time>2017-06-07T10:13:15Z</time>
      </trkpt>
      <trkpt lat="43.63841" lon="3.82796">
        <ele>129</ele>
        <time>2017-06-07T10:13:18Z</time>
      </trkpt>
      <trkpt lat="43.63849" lon="3.82794">
        <ele>129</ele>
        <time>2017-06-07T10:13:20Z</time>
      </trkpt>
      <trkpt lat="43.63857" lon="3.8279">
        <ele>129</ele>
        <time>2017-06-07T10:13:22Z</time>
      </trkpt>
      <trkpt lat="43.63865" lon="3.82784">
        <ele>129.2</ele>
        <time>2017-06-07T10:13:25Z</time>
      </trkpt>
      <trkpt lat="43.63873" lon="3.82778">
        <ele>129.2</ele>
        <time>2017-06-07T10:13:27Z</time>
      </trkpt>
      <trkpt lat="43.63879" lon="3.82773">
        <ele>129.3</ele>
        <time>2017-06-07T10:13:29Z</time>
      </trkpt>
      <trkpt lat="43.63887" lon="3.82782">
        <ele>130.1</ele>
        <time>2017-06-07T10:13:32Z</time>
      </trkpt>
      <trkpt lat="43.63893" lon="3.82794">
        <ele>130.2</ele>
        <time>2017-06-07T10:13:35Z</time>
      </trkpt>
      <trkpt lat="43.63901" lon="3.82802">
        <ele>130.3</ele>
        <time>2017-06-07T10:13:38Z</time>
      </trkpt>
      <trkpt lat="43.6391" lon="3.82803">
        <ele>130.4</ele>
        <time>2017-06-07T10:13:41Z</time>
      </trkpt>
      <trkpt lat="43.63919" lon="3.82808">
        <ele>130.4</ele>
        <time>2017-06-07T10:13:44Z</time>
      </trkpt>
      <trkpt lat="43.63925" lon="3.8282">
        <ele>129.5</ele>
        <time>2017-06-07T10:13:47Z</time>
      </trkpt>
      <trkpt lat="43.63932" lon="3.82819">
        <ele>129.5</ele>
        <time>2017-06-07T10:13:52Z</time>
      </trkpt>
      <trkpt lat="43.6394" lon="3.82814">
        <ele>129.6</ele>
        <time>2017-06-07T10:13:54Z</time>
      </trkpt>
      <trkpt lat="43.63949" lon="3.82813">
        <ele>129.7</ele>
        <time>2017-06-07T10:13:57Z</time>
      </trkpt>
      <trkpt lat="43.63958" lon="3.82806">
        <ele>129.7</ele>
        <time>2017-06-07T10:14:01Z</time>
      </trkpt>
      <trkpt lat="43.63964" lon="3.82801">
        <ele>130</ele>
        <time>2017-06-07T10:14:04Z</time>
      </trkpt>
      <trkpt lat="43.63974" lon="3.82796">
        <ele>130.4</ele>
        <time>2017-06-07T10:14:07Z</time>
      </trkpt>
      <trkpt lat="43.63985" lon="3.82792">
        <ele>130.7</ele>
        <time>2017-06-07T10:14:10Z</time>
      </trkpt>
      <trkpt lat="43.63993" lon="3.82791">
        <ele>130.9</ele>
        <time>2017-06-07T10:14:12Z</time>
      </trkpt>
      <trkpt lat="43.64003" lon="3.82789">
        <ele>131</ele>
        <time>2017-06-07T10:14:14Z</time>
      </trkpt>
      <trkpt lat="43.6401" lon="3.82787">
        <ele>131.1</ele>
        <time>2017-06-07T10:14:16Z</time>
      </trkpt>
      <trkpt lat="43.64019" lon="3.82781">
        <ele>131.2</ele>
        <time>2017-06-07T10:14:19Z</time>
      </trkpt>
      <trkpt lat="43.64027" lon="3.82776">
        <ele>131.1</ele>
        <time>2017-06-07T10:14:21Z</time>
      </trkpt>
      <trkpt lat="43.64038" lon="3.8277">
        <ele>131.2</ele>
        <time>2017-06-07T10:14:24Z</time>
      </trkpt>
      <trkpt lat="43.64047" lon="3.82764">
        <ele>131.2</ele>
        <time>2017-06-07T10:14:27Z</time>
      </trkpt>
      <trkpt lat="43.64056" lon="3.82758">
        <ele>131.1</ele>
        <time>2017-06-07T10:14:30Z</time>
      </trkpt>
      <trkpt lat="43.64062" lon="3.82752">
        <ele>131.1</ele>
        <time>2017-06-07T10:14:32Z</time>
      </trkpt>
      <trkpt lat="43.64071" lon="3.82746">
        <ele>131.1</ele>
        <time>2017-06-07T10:14:35Z</time>
      </trkpt>
      <trkpt lat="43.64079" lon="3.82738">
        <ele>131.3</ele>
        <time>2017-06-07T10:14:38Z</time>
      </trkpt>
      <trkpt lat="43.64087" lon="3.82731">
        <ele>131.4</ele>
        <time>2017-06-07T10:14:41Z</time>
      </trkpt>
      <trkpt lat="43.64094" lon="3.82725">
        <ele>131.5</ele>
        <time>2017-06-07T10:14:43Z</time>
      </trkpt>
      <trkpt lat="43.64101" lon="3.8272">
        <ele>132.4</ele>
        <time>2017-06-07T10:14:46Z</time>
      </trkpt>
      <trkpt lat="43.64107" lon="3.82715">
        <ele>132.6</ele>
        <time>2017-06-07T10:14:47Z</time>
      </trkpt>
      <trkpt lat="43.64114" lon="3.82709">
        <ele>132.7</ele>
        <time>2017-06-07T10:14:49Z</time>
      </trkpt>
      <trkpt lat="43.64121" lon="3.82702">
        <ele>132.7</ele>
        <time>2017-06-07T10:14:51Z</time>
      </trkpt>
      <trkpt lat="43.64127" lon="3.82695">
        <ele>132.7</ele>
        <time>2017-06-07T10:14:53Z</time>
      </trkpt>
      <trkpt lat="43.64135" lon="3.82686">
        <ele>133</ele>
        <time>2017-06-07T10:14:56Z</time>
      </trkpt>
      <trkpt lat="43.64143" lon="3.82677">
        <ele>133.3</ele>
        <time>2017-06-07T10:14:59Z</time>
      </trkpt>
      <trkpt lat="43.64151" lon="3.82668">
        <ele>133.2</ele>
        <time>2017-06-07T10:15:02Z</time>
      </trkpt>
      <trkpt lat="43.64157" lon="3.82662">
        <ele>133.2</ele>
        <time>2017-06-07T10:15:04Z</time>
      </trkpt>
      <trkpt lat="43.64165" lon="3.82652">
        <ele>133.2</ele>
        <time>2017-06-07T10:15:07Z</time>
      </trkpt>
      <trkpt lat="43.64173" lon="3.82645">
        <ele>133</ele>
        <time>2017-06-07T10:15:12Z</time>
      </trkpt>
      <trkpt lat="43.64181" lon="3.82639">
        <ele>133.5</ele>
        <time>2017-06-07T10:15:17Z</time>
      </trkpt>
      <trkpt lat="43.64188" lon="3.82639">
        <ele>133.8</ele>
        <time>2017-06-07T10:15:20Z</time>
      </trkpt>
      <trkpt lat="43.64197" lon="3.82641">
        <ele>134.2</ele>
        <time>2017-06-07T10:15:23Z</time>
      </trkpt>
      <trkpt lat="43.64207" lon="3.82644">
        <ele>135.5</ele>
        <time>2017-06-07T10:15:26Z</time>
      </trkpt>
      <trkpt lat="43.64217" lon="3.82647">
        <ele>136.9</ele>
        <time>2017-06-07T10:15:28Z</time>
      </trkpt>
      <trkpt lat="43.64228" lon="3.82652">
        <ele>137.7</ele>
        <time>2017-06-07T10:15:30Z</time>
      </trkpt>
      <trkpt lat="43.64237" lon="3.82658">
        <ele>137.7</ele>
        <time>2017-06-07T10:15:32Z</time>
      </trkpt>
      <trkpt lat="43.64247" lon="3.82666">
        <ele>137.7</ele>
        <time>2017-06-07T10:15:34Z</time>
      </trkpt>
      <trkpt lat="43.64257" lon="3.82668">
        <ele>136.7</ele>
        <time>2017-06-07T10:15:36Z</time>
      </trkpt>
      <trkpt lat="43.64267" lon="3.82673">
        <ele>135.7</ele>
        <time>2017-06-07T10:15:38Z</time>
      </trkpt>
      <trkpt lat="43.64275" lon="3.82677">
        <ele>134.7</ele>
        <time>2017-06-07T10:15:40Z</time>
      </trkpt>
      <trkpt lat="43.64285" lon="3.82682">
        <ele>135.6</ele>
        <time>2017-06-07T10:15:43Z</time>
      </trkpt>
      <trkpt lat="43.64294" lon="3.82686">
        <ele>137.4</ele>
        <time>2017-06-07T10:15:45Z</time>
      </trkpt>
      <trkpt lat="43.64302" lon="3.82695">
        <ele>138.2</ele>
        <time>2017-06-07T10:15:48Z</time>
      </trkpt>
      <trkpt lat="43.64311" lon="3.82701">
        <ele>138.1</ele>
        <time>2017-06-07T10:15:51Z</time>
      </trkpt>
      <trkpt lat="43.64316" lon="3.8271">
        <ele>139</ele>
        <time>2017-06-07T10:15:53Z</time>
      </trkpt>
      <trkpt lat="43.64321" lon="3.82718">
        <ele>140</ele>
        <time>2017-06-07T10:15:55Z</time>
      </trkpt>
      <trkpt lat="43.64327" lon="3.82724">
        <ele>141.2</ele>
        <time>2017-06-07T10:15:57Z</time>
      </trkpt>
      <trkpt lat="43.64335" lon="3.8273">
        <ele>141.5</ele>
        <time>2017-06-07T10:16:00Z</time>
      </trkpt>
      <trkpt lat="43.64342" lon="3.82727">
        <ele>141.4</ele>
        <time>2017-06-07T10:16:04Z</time>
      </trkpt>
      <trkpt lat="43.64349" lon="3.82726">
        <ele>141.4</ele>
        <time>2017-06-07T10:16:09Z</time>
      </trkpt>
      <trkpt lat="43.64358" lon="3.82729">
        <ele>141.5</ele>
        <time>2017-06-07T10:16:13Z</time>
      </trkpt>
      <trkpt lat="43.64367" lon="3.82729">
        <ele>141.6</ele>
        <time>2017-06-07T10:16:17Z</time>
      </trkpt>
      <trkpt lat="43.64376" lon="3.82725">
        <ele>141.5</ele>
        <time>2017-06-07T10:16:20Z</time>
      </trkpt>
      <trkpt lat="43.64384" lon="3.82724">
        <ele>141.5</ele>
        <time>2017-06-07T10:16:23Z</time>
      </trkpt>
      <trkpt lat="43.64392" lon="3.82726">
        <ele>141.6</ele>
        <time>2017-06-07T10:16:26Z</time>
      </trkpt>
      <trkpt lat="43.64402" lon="3.82727">
        <ele>142.1</ele>
        <time>2017-06-07T10:16:29Z</time>
      </trkpt>
      <trkpt lat="43.6441" lon="3.82728">
        <ele>142.6</ele>
        <time>2017-06-07T10:16:32Z</time>
      </trkpt>
      <trkpt lat="43.64419" lon="3.82733">
        <ele>143.1</ele>
        <time>2017-06-07T10:16:35Z</time>
      </trkpt>
      <trkpt lat="43.64429" lon="3.82736">
        <ele>143.7</ele>
        <time>2017-06-07T10:16:39Z</time>
      </trkpt>
      <trkpt lat="43.64438" lon="3.82737">
        <ele>143.9</ele>
        <time>2017-06-07T10:16:41Z</time>
      </trkpt>
      <trkpt lat="43.64449" lon="3.82736">
        <ele>144.2</ele>
        <time>2017-06-07T10:16:44Z</time>
      </trkpt>
      <trkpt lat="43.64458" lon="3.82738">
        <ele>144.8</ele>
        <time>2017-06-07T10:16:47Z</time>
      </trkpt>
      <trkpt lat="43.64467" lon="3.82741">
        <ele>145.4</ele>
        <time>2017-06-07T10:16:50Z</time>
      </trkpt>
      <trkpt lat="43.64475" lon="3.82742">
        <ele>145.7</ele>
        <time>2017-06-07T10:16:52Z</time>
      </trkpt>
      <trkpt lat="43.64482" lon="3.82741">
        <ele>145.9</ele>
        <time>2017-06-07T10:16:54Z</time>
      </trkpt>
      <trkpt lat="43.64489" lon="3.82741">
        <ele>146.1</ele>
        <time>2017-06-07T10:16:56Z</time>
      </trkpt>
      <trkpt lat="43.645" lon="3.82741">
        <ele>146.3</ele>
        <time>2017-06-07T10:16:59Z</time>
      </trkpt>
      <trkpt lat="43.64507" lon="3.82741">
        <ele>146.3</ele>
        <time>2017-06-07T10:17:02Z</time>
      </trkpt>
      <trkpt lat="43.64516" lon="3.8274">
        <ele>146.3</ele>
        <time>2017-06-07T10:17:05Z</time>
      </trkpt>
      <trkpt lat="43.64525" lon="3.82734">
        <ele>146.4</ele>
        <time>2017-06-07T10:17:09Z</time>
      </trkpt>
      <trkpt lat="43.64532" lon="3.82728">
        <ele>146.6</ele>
        <time>2017-06-07T10:17:12Z</time>
      </trkpt>
      <trkpt lat="43.6454" lon="3.82722">
        <ele>146.9</ele>
        <time>2017-06-07T10:17:15Z</time>
      </trkpt>
      <trkpt lat="43.64549" lon="3.8272">
        <ele>147.3</ele>
        <time>2017-06-07T10:17:18Z</time>
      </trkpt>
      <trkpt lat="43.64557" lon="3.82718">
        <ele>147.8</ele>
        <time>2017-06-07T10:17:21Z</time>
      </trkpt>
      <trkpt lat="43.64564" lon="3.82713">
        <ele>148.3</ele>
        <time>2017-06-07T10:17:24Z</time>
      </trkpt>
      <trkpt lat="43.6457" lon="3.82709">
        <ele>149</ele>
        <time>2017-06-07T10:17:27Z</time>
      </trkpt>
      <trkpt lat="43.64578" lon="3.82703">
        <ele>149.7</ele>
        <time>2017-06-07T10:17:30Z</time>
      </trkpt>
      <trkpt lat="43.64585" lon="3.82698">
        <ele>150.1</ele>
        <time>2017-06-07T10:17:33Z</time>
      </trkpt>
      <trkpt lat="43.64595" lon="3.82692">
        <ele>150.5</ele>
        <time>2017-06-07T10:17:36Z</time>
      </trkpt>
      <trkpt lat="43.64603" lon="3.82685">
        <ele>150.9</ele>
        <time>2017-06-07T10:17:39Z</time>
      </trkpt>
      <trkpt lat="43.64609" lon="3.82679">
        <ele>151.2</ele>
        <time>2017-06-07T10:17:41Z</time>
      </trkpt>
      <trkpt lat="43.64617" lon="3.8268">
        <ele>152.7</ele>
        <time>2017-06-07T10:17:43Z</time>
      </trkpt>
      <trkpt lat="43.64624" lon="3.82679">
        <ele>152.8</ele>
        <time>2017-06-07T10:17:45Z</time>
      </trkpt>
      <trkpt lat="43.64633" lon="3.82677">
        <ele>153.1</ele>
        <time>2017-06-07T10:17:48Z</time>
      </trkpt>
      <trkpt lat="43.64643" lon="3.82677">
        <ele>153.4</ele>
        <time>2017-06-07T10:17:51Z</time>
      </trkpt>
      <trkpt lat="43.64652" lon="3.82677">
        <ele>153.9</ele>
        <time>2017-06-07T10:17:54Z</time>
      </trkpt>
      <trkpt lat="43.64662" lon="3.82672">
        <ele>154.5</ele>
        <time>2017-06-07T10:17:57Z</time>
      </trkpt>
      <trkpt lat="43.64669" lon="3.8267">
        <ele>154.7</ele>
        <time>2017-06-07T10:17:59Z</time>
      </trkpt>
      <trkpt lat="43.64676" lon="3.82664">
        <ele>154.9</ele>
        <time>2017-06-07T10:18:01Z</time>
      </trkpt>
      <trkpt lat="43.64684" lon="3.82656">
        <ele>155</ele>
        <time>2017-06-07T10:18:04Z</time>
      </trkpt>
      <trkpt lat="43.64692" lon="3.82651">
        <ele>156.4</ele>
        <time>2017-06-07T10:18:06Z</time>
      </trkpt>
      <trkpt lat="43.64701" lon="3.82646">
        <ele>158.2</ele>
        <time>2017-06-07T10:18:08Z</time>
      </trkpt>
      <trkpt lat="43.6471" lon="3.82643">
        <ele>158.1</ele>
        <time>2017-06-07T10:18:10Z</time>
      </trkpt>
      <trkpt lat="43.64718" lon="3.8264">
        <ele>156.5</ele>
        <time>2017-06-07T10:18:12Z</time>
      </trkpt>
      <trkpt lat="43.64727" lon="3.82638">
        <ele>156.4</ele>
        <time>2017-06-07T10:18:14Z</time>
      </trkpt>
      <trkpt lat="43.64735" lon="3.82635">
        <ele>156.7</ele>
        <time>2017-06-07T10:18:16Z</time>
      </trkpt>
      <trkpt lat="43.64742" lon="3.82632">
        <ele>156.2</ele>
        <time>2017-06-07T10:18:18Z</time>
      </trkpt>
      <trkpt lat="43.6475" lon="3.82629">
        <ele>156.7</ele>
        <time>2017-06-07T10:18:20Z</time>
      </trkpt>
      <trkpt lat="43.64759" lon="3.82625">
        <ele>157.1</ele>
        <time>2017-06-07T10:18:22Z</time>
      </trkpt>
      <trkpt lat="43.64768" lon="3.82622">
        <ele>157.9</ele>
        <time>2017-06-07T10:18:24Z</time>
      </trkpt>
      <trkpt lat="43.64776" lon="3.82619">
        <ele>158</ele>
        <time>2017-06-07T10:18:26Z</time>
      </trkpt>
      <trkpt lat="43.64785" lon="3.82614">
        <ele>158.1</ele>
        <time>2017-06-07T10:18:28Z</time>
      </trkpt>
      <trkpt lat="43.64793" lon="3.8261">
        <ele>157.1</ele>
        <time>2017-06-07T10:18:30Z</time>
      </trkpt>
      <trkpt lat="43.64802" lon="3.82605">
        <ele>156.7</ele>
        <time>2017-06-07T10:18:32Z</time>
      </trkpt>
      <trkpt lat="43.64812" lon="3.82603">
        <ele>156.3</ele>
        <time>2017-06-07T10:18:34Z</time>
      </trkpt>
      <trkpt lat="43.64821" lon="3.82601">
        <ele>156.2</ele>
        <time>2017-06-07T10:18:36Z</time>
      </trkpt>
      <trkpt lat="43.64831" lon="3.826">
        <ele>156.8</ele>
        <time>2017-06-07T10:18:38Z</time>
      </trkpt>
      <trkpt lat="43.6484" lon="3.82597">
        <ele>158.3</ele>
        <time>2017-06-07T10:18:40Z</time>
      </trkpt>
      <trkpt lat="43.64849" lon="3.82595">
        <ele>157.7</ele>
        <time>2017-06-07T10:18:42Z</time>
      </trkpt>
      <trkpt lat="43.64858" lon="3.82594">
        <ele>158.7</ele>
        <time>2017-06-07T10:18:44Z</time>
      </trkpt>
      <trkpt lat="43.64867" lon="3.82595">
        <ele>159.4</ele>
        <time>2017-06-07T10:18:46Z</time>
      </trkpt>
      <trkpt lat="43.64876" lon="3.82597">
        <ele>160.7</ele>
        <time>2017-06-07T10:18:48Z</time>
      </trkpt>
      <trkpt lat="43.64886" lon="3.82599">
        <ele>162.6</ele>
        <time>2017-06-07T10:18:50Z</time>
      </trkpt>
      <trkpt lat="43.64896" lon="3.82599">
        <ele>164.1</ele>
        <time>2017-06-07T10:18:52Z</time>
      </trkpt>
      <trkpt lat="43.64906" lon="3.82598">
        <ele>164.9</ele>
        <time>2017-06-07T10:18:54Z</time>
      </trkpt>
      <trkpt lat="43.64916" lon="3.82598">
        <ele>165.3</ele>
        <time>2017-06-07T10:18:56Z</time>
      </trkpt>
      <trkpt lat="43.64928" lon="3.82599">
        <ele>164.7</ele>
        <time>2017-06-07T10:18:58Z</time>
      </trkpt>
      <trkpt lat="43.64938" lon="3.82597">
        <ele>164.2</ele>
        <time>2017-06-07T10:19:01Z</time>
      </trkpt>
      <trkpt lat="43.64948" lon="3.82597">
        <ele>163.1</ele>
        <time>2017-06-07T10:19:02Z</time>
      </trkpt>
      <trkpt lat="43.64957" lon="3.82598">
        <ele>162.7</ele>
        <time>2017-06-07T10:19:04Z</time>
      </trkpt>
      <trkpt lat="43.64966" lon="3.82601">
        <ele>163.3</ele>
        <time>2017-06-07T10:19:06Z</time>
      </trkpt>
      <trkpt lat="43.64976" lon="3.826">
        <ele>163.3</ele>
        <time>2017-06-07T10:19:09Z</time>
      </trkpt>
      <trkpt lat="43.64983" lon="3.82598">
        <ele>163.3</ele>
        <time>2017-06-07T10:19:11Z</time>
      </trkpt>
      <trkpt lat="43.64992" lon="3.82595">
        <ele>163.5</ele>
        <time>2017-06-07T10:19:14Z</time>
      </trkpt>
      <trkpt lat="43.65002" lon="3.82593">
        <ele>163.8</ele>
        <time>2017-06-07T10:19:17Z</time>
      </trkpt>
      <trkpt lat="43.65011" lon="3.82591">
        <ele>164.1</ele>
        <time>2017-06-07T10:19:20Z</time>
      </trkpt>
      <trkpt lat="43.65022" lon="3.8259">
        <ele>164.3</ele>
        <time>2017-06-07T10:19:23Z</time>
      </trkpt>
      <trkpt lat="43.65033" lon="3.8259">
        <ele>163.5</ele>
        <time>2017-06-07T10:19:26Z</time>
      </trkpt>
      <trkpt lat="43.6504" lon="3.8259">
        <ele>163.4</ele>
        <time>2017-06-07T10:19:28Z</time>
      </trkpt>
      <trkpt lat="43.6505" lon="3.82588">
        <ele>163.4</ele>
        <time>2017-06-07T10:19:31Z</time>
      </trkpt>
      <trkpt lat="43.65058" lon="3.82588">
        <ele>163.4</ele>
        <time>2017-06-07T10:19:33Z</time>
      </trkpt>
      <trkpt lat="43.65065" lon="3.82588">
        <ele>163.8</ele>
        <time>2017-06-07T10:19:36Z</time>
      </trkpt>
      <trkpt lat="43.65072" lon="3.82589">
        <ele>163.8</ele>
        <time>2017-06-07T10:19:37Z</time>
      </trkpt>
      <trkpt lat="43.6508" lon="3.82588">
        <ele>163.4</ele>
        <time>2017-06-07T10:19:39Z</time>
      </trkpt>
      <trkpt lat="43.65088" lon="3.82586">
        <ele>163.4</ele>
        <time>2017-06-07T10:19:41Z</time>
      </trkpt>
      <trkpt lat="43.65095" lon="3.82583">
        <ele>163.5</ele>
        <time>2017-06-07T10:19:43Z</time>
      </trkpt>
      <trkpt lat="43.651" lon="3.82574">
        <ele>163.7</ele>
        <time>2017-06-07T10:19:45Z</time>
      </trkpt>
      <trkpt lat="43.65104" lon="3.82563">
        <ele>163.4</ele>
        <time>2017-06-07T10:19:47Z</time>
      </trkpt>
      <trkpt lat="43.6511" lon="3.82553">
        <ele>163.2</ele>
        <time>2017-06-07T10:19:49Z</time>
      </trkpt>
      <trkpt lat="43.65116" lon="3.82549">
        <ele>162.9</ele>
        <time>2017-06-07T10:19:51Z</time>
      </trkpt>
      <trkpt lat="43.65122" lon="3.82542">
        <ele>163.6</ele>
        <time>2017-06-07T10:19:53Z</time>
      </trkpt>
      <trkpt lat="43.6513" lon="3.82535">
        <ele>162.5</ele>
        <time>2017-06-07T10:19:55Z</time>
      </trkpt>
      <trkpt lat="43.65137" lon="3.82526">
        <ele>160.3</ele>
        <time>2017-06-07T10:19:57Z</time>
      </trkpt>
      <trkpt lat="43.65144" lon="3.82516">
        <ele>158.5</ele>
        <time>2017-06-07T10:19:59Z</time>
      </trkpt>
      <trkpt lat="43.65151" lon="3.82508">
        <ele>157.6</ele>
        <time>2017-06-07T10:20:01Z</time>
      </trkpt>
      <trkpt lat="43.6516" lon="3.82508">
        <ele>157.5</ele>
        <time>2017-06-07T10:20:03Z</time>
      </trkpt>
      <trkpt lat="43.65167" lon="3.82516">
        <ele>156.2</ele>
        <time>2017-06-07T10:20:05Z</time>
      </trkpt>
      <trkpt lat="43.65172" lon="3.82528">
        <ele>157.4</ele>
        <time>2017-06-07T10:20:07Z</time>
      </trkpt>
      <trkpt lat="43.6518" lon="3.8254">
        <ele>158.3</ele>
        <time>2017-06-07T10:20:09Z</time>
      </trkpt>
      <trkpt lat="43.65188" lon="3.82554">
        <ele>158.2</ele>
        <time>2017-06-07T10:20:11Z</time>
      </trkpt>
      <trkpt lat="43.65194" lon="3.82567">
        <ele>158</ele>
        <time>2017-06-07T10:20:13Z</time>
      </trkpt>
      <trkpt lat="43.65201" lon="3.82583">
        <ele>157.9</ele>
        <time>2017-06-07T10:20:15Z</time>
      </trkpt>
      <trkpt lat="43.65209" lon="3.82594">
        <ele>159.9</ele>
        <time>2017-06-07T10:20:17Z</time>
      </trkpt>
      <trkpt lat="43.65216" lon="3.82605">
        <ele>160.4</ele>
        <time>2017-06-07T10:20:19Z</time>
      </trkpt>
      <trkpt lat="43.65225" lon="3.82614">
        <ele>159.5</ele>
        <time>2017-06-07T10:20:21Z</time>
      </trkpt>
      <trkpt lat="43.65234" lon="3.82623">
        <ele>158.7</ele>
        <time>2017-06-07T10:20:23Z</time>
      </trkpt>
      <trkpt lat="43.6524" lon="3.82631">
        <ele>157.6</ele>
        <time>2017-06-07T10:20:25Z</time>
      </trkpt>
      <trkpt lat="43.65248" lon="3.82638">
        <ele>157.6</ele>
        <time>2017-06-07T10:20:28Z</time>
      </trkpt>
      <trkpt lat="43.65254" lon="3.82644">
        <ele>158</ele>
        <time>2017-06-07T10:20:30Z</time>
      </trkpt>
      <trkpt lat="43.65262" lon="3.82652">
        <ele>158.1</ele>
        <time>2017-06-07T10:20:33Z</time>
      </trkpt>
      <trkpt lat="43.65267" lon="3.8266">
        <ele>158.5</ele>
        <time>2017-06-07T10:20:37Z</time>
      </trkpt>
      <trkpt lat="43.65276" lon="3.82663">
        <ele>159.1</ele>
        <time>2017-06-07T10:20:41Z</time>
      </trkpt>
      <trkpt lat="43.65284" lon="3.82664">
        <ele>159.3</ele>
        <time>2017-06-07T10:20:43Z</time>
      </trkpt>
      <trkpt lat="43.65291" lon="3.82667">
        <ele>161</ele>
        <time>2017-06-07T10:20:45Z</time>
      </trkpt>
      <trkpt lat="43.65301" lon="3.82675">
        <ele>161.2</ele>
        <time>2017-06-07T10:20:47Z</time>
      </trkpt>
      <trkpt lat="43.65311" lon="3.8268">
        <ele>161.5</ele>
        <time>2017-06-07T10:20:50Z</time>
      </trkpt>
      <trkpt lat="43.65317" lon="3.82685">
        <ele>161.9</ele>
        <time>2017-06-07T10:20:53Z</time>
      </trkpt>
      <trkpt lat="43.65326" lon="3.8269">
        <ele>162.4</ele>
        <time>2017-06-07T10:20:56Z</time>
      </trkpt>
      <trkpt lat="43.65335" lon="3.82694">
        <ele>162.9</ele>
        <time>2017-06-07T10:20:58Z</time>
      </trkpt>
      <trkpt lat="43.65346" lon="3.82698">
        <ele>163.5</ele>
        <time>2017-06-07T10:21:00Z</time>
      </trkpt>
      <trkpt lat="43.65353" lon="3.82703">
        <ele>164.5</ele>
        <time>2017-06-07T10:21:03Z</time>
      </trkpt>
      <trkpt lat="43.65355" lon="3.82704">
        <ele>165.1</ele>
        <time>2017-06-07T10:21:10Z</time>
      </trkpt>
      <trkpt lat="43.65364" lon="3.82705">
        <ele>165.3</ele>
        <time>2017-06-07T10:21:15Z</time>
      </trkpt>
      <trkpt lat="43.65372" lon="3.82705">
        <ele>165.5</ele>
        <time>2017-06-07T10:21:17Z</time>
      </trkpt>
      <trkpt lat="43.65379" lon="3.82713">
        <ele>166.2</ele>
        <time>2017-06-07T10:21:20Z</time>
      </trkpt>
      <trkpt lat="43.65387" lon="3.82721">
        <ele>169.2</ele>
        <time>2017-06-07T10:21:22Z</time>
      </trkpt>
      <trkpt lat="43.65395" lon="3.82722">
        <ele>169.5</ele>
        <time>2017-06-07T10:21:24Z</time>
      </trkpt>
      <trkpt lat="43.65404" lon="3.82727">
        <ele>169.6</ele>
        <time>2017-06-07T10:21:26Z</time>
      </trkpt>
      <trkpt lat="43.65413" lon="3.82735">
        <ele>168.8</ele>
        <time>2017-06-07T10:21:29Z</time>
      </trkpt>
      <trkpt lat="43.65419" lon="3.82741">
        <ele>169</ele>
        <time>2017-06-07T10:21:32Z</time>
      </trkpt>
      <trkpt lat="43.65427" lon="3.82754">
        <ele>169.1</ele>
        <time>2017-06-07T10:21:35Z</time>
      </trkpt>
      <trkpt lat="43.65436" lon="3.82758">
        <ele>169.4</ele>
        <time>2017-06-07T10:21:38Z</time>
      </trkpt>
      <trkpt lat="43.65444" lon="3.82756">
        <ele>169.7</ele>
        <time>2017-06-07T10:21:40Z</time>
      </trkpt>
      <trkpt lat="43.65456" lon="3.82757">
        <ele>170.2</ele>
        <time>2017-06-07T10:21:42Z</time>
      </trkpt>
      <trkpt lat="43.65463" lon="3.82759">
        <ele>173.5</ele>
        <time>2017-06-07T10:21:44Z</time>
      </trkpt>
      <trkpt lat="43.65471" lon="3.82765">
        <ele>173.9</ele>
        <time>2017-06-07T10:21:46Z</time>
      </trkpt>
      <trkpt lat="43.65477" lon="3.82776">
        <ele>174.5</ele>
        <time>2017-06-07T10:21:49Z</time>
      </trkpt>
      <trkpt lat="43.65482" lon="3.82791">
        <ele>176.3</ele>
        <time>2017-06-07T10:21:51Z</time>
      </trkpt>
      <trkpt lat="43.65486" lon="3.82802">
        <ele>176.5</ele>
        <time>2017-06-07T10:21:54Z</time>
      </trkpt>
      <trkpt lat="43.65494" lon="3.82811">
        <ele>175.5</ele>
        <time>2017-06-07T10:21:57Z</time>
      </trkpt>
      <trkpt lat="43.655" lon="3.8282">
        <ele>174.1</ele>
        <time>2017-06-07T10:21:59Z</time>
      </trkpt>
      <trkpt lat="43.65505" lon="3.82828">
        <ele>174</ele>
        <time>2017-06-07T10:22:05Z</time>
      </trkpt>
      <trkpt lat="43.65513" lon="3.82825">
        <ele>174.3</ele>
        <time>2017-06-07T10:22:08Z</time>
      </trkpt>
      <trkpt lat="43.65522" lon="3.82822">
        <ele>174.5</ele>
        <time>2017-06-07T10:22:11Z</time>
      </trkpt>
      <trkpt lat="43.65529" lon="3.8282">
        <ele>174.6</ele>
        <time>2017-06-07T10:22:15Z</time>
      </trkpt>
      <trkpt lat="43.65541" lon="3.82822">
        <ele>174.7</ele>
        <time>2017-06-07T10:22:18Z</time>
      </trkpt>
      <trkpt lat="43.65551" lon="3.82828">
        <ele>174.1</ele>
        <time>2017-06-07T10:22:22Z</time>
      </trkpt>
      <trkpt lat="43.65562" lon="3.82834">
        <ele>172.7</ele>
        <time>2017-06-07T10:22:24Z</time>
      </trkpt>
      <trkpt lat="43.65569" lon="3.82844">
        <ele>170.4</ele>
        <time>2017-06-07T10:22:26Z</time>
      </trkpt>
      <trkpt lat="43.65578" lon="3.82851">
        <ele>169.4</ele>
        <time>2017-06-07T10:22:28Z</time>
      </trkpt>
      <trkpt lat="43.65591" lon="3.82853">
        <ele>169.6</ele>
        <time>2017-06-07T10:22:30Z</time>
      </trkpt>
      <trkpt lat="43.65598" lon="3.82857">
        <ele>169.6</ele>
        <time>2017-06-07T10:22:31Z</time>
      </trkpt>
      <trkpt lat="43.65605" lon="3.82861">
        <ele>168.5</ele>
        <time>2017-06-07T10:22:32Z</time>
      </trkpt>
      <trkpt lat="43.65614" lon="3.82866">
        <ele>167.9</ele>
        <time>2017-06-07T10:22:33Z</time>
      </trkpt>
      <trkpt lat="43.65622" lon="3.82872">
        <ele>166.5</ele>
        <time>2017-06-07T10:22:34Z</time>
      </trkpt>
      <trkpt lat="43.6563" lon="3.82877">
        <ele>164.5</ele>
        <time>2017-06-07T10:22:35Z</time>
      </trkpt>
      <trkpt lat="43.65639" lon="3.82883">
        <ele>163.1</ele>
        <time>2017-06-07T10:22:36Z</time>
      </trkpt>
      <trkpt lat="43.65646" lon="3.82887">
        <ele>162.5</ele>
        <time>2017-06-07T10:22:37Z</time>
      </trkpt>
      <trkpt lat="43.65653" lon="3.8289">
        <ele>161.2</ele>
        <time>2017-06-07T10:22:38Z</time>
      </trkpt>
      <trkpt lat="43.65661" lon="3.82894">
        <ele>159.8</ele>
        <time>2017-06-07T10:22:39Z</time>
      </trkpt>
      <trkpt lat="43.65669" lon="3.82899">
        <ele>158.8</ele>
        <time>2017-06-07T10:22:40Z</time>
      </trkpt>
      <trkpt lat="43.65681" lon="3.82905">
        <ele>155.1</ele>
        <time>2017-06-07T10:22:42Z</time>
      </trkpt>
      <trkpt lat="43.6569" lon="3.82909">
        <ele>153</ele>
        <time>2017-06-07T10:22:44Z</time>
      </trkpt>
      <trkpt lat="43.65701" lon="3.82911">
        <ele>152.5</ele>
        <time>2017-06-07T10:22:47Z</time>
      </trkpt>
      <trkpt lat="43.65708" lon="3.82908">
        <ele>152.3</ele>
        <time>2017-06-07T10:22:50Z</time>
      </trkpt>
      <trkpt lat="43.65716" lon="3.82909">
        <ele>151.9</ele>
        <time>2017-06-07T10:22:52Z</time>
      </trkpt>
      <trkpt lat="43.65726" lon="3.8291">
        <ele>151.1</ele>
        <time>2017-06-07T10:22:54Z</time>
      </trkpt>
      <trkpt lat="43.65734" lon="3.82911">
        <ele>150.2</ele>
        <time>2017-06-07T10:22:55Z</time>
      </trkpt>
      <trkpt lat="43.6574" lon="3.82919">
        <ele>149.6</ele>
        <time>2017-06-07T10:22:56Z</time>
      </trkpt>
      <trkpt lat="43.65745" lon="3.82926">
        <ele>149.6</ele>
        <time>2017-06-07T10:22:57Z</time>
      </trkpt>
      <trkpt lat="43.6575" lon="3.82935">
        <ele>148.8</ele>
        <time>2017-06-07T10:22:58Z</time>
      </trkpt>
      <trkpt lat="43.65753" lon="3.82944">
        <ele>148.6</ele>
        <time>2017-06-07T10:22:59Z</time>
      </trkpt>
      <trkpt lat="43.65758" lon="3.8296">
        <ele>146.8</ele>
        <time>2017-06-07T10:23:01Z</time>
      </trkpt>
      <trkpt lat="43.65761" lon="3.82969">
        <ele>145.8</ele>
        <time>2017-06-07T10:23:02Z</time>
      </trkpt>
      <trkpt lat="43.65764" lon="3.82979">
        <ele>145.6</ele>
        <time>2017-06-07T10:23:03Z</time>
      </trkpt>
      <trkpt lat="43.65767" lon="3.82988">
        <ele>145.4</ele>
        <time>2017-06-07T10:23:04Z</time>
      </trkpt>
      <trkpt lat="43.65771" lon="3.83004">
        <ele>144.5</ele>
        <time>2017-06-07T10:23:06Z</time>
      </trkpt>
      <trkpt lat="43.65777" lon="3.8302">
        <ele>144</ele>
        <time>2017-06-07T10:23:08Z</time>
      </trkpt>
      <trkpt lat="43.65781" lon="3.83033">
        <ele>143.6</ele>
        <time>2017-06-07T10:23:10Z</time>
      </trkpt>
      <trkpt lat="43.65785" lon="3.83042">
        <ele>143.4</ele>
        <time>2017-06-07T10:23:14Z</time>
      </trkpt>
      <trkpt lat="43.6579" lon="3.83035">
        <ele>143.2</ele>
        <time>2017-06-07T10:23:17Z</time>
      </trkpt>
      <trkpt lat="43.65796" lon="3.83027">
        <ele>143.1</ele>
        <time>2017-06-07T10:23:19Z</time>
      </trkpt>
      <trkpt lat="43.65802" lon="3.83026">
        <ele>142.9</ele>
        <time>2017-06-07T10:23:21Z</time>
      </trkpt>
      <trkpt lat="43.6581" lon="3.83018">
        <ele>142.9</ele>
        <time>2017-06-07T10:23:24Z</time>
      </trkpt>
      <trkpt lat="43.65815" lon="3.8301">
        <ele>142.6</ele>
        <time>2017-06-07T10:23:27Z</time>
      </trkpt>
      <trkpt lat="43.65824" lon="3.83003">
        <ele>142.5</ele>
        <time>2017-06-07T10:23:31Z</time>
      </trkpt>
      <trkpt lat="43.65828" lon="3.82994">
        <ele>142.5</ele>
        <time>2017-06-07T10:23:34Z</time>
      </trkpt>
      <trkpt lat="43.65833" lon="3.82982">
        <ele>142.4</ele>
        <time>2017-06-07T10:23:37Z</time>
      </trkpt>
      <trkpt lat="43.65835" lon="3.82972">
        <ele>142.3</ele>
        <time>2017-06-07T10:23:39Z</time>
      </trkpt>
      <trkpt lat="43.65836" lon="3.82957">
        <ele>141.4</ele>
        <time>2017-06-07T10:23:41Z</time>
      </trkpt>
      <trkpt lat="43.65838" lon="3.82943">
        <ele>140.7</ele>
        <time>2017-06-07T10:23:43Z</time>
      </trkpt>
      <trkpt lat="43.6584" lon="3.8293">
        <ele>140.6</ele>
        <time>2017-06-07T10:23:45Z</time>
      </trkpt>
      <trkpt lat="43.65846" lon="3.82921">
        <ele>138.6</ele>
        <time>2017-06-07T10:23:47Z</time>
      </trkpt>
      <trkpt lat="43.65854" lon="3.82911">
        <ele>136.1</ele>
        <time>2017-06-07T10:23:49Z</time>
      </trkpt>
      <trkpt lat="43.65861" lon="3.82905">
        <ele>134</ele>
        <time>2017-06-07T10:23:51Z</time>
      </trkpt>
      <trkpt lat="43.65871" lon="3.829">
        <ele>134.1</ele>
        <time>2017-06-07T10:23:53Z</time>
      </trkpt>
      <trkpt lat="43.65882" lon="3.82895">
        <ele>134</ele>
        <time>2017-06-07T10:23:55Z</time>
      </trkpt>
      <trkpt lat="43.65891" lon="3.82893">
        <ele>134.4</ele>
        <time>2017-06-07T10:23:57Z</time>
      </trkpt>
      <trkpt lat="43.65902" lon="3.82889">
        <ele>134.9</ele>
        <time>2017-06-07T10:24:00Z</time>
      </trkpt>
      <trkpt lat="43.6591" lon="3.82888">
        <ele>135.7</ele>
        <time>2017-06-07T10:24:02Z</time>
      </trkpt>
      <trkpt lat="43.65918" lon="3.82887">
        <ele>136.5</ele>
        <time>2017-06-07T10:24:04Z</time>
      </trkpt>
      <trkpt lat="43.65926" lon="3.82886">
        <ele>137.8</ele>
        <time>2017-06-07T10:24:06Z</time>
      </trkpt>
      <trkpt lat="43.65935" lon="3.82883">
        <ele>138.4</ele>
        <time>2017-06-07T10:24:09Z</time>
      </trkpt>
      <trkpt lat="43.65942" lon="3.82878">
        <ele>138.5</ele>
        <time>2017-06-07T10:24:11Z</time>
      </trkpt>
      <trkpt lat="43.65946" lon="3.8287">
        <ele>138.7</ele>
        <time>2017-06-07T10:24:13Z</time>
      </trkpt>
      <trkpt lat="43.65951" lon="3.82857">
        <ele>139</ele>
        <time>2017-06-07T10:24:16Z</time>
      </trkpt>
      <trkpt lat="43.65954" lon="3.82846">
        <ele>141.2</ele>
        <time>2017-06-07T10:24:18Z</time>
      </trkpt>
      <trkpt lat="43.65958" lon="3.82837">
        <ele>142.8</ele>
        <time>2017-06-07T10:24:20Z</time>
      </trkpt>
      <trkpt lat="43.65962" lon="3.82826">
        <ele>144.4</ele>
        <time>2017-06-07T10:24:22Z</time>
      </trkpt>
      <trkpt lat="43.65967" lon="3.82817">
        <ele>146.1</ele>
        <time>2017-06-07T10:24:24Z</time>
      </trkpt>
      <trkpt lat="43.65972" lon="3.82806">
        <ele>145.5</ele>
        <time>2017-06-07T10:24:26Z</time>
      </trkpt>
      <trkpt lat="43.65977" lon="3.82794">
        <ele>145.1</ele>
        <time>2017-06-07T10:24:28Z</time>
      </trkpt>
      <trkpt lat="43.65981" lon="3.82781">
        <ele>144.7</ele>
        <time>2017-06-07T10:24:30Z</time>
      </trkpt>
      <trkpt lat="43.65987" lon="3.82768">
        <ele>142.8</ele>
        <time>2017-06-07T10:24:32Z</time>
      </trkpt>
      <trkpt lat="43.65993" lon="3.82757">
        <ele>141</ele>
        <time>2017-06-07T10:24:34Z</time>
      </trkpt>
      <trkpt lat="43.65999" lon="3.82742">
        <ele>141.9</ele>
        <time>2017-06-07T10:24:36Z</time>
      </trkpt>
      <trkpt lat="43.66003" lon="3.8273">
        <ele>142.9</ele>
        <time>2017-06-07T10:24:38Z</time>
      </trkpt>
      <trkpt lat="43.66008" lon="3.82715">
        <ele>144.9</ele>
        <time>2017-06-07T10:24:40Z</time>
      </trkpt>
      <trkpt lat="43.66013" lon="3.82703">
        <ele>145.8</ele>
        <time>2017-06-07T10:24:42Z</time>
      </trkpt>
      <trkpt lat="43.66019" lon="3.82692">
        <ele>146.5</ele>
        <time>2017-06-07T10:24:44Z</time>
      </trkpt>
      <trkpt lat="43.66024" lon="3.8268">
        <ele>146.7</ele>
        <time>2017-06-07T10:24:46Z</time>
      </trkpt>
      <trkpt lat="43.66028" lon="3.82669">
        <ele>145.3</ele>
        <time>2017-06-07T10:24:48Z</time>
      </trkpt>
      <trkpt lat="43.66037" lon="3.82664">
        <ele>143.4</ele>
        <time>2017-06-07T10:24:50Z</time>
      </trkpt>
      <trkpt lat="43.66046" lon="3.82667">
        <ele>141.7</ele>
        <time>2017-06-07T10:24:52Z</time>
      </trkpt>
      <trkpt lat="43.66056" lon="3.82674">
        <ele>141.8</ele>
        <time>2017-06-07T10:24:55Z</time>
      </trkpt>
      <trkpt lat="43.66065" lon="3.82679">
        <ele>141.9</ele>
        <time>2017-06-07T10:24:57Z</time>
      </trkpt>
      <trkpt lat="43.66073" lon="3.82684">
        <ele>143.3</ele>
        <time>2017-06-07T10:24:59Z</time>
      </trkpt>
      <trkpt lat="43.66084" lon="3.82683">
        <ele>145.2</ele>
        <time>2017-06-07T10:25:01Z</time>
      </trkpt>
      <trkpt lat="43.66091" lon="3.82676">
        <ele>146.7</ele>
        <time>2017-06-07T10:25:03Z</time>
      </trkpt>
      <trkpt lat="43.66098" lon="3.82671">
        <ele>147.2</ele>
        <time>2017-06-07T10:25:05Z</time>
      </trkpt>
      <trkpt lat="43.66107" lon="3.82677">
        <ele>147.4</ele>
        <time>2017-06-07T10:25:08Z</time>
      </trkpt>
      <trkpt lat="43.66115" lon="3.82685">
        <ele>147.5</ele>
        <time>2017-06-07T10:25:11Z</time>
      </trkpt>
      <trkpt lat="43.66124" lon="3.82685">
        <ele>147.5</ele>
        <time>2017-06-07T10:25:14Z</time>
      </trkpt>
      <trkpt lat="43.66134" lon="3.82687">
        <ele>147.7</ele>
        <time>2017-06-07T10:25:17Z</time>
      </trkpt>
      <trkpt lat="43.66142" lon="3.82687">
        <ele>147.7</ele>
        <time>2017-06-07T10:25:19Z</time>
      </trkpt>
      <trkpt lat="43.66151" lon="3.82692">
        <ele>147.8</ele>
        <time>2017-06-07T10:25:22Z</time>
      </trkpt>
      <trkpt lat="43.66159" lon="3.82697">
        <ele>148</ele>
        <time>2017-06-07T10:25:25Z</time>
      </trkpt>
      <trkpt lat="43.66166" lon="3.82702">
        <ele>148.3</ele>
        <time>2017-06-07T10:25:28Z</time>
      </trkpt>
      <trkpt lat="43.66174" lon="3.82706">
        <ele>148.6</ele>
        <time>2017-06-07T10:25:32Z</time>
      </trkpt>
      <trkpt lat="43.66181" lon="3.82701">
        <ele>149.4</ele>
        <time>2017-06-07T10:25:38Z</time>
      </trkpt>
      <trkpt lat="43.66186" lon="3.82689">
        <ele>152.8</ele>
        <time>2017-06-07T10:25:41Z</time>
      </trkpt>
      <trkpt lat="43.66191" lon="3.82677">
        <ele>154.3</ele>
        <time>2017-06-07T10:25:43Z</time>
      </trkpt>
      <trkpt lat="43.66197" lon="3.82664">
        <ele>153.2</ele>
        <time>2017-06-07T10:25:45Z</time>
      </trkpt>
      <trkpt lat="43.66202" lon="3.82649">
        <ele>151.4</ele>
        <time>2017-06-07T10:25:47Z</time>
      </trkpt>
      <trkpt lat="43.66208" lon="3.82635">
        <ele>149.4</ele>
        <time>2017-06-07T10:25:49Z</time>
      </trkpt>
      <trkpt lat="43.66216" lon="3.8262">
        <ele>147.7</ele>
        <time>2017-06-07T10:25:51Z</time>
      </trkpt>
      <trkpt lat="43.66224" lon="3.8261">
        <ele>147.3</ele>
        <time>2017-06-07T10:25:53Z</time>
      </trkpt>
      <trkpt lat="43.66231" lon="3.82601">
        <ele>147</ele>
        <time>2017-06-07T10:25:55Z</time>
      </trkpt>
      <trkpt lat="43.66241" lon="3.82597">
        <ele>146.8</ele>
        <time>2017-06-07T10:25:57Z</time>
      </trkpt>
      <trkpt lat="43.66248" lon="3.82595">
        <ele>146.9</ele>
        <time>2017-06-07T10:25:59Z</time>
      </trkpt>
      <trkpt lat="43.66255" lon="3.82592">
        <ele>147.9</ele>
        <time>2017-06-07T10:26:01Z</time>
      </trkpt>
      <trkpt lat="43.66265" lon="3.82589">
        <ele>148</ele>
        <time>2017-06-07T10:26:04Z</time>
      </trkpt>
      <trkpt lat="43.66274" lon="3.82585">
        <ele>148.3</ele>
        <time>2017-06-07T10:26:07Z</time>
      </trkpt>
      <trkpt lat="43.66283" lon="3.82584">
        <ele>148.7</ele>
        <time>2017-06-07T10:26:10Z</time>
      </trkpt>
      <trkpt lat="43.66293" lon="3.82577">
        <ele>149</ele>
        <time>2017-06-07T10:26:14Z</time>
      </trkpt>
      <trkpt lat="43.663" lon="3.82571">
        <ele>149.3</ele>
        <time>2017-06-07T10:26:17Z</time>
      </trkpt>
      <trkpt lat="43.66304" lon="3.82561">
        <ele>150</ele>
        <time>2017-06-07T10:26:21Z</time>
      </trkpt>
      <trkpt lat="43.66303" lon="3.8255">
        <ele>150.5</ele>
        <time>2017-06-07T10:26:24Z</time>
      </trkpt>
      <trkpt lat="43.66302" lon="3.8254">
        <ele>152.8</ele>
        <time>2017-06-07T10:26:26Z</time>
      </trkpt>
      <trkpt lat="43.663" lon="3.82529">
        <ele>153.4</ele>
        <time>2017-06-07T10:26:28Z</time>
      </trkpt>
      <trkpt lat="43.663" lon="3.82513">
        <ele>153.5</ele>
        <time>2017-06-07T10:26:31Z</time>
      </trkpt>
      <trkpt lat="43.66303" lon="3.82499">
        <ele>153.5</ele>
        <time>2017-06-07T10:26:34Z</time>
      </trkpt>
      <trkpt lat="43.66304" lon="3.82486">
        <ele>153.4</ele>
        <time>2017-06-07T10:26:37Z</time>
      </trkpt>
      <trkpt lat="43.66305" lon="3.8247">
        <ele>152.9</ele>
        <time>2017-06-07T10:26:40Z</time>
      </trkpt>
      <trkpt lat="43.66308" lon="3.82456">
        <ele>153</ele>
        <time>2017-06-07T10:26:42Z</time>
      </trkpt>
      <trkpt lat="43.66314" lon="3.82449">
        <ele>153.1</ele>
        <time>2017-06-07T10:26:44Z</time>
      </trkpt>
      <trkpt lat="43.66321" lon="3.82439">
        <ele>153.2</ele>
        <time>2017-06-07T10:26:47Z</time>
      </trkpt>
      <trkpt lat="43.66327" lon="3.82432">
        <ele>153.4</ele>
        <time>2017-06-07T10:26:49Z</time>
      </trkpt>
      <trkpt lat="43.66334" lon="3.82426">
        <ele>153.7</ele>
        <time>2017-06-07T10:26:51Z</time>
      </trkpt>
      <trkpt lat="43.6634" lon="3.82422">
        <ele>153.9</ele>
        <time>2017-06-07T10:26:53Z</time>
      </trkpt>
      <trkpt lat="43.66346" lon="3.82417">
        <ele>153.9</ele>
        <time>2017-06-07T10:26:55Z</time>
      </trkpt>
      <trkpt lat="43.66355" lon="3.8241">
        <ele>154.3</ele>
        <time>2017-06-07T10:26:59Z</time>
      </trkpt>
      <trkpt lat="43.66364" lon="3.82408">
        <ele>154.8</ele>
        <time>2017-06-07T10:27:03Z</time>
      </trkpt>
      <trkpt lat="43.66366" lon="3.82397">
        <ele>154.9</ele>
        <time>2017-06-07T10:27:08Z</time>
      </trkpt>
      <trkpt lat="43.66361" lon="3.82387">
        <ele>157.6</ele>
        <time>2017-06-07T10:27:10Z</time>
      </trkpt>
      <trkpt lat="43.66357" lon="3.82372">
        <ele>159.5</ele>
        <time>2017-06-07T10:27:12Z</time>
      </trkpt>
      <trkpt lat="43.66349" lon="3.82363">
        <ele>159.5</ele>
        <time>2017-06-07T10:27:15Z</time>
      </trkpt>
      <trkpt lat="43.66345" lon="3.82354">
        <ele>159.4</ele>
        <time>2017-06-07T10:27:17Z</time>
      </trkpt>
      <trkpt lat="43.66338" lon="3.82346">
        <ele>159.6</ele>
        <time>2017-06-07T10:27:19Z</time>
      </trkpt>
      <trkpt lat="43.66332" lon="3.8233">
        <ele>159.9</ele>
        <time>2017-06-07T10:27:21Z</time>
      </trkpt>
      <trkpt lat="43.66326" lon="3.82318">
        <ele>159.5</ele>
        <time>2017-06-07T10:27:23Z</time>
      </trkpt>
      <trkpt lat="43.66321" lon="3.82304">
        <ele>159.5</ele>
        <time>2017-06-07T10:27:25Z</time>
      </trkpt>
      <trkpt lat="43.66318" lon="3.82292">
        <ele>159.7</ele>
        <time>2017-06-07T10:27:27Z</time>
      </trkpt>
      <trkpt lat="43.66316" lon="3.82282">
        <ele>160.8</ele>
        <time>2017-06-07T10:27:29Z</time>
      </trkpt>
      <trkpt lat="43.66314" lon="3.82271">
        <ele>160.9</ele>
        <time>2017-06-07T10:27:31Z</time>
      </trkpt>
      <trkpt lat="43.66315" lon="3.82261">
        <ele>160.9</ele>
        <time>2017-06-07T10:27:33Z</time>
      </trkpt>
      <trkpt lat="43.66312" lon="3.82247">
        <ele>160.9</ele>
        <time>2017-06-07T10:27:36Z</time>
      </trkpt>
      <trkpt lat="43.6631" lon="3.82232">
        <ele>160.9</ele>
        <time>2017-06-07T10:27:39Z</time>
      </trkpt>
      <trkpt lat="43.6631" lon="3.8222">
        <ele>160.5</ele>
        <time>2017-06-07T10:27:42Z</time>
      </trkpt>
      <trkpt lat="43.66308" lon="3.82208">
        <ele>160.5</ele>
        <time>2017-06-07T10:27:45Z</time>
      </trkpt>
      <trkpt lat="43.66305" lon="3.82198">
        <ele>160.5</ele>
        <time>2017-06-07T10:27:47Z</time>
      </trkpt>
      <trkpt lat="43.663" lon="3.82185">
        <ele>161.2</ele>
        <time>2017-06-07T10:27:50Z</time>
      </trkpt>
      <trkpt lat="43.66295" lon="3.82173">
        <ele>161.1</ele>
        <time>2017-06-07T10:27:53Z</time>
      </trkpt>
      <trkpt lat="43.66287" lon="3.82161">
        <ele>160.5</ele>
        <time>2017-06-07T10:27:55Z</time>
      </trkpt>
      <trkpt lat="43.66279" lon="3.82146">
        <ele>160.4</ele>
        <time>2017-06-07T10:27:57Z</time>
      </trkpt>
      <trkpt lat="43.66277" lon="3.82136">
        <ele>160.1</ele>
        <time>2017-06-07T10:27:58Z</time>
      </trkpt>
      <trkpt lat="43.66272" lon="3.82118">
        <ele>160</ele>
        <time>2017-06-07T10:28:00Z</time>
      </trkpt>
      <trkpt lat="43.66269" lon="3.82103">
        <ele>159.2</ele>
        <time>2017-06-07T10:28:02Z</time>
      </trkpt>
      <trkpt lat="43.66263" lon="3.82091">
        <ele>160.8</ele>
        <time>2017-06-07T10:28:04Z</time>
      </trkpt>
      <trkpt lat="43.66255" lon="3.82077">
        <ele>163.6</ele>
        <time>2017-06-07T10:28:06Z</time>
      </trkpt>
      <trkpt lat="43.6625" lon="3.8207">
        <ele>164</ele>
        <time>2017-06-07T10:28:07Z</time>
      </trkpt>
      <trkpt lat="43.66245" lon="3.82054">
        <ele>164.2</ele>
        <time>2017-06-07T10:28:09Z</time>
      </trkpt>
      <trkpt lat="43.66241" lon="3.82038">
        <ele>164.4</ele>
        <time>2017-06-07T10:28:11Z</time>
      </trkpt>
      <trkpt lat="43.66237" lon="3.82025">
        <ele>165</ele>
        <time>2017-06-07T10:28:13Z</time>
      </trkpt>
      <trkpt lat="43.66229" lon="3.8202">
        <ele>165</ele>
        <time>2017-06-07T10:28:15Z</time>
      </trkpt>
      <trkpt lat="43.66221" lon="3.82011">
        <ele>160.6</ele>
        <time>2017-06-07T10:28:17Z</time>
      </trkpt>
      <trkpt lat="43.66214" lon="3.82007">
        <ele>159.2</ele>
        <time>2017-06-07T10:28:18Z</time>
      </trkpt>
      <trkpt lat="43.66206" lon="3.81994">
        <ele>157.6</ele>
        <time>2017-06-07T10:28:20Z</time>
      </trkpt>
      <trkpt lat="43.66209" lon="3.81979">
        <ele>157.4</ele>
        <time>2017-06-07T10:28:23Z</time>
      </trkpt>
      <trkpt lat="43.66209" lon="3.81969">
        <ele>157.2</ele>
        <time>2017-06-07T10:28:26Z</time>
      </trkpt>
      <trkpt lat="43.66207" lon="3.81957">
        <ele>157</ele>
        <time>2017-06-07T10:28:29Z</time>
      </trkpt>
      <trkpt lat="43.66205" lon="3.81946">
        <ele>156.9</ele>
        <time>2017-06-07T10:28:31Z</time>
      </trkpt>
      <trkpt lat="43.66206" lon="3.81933">
        <ele>156.8</ele>
        <time>2017-06-07T10:28:33Z</time>
      </trkpt>
      <trkpt lat="43.66208" lon="3.81922">
        <ele>156.9</ele>
        <time>2017-06-07T10:28:35Z</time>
      </trkpt>
      <trkpt lat="43.66211" lon="3.81908">
        <ele>157.4</ele>
        <time>2017-06-07T10:28:38Z</time>
      </trkpt>
      <trkpt lat="43.66213" lon="3.81895">
        <ele>157.4</ele>
        <time>2017-06-07T10:28:41Z</time>
      </trkpt>
      <trkpt lat="43.66212" lon="3.81883">
        <ele>158.5</ele>
        <time>2017-06-07T10:28:44Z</time>
      </trkpt>
      <trkpt lat="43.66213" lon="3.81869">
        <ele>158.6</ele>
        <time>2017-06-07T10:28:47Z</time>
      </trkpt>
      <trkpt lat="43.66216" lon="3.81857">
        <ele>161.2</ele>
        <time>2017-06-07T10:28:49Z</time>
      </trkpt>
      <trkpt lat="43.66221" lon="3.81844">
        <ele>161.4</ele>
        <time>2017-06-07T10:28:52Z</time>
      </trkpt>
      <trkpt lat="43.66222" lon="3.81833">
        <ele>161.7</ele>
        <time>2017-06-07T10:28:56Z</time>
      </trkpt>
      <trkpt lat="43.6622" lon="3.81821">
        <ele>161.7</ele>
        <time>2017-06-07T10:28:59Z</time>
      </trkpt>
      <trkpt lat="43.66221" lon="3.8181">
        <ele>162.1</ele>
        <time>2017-06-07T10:29:01Z</time>
      </trkpt>
      <trkpt lat="43.6622" lon="3.818">
        <ele>162.2</ele>
        <time>2017-06-07T10:29:03Z</time>
      </trkpt>
      <trkpt lat="43.6622" lon="3.81787">
        <ele>162.3</ele>
        <time>2017-06-07T10:29:06Z</time>
      </trkpt>
      <trkpt lat="43.66221" lon="3.81774">
        <ele>162.2</ele>
        <time>2017-06-07T10:29:10Z</time>
      </trkpt>
      <trkpt lat="43.66221" lon="3.81762">
        <ele>162.1</ele>
        <time>2017-06-07T10:29:13Z</time>
      </trkpt>
      <trkpt lat="43.66218" lon="3.81753">
        <ele>162.1</ele>
        <time>2017-06-07T10:29:15Z</time>
      </trkpt>
      <trkpt lat="43.66216" lon="3.81743">
        <ele>162.1</ele>
        <time>2017-06-07T10:29:17Z</time>
      </trkpt>
      <trkpt lat="43.66214" lon="3.81731">
        <ele>162.4</ele>
        <time>2017-06-07T10:29:20Z</time>
      </trkpt>
      <trkpt lat="43.66213" lon="3.8172">
        <ele>162.7</ele>
        <time>2017-06-07T10:29:22Z</time>
      </trkpt>
      <trkpt lat="43.66213" lon="3.81709">
        <ele>163.1</ele>
        <time>2017-06-07T10:29:25Z</time>
      </trkpt>
      <trkpt lat="43.66213" lon="3.81696">
        <ele>163.2</ele>
        <time>2017-06-07T10:29:27Z</time>
      </trkpt>
      <trkpt lat="43.66213" lon="3.81684">
        <ele>163.3</ele>
        <time>2017-06-07T10:29:29Z</time>
      </trkpt>
      <trkpt lat="43.66213" lon="3.81672">
        <ele>164.3</ele>
        <time>2017-06-07T10:29:33Z</time>
      </trkpt>
      <trkpt lat="43.66209" lon="3.81663">
        <ele>164.9</ele>
        <time>2017-06-07T10:29:35Z</time>
      </trkpt>
      <trkpt lat="43.66209" lon="3.81647">
        <ele>165.2</ele>
        <time>2017-06-07T10:29:37Z</time>
      </trkpt>
      <trkpt lat="43.6621" lon="3.81633">
        <ele>165.1</ele>
        <time>2017-06-07T10:29:39Z</time>
      </trkpt>
      <trkpt lat="43.66208" lon="3.81619">
        <ele>165.1</ele>
        <time>2017-06-07T10:29:43Z</time>
      </trkpt>
      <trkpt lat="43.66208" lon="3.81607">
        <ele>165.8</ele>
        <time>2017-06-07T10:29:45Z</time>
      </trkpt>
      <trkpt lat="43.66207" lon="3.8159">
        <ele>166.2</ele>
        <time>2017-06-07T10:29:47Z</time>
      </trkpt>
      <trkpt lat="43.66201" lon="3.81581">
        <ele>166.7</ele>
        <time>2017-06-07T10:29:49Z</time>
      </trkpt>
      <trkpt lat="43.66205" lon="3.81568">
        <ele>164.7</ele>
        <time>2017-06-07T10:29:51Z</time>
      </trkpt>
      <trkpt lat="43.6621" lon="3.81553">
        <ele>162.1</ele>
        <time>2017-06-07T10:29:53Z</time>
      </trkpt>
      <trkpt lat="43.66206" lon="3.81544">
        <ele>161.5</ele>
        <time>2017-06-07T10:29:55Z</time>
      </trkpt>
      <trkpt lat="43.662" lon="3.81532">
        <ele>159.8</ele>
        <time>2017-06-07T10:29:58Z</time>
      </trkpt>
      <trkpt lat="43.66193" lon="3.81519">
        <ele>159.2</ele>
        <time>2017-06-07T10:30:01Z</time>
      </trkpt>
      <trkpt lat="43.6619" lon="3.81504">
        <ele>158.1</ele>
        <time>2017-06-07T10:30:03Z</time>
      </trkpt>
      <trkpt lat="43.66187" lon="3.8149">
        <ele>156.3</ele>
        <time>2017-06-07T10:30:05Z</time>
      </trkpt>
      <trkpt lat="43.66179" lon="3.81485">
        <ele>154.3</ele>
        <time>2017-06-07T10:30:07Z</time>
      </trkpt>
      <trkpt lat="43.66172" lon="3.81475">
        <ele>153.4</ele>
        <time>2017-06-07T10:30:09Z</time>
      </trkpt>
      <trkpt lat="43.66163" lon="3.81463">
        <ele>152.2</ele>
        <time>2017-06-07T10:30:11Z</time>
      </trkpt>
      <trkpt lat="43.66163" lon="3.81451">
        <ele>152.2</ele>
        <time>2017-06-07T10:30:13Z</time>
      </trkpt>
      <trkpt lat="43.66164" lon="3.81439">
        <ele>151.9</ele>
        <time>2017-06-07T10:30:15Z</time>
      </trkpt>
      <trkpt lat="43.66164" lon="3.81426">
        <ele>150.1</ele>
        <time>2017-06-07T10:30:18Z</time>
      </trkpt>
      <trkpt lat="43.66159" lon="3.81413">
        <ele>149.2</ele>
        <time>2017-06-07T10:30:20Z</time>
      </trkpt>
      <trkpt lat="43.66153" lon="3.814">
        <ele>146.9</ele>
        <time>2017-06-07T10:30:22Z</time>
      </trkpt>
      <trkpt lat="43.66148" lon="3.81383">
        <ele>145.4</ele>
        <time>2017-06-07T10:30:24Z</time>
      </trkpt>
      <trkpt lat="43.66145" lon="3.81367">
        <ele>143.1</ele>
        <time>2017-06-07T10:30:26Z</time>
      </trkpt>
      <trkpt lat="43.66142" lon="3.81351">
        <ele>140.7</ele>
        <time>2017-06-07T10:30:28Z</time>
      </trkpt>
      <trkpt lat="43.66139" lon="3.81336">
        <ele>138.8</ele>
        <time>2017-06-07T10:30:30Z</time>
      </trkpt>
      <trkpt lat="43.66142" lon="3.81327">
        <ele>138.7</ele>
        <time>2017-06-07T10:30:32Z</time>
      </trkpt>
      <trkpt lat="43.66148" lon="3.81321">
        <ele>138.6</ele>
        <time>2017-06-07T10:30:34Z</time>
      </trkpt>
      <trkpt lat="43.66155" lon="3.81316">
        <ele>138.6</ele>
        <time>2017-06-07T10:30:37Z</time>
      </trkpt>
      <trkpt lat="43.66163" lon="3.81312">
        <ele>138.9</ele>
        <time>2017-06-07T10:30:41Z</time>
      </trkpt>
      <trkpt lat="43.6617" lon="3.81307">
        <ele>139</ele>
        <time>2017-06-07T10:30:44Z</time>
      </trkpt>
      <trkpt lat="43.66179" lon="3.81303">
        <ele>139.4</ele>
        <time>2017-06-07T10:30:48Z</time>
      </trkpt>
      <trkpt lat="43.66188" lon="3.81299">
        <ele>139.4</ele>
        <time>2017-06-07T10:30:51Z</time>
      </trkpt>
      <trkpt lat="43.66196" lon="3.81295">
        <ele>139.5</ele>
        <time>2017-06-07T10:30:54Z</time>
      </trkpt>
      <trkpt lat="43.66202" lon="3.81289">
        <ele>139.9</ele>
        <time>2017-06-07T10:30:57Z</time>
      </trkpt>
      <trkpt lat="43.66212" lon="3.81285">
        <ele>140.4</ele>
        <time>2017-06-07T10:31:01Z</time>
      </trkpt>
      <trkpt lat="43.66219" lon="3.81281">
        <ele>140.7</ele>
        <time>2017-06-07T10:31:04Z</time>
      </trkpt>
      <trkpt lat="43.66228" lon="3.81279">
        <ele>141</ele>
        <time>2017-06-07T10:31:08Z</time>
      </trkpt>
      <trkpt lat="43.66237" lon="3.81276">
        <ele>141.3</ele>
        <time>2017-06-07T10:31:12Z</time>
      </trkpt>
      <trkpt lat="43.66245" lon="3.81272">
        <ele>141.5</ele>
        <time>2017-06-07T10:31:16Z</time>
      </trkpt>
      <trkpt lat="43.66254" lon="3.81268">
        <ele>142</ele>
        <time>2017-06-07T10:31:20Z</time>
      </trkpt>
      <trkpt lat="43.66262" lon="3.81262">
        <ele>142.2</ele>
        <time>2017-06-07T10:31:24Z</time>
      </trkpt>
      <trkpt lat="43.66269" lon="3.81257">
        <ele>142.4</ele>
        <time>2017-06-07T10:31:27Z</time>
      </trkpt>
      <trkpt lat="43.66277" lon="3.81254">
        <ele>142.7</ele>
        <time>2017-06-07T10:31:30Z</time>
      </trkpt>
      <trkpt lat="43.66285" lon="3.81249">
        <ele>142.8</ele>
        <time>2017-06-07T10:31:34Z</time>
      </trkpt>
      <trkpt lat="43.66292" lon="3.81244">
        <ele>143.1</ele>
        <time>2017-06-07T10:31:38Z</time>
      </trkpt>
      <trkpt lat="43.663" lon="3.81242">
        <ele>143.2</ele>
        <time>2017-06-07T10:31:41Z</time>
      </trkpt>
      <trkpt lat="43.66308" lon="3.81242">
        <ele>143.6</ele>
        <time>2017-06-07T10:31:44Z</time>
      </trkpt>
      <trkpt lat="43.66317" lon="3.81241">
        <ele>144.4</ele>
        <time>2017-06-07T10:31:48Z</time>
      </trkpt>
      <trkpt lat="43.66327" lon="3.8124">
        <ele>145.1</ele>
        <time>2017-06-07T10:31:53Z</time>
      </trkpt>
      <trkpt lat="43.66334" lon="3.8124">
        <ele>145.4</ele>
        <time>2017-06-07T10:31:56Z</time>
      </trkpt>
      <trkpt lat="43.66344" lon="3.81238">
        <ele>146</ele>
        <time>2017-06-07T10:32:00Z</time>
      </trkpt>
      <trkpt lat="43.66352" lon="3.81236">
        <ele>146.6</ele>
        <time>2017-06-07T10:32:04Z</time>
      </trkpt>
      <trkpt lat="43.6636" lon="3.81235">
        <ele>147.9</ele>
        <time>2017-06-07T10:32:10Z</time>
      </trkpt>
      <trkpt lat="43.66368" lon="3.81234">
        <ele>149.3</ele>
        <time>2017-06-07T10:32:15Z</time>
      </trkpt>
      <trkpt lat="43.66378" lon="3.81234">
        <ele>150.3</ele>
        <time>2017-06-07T10:32:19Z</time>
      </trkpt>
      <trkpt lat="43.66385" lon="3.81235">
        <ele>151</ele>
        <time>2017-06-07T10:32:22Z</time>
      </trkpt>
      <trkpt lat="43.66393" lon="3.81234">
        <ele>151.7</ele>
        <time>2017-06-07T10:32:25Z</time>
      </trkpt>
      <trkpt lat="43.66403" lon="3.81237">
        <ele>152.6</ele>
        <time>2017-06-07T10:32:29Z</time>
      </trkpt>
      <trkpt lat="43.66411" lon="3.81237">
        <ele>153.1</ele>
        <time>2017-06-07T10:32:32Z</time>
      </trkpt>
      <trkpt lat="43.66419" lon="3.81237">
        <ele>153.9</ele>
        <time>2017-06-07T10:32:35Z</time>
      </trkpt>
      <trkpt lat="43.66427" lon="3.81234">
        <ele>155.1</ele>
        <time>2017-06-07T10:32:39Z</time>
      </trkpt>
      <trkpt lat="43.66434" lon="3.81237">
        <ele>155.7</ele>
        <time>2017-06-07T10:32:42Z</time>
      </trkpt>
      <trkpt lat="43.66442" lon="3.81237">
        <ele>156.4</ele>
        <time>2017-06-07T10:32:45Z</time>
      </trkpt>
      <trkpt lat="43.6645" lon="3.81238">
        <ele>156.8</ele>
        <time>2017-06-07T10:32:48Z</time>
      </trkpt>
      <trkpt lat="43.66458" lon="3.81238">
        <ele>157.3</ele>
        <time>2017-06-07T10:32:52Z</time>
      </trkpt>
      <trkpt lat="43.66467" lon="3.81238">
        <ele>157.8</ele>
        <time>2017-06-07T10:32:56Z</time>
      </trkpt>
      <trkpt lat="43.66476" lon="3.81237">
        <ele>158.4</ele>
        <time>2017-06-07T10:33:00Z</time>
      </trkpt>
      <trkpt lat="43.66483" lon="3.81236">
        <ele>159.1</ele>
        <time>2017-06-07T10:33:04Z</time>
      </trkpt>
      <trkpt lat="43.66492" lon="3.81238">
        <ele>159.8</ele>
        <time>2017-06-07T10:33:08Z</time>
      </trkpt>
      <trkpt lat="43.66501" lon="3.8124">
        <ele>160.8</ele>
        <time>2017-06-07T10:33:12Z</time>
      </trkpt>
      <trkpt lat="43.66511" lon="3.81238">
        <ele>161.8</ele>
        <time>2017-06-07T10:33:15Z</time>
      </trkpt>
      <trkpt lat="43.66519" lon="3.81236">
        <ele>162.8</ele>
        <time>2017-06-07T10:33:19Z</time>
      </trkpt>
      <trkpt lat="43.66527" lon="3.81239">
        <ele>163.7</ele>
        <time>2017-06-07T10:33:22Z</time>
      </trkpt>
      <trkpt lat="43.66536" lon="3.81242">
        <ele>164.8</ele>
        <time>2017-06-07T10:33:26Z</time>
      </trkpt>
      <trkpt lat="43.66544" lon="3.81243">
        <ele>165.9</ele>
        <time>2017-06-07T10:33:29Z</time>
      </trkpt>
      <trkpt lat="43.66551" lon="3.81243">
        <ele>167</ele>
        <time>2017-06-07T10:33:32Z</time>
      </trkpt>
      <trkpt lat="43.66559" lon="3.8124">
        <ele>168.1</ele>
        <time>2017-06-07T10:33:36Z</time>
      </trkpt>
      <trkpt lat="43.66568" lon="3.81236">
        <ele>169</ele>
        <time>2017-06-07T10:33:40Z</time>
      </trkpt>
      <trkpt lat="43.66577" lon="3.81237">
        <ele>169.9</ele>
        <time>2017-06-07T10:33:44Z</time>
      </trkpt>
      <trkpt lat="43.66585" lon="3.81238">
        <ele>170.6</ele>
        <time>2017-06-07T10:33:47Z</time>
      </trkpt>
      <trkpt lat="43.66593" lon="3.81238">
        <ele>171.7</ele>
        <time>2017-06-07T10:33:51Z</time>
      </trkpt>
      <trkpt lat="43.66601" lon="3.81235">
        <ele>173.6</ele>
        <time>2017-06-07T10:33:57Z</time>
      </trkpt>
      <trkpt lat="43.66609" lon="3.81232">
        <ele>174.2</ele>
        <time>2017-06-07T10:34:00Z</time>
      </trkpt>
      <trkpt lat="43.66617" lon="3.8123">
        <ele>174.9</ele>
        <time>2017-06-07T10:34:03Z</time>
      </trkpt>
      <trkpt lat="43.66624" lon="3.81227">
        <ele>175.9</ele>
        <time>2017-06-07T10:34:06Z</time>
      </trkpt>
      <trkpt lat="43.66632" lon="3.81225">
        <ele>177.2</ele>
        <time>2017-06-07T10:34:10Z</time>
      </trkpt>
      <trkpt lat="43.6664" lon="3.81225">
        <ele>178.1</ele>
        <time>2017-06-07T10:34:13Z</time>
      </trkpt>
      <trkpt lat="43.66648" lon="3.81224">
        <ele>179.1</ele>
        <time>2017-06-07T10:34:16Z</time>
      </trkpt>
      <trkpt lat="43.66656" lon="3.81224">
        <ele>179.9</ele>
        <time>2017-06-07T10:34:19Z</time>
      </trkpt>
      <trkpt lat="43.66663" lon="3.81217">
        <ele>180.7</ele>
        <time>2017-06-07T10:34:23Z</time>
      </trkpt>
      <trkpt lat="43.66671" lon="3.81216">
        <ele>181.1</ele>
        <time>2017-06-07T10:34:26Z</time>
      </trkpt>
      <trkpt lat="43.66679" lon="3.81218">
        <ele>181.5</ele>
        <time>2017-06-07T10:34:28Z</time>
      </trkpt>
      <trkpt lat="43.66689" lon="3.81219">
        <ele>181.9</ele>
        <time>2017-06-07T10:34:31Z</time>
      </trkpt>
      <trkpt lat="43.66698" lon="3.81219">
        <ele>182.3</ele>
        <time>2017-06-07T10:34:34Z</time>
      </trkpt>
      <trkpt lat="43.66706" lon="3.8122">
        <ele>184.3</ele>
        <time>2017-06-07T10:34:36Z</time>
      </trkpt>
      <trkpt lat="43.66715" lon="3.81216">
        <ele>187.4</ele>
        <time>2017-06-07T10:34:38Z</time>
      </trkpt>
      <trkpt lat="43.66723" lon="3.81216">
        <ele>187.6</ele>
        <time>2017-06-07T10:34:40Z</time>
      </trkpt>
      <trkpt lat="43.66732" lon="3.81215">
        <ele>187.7</ele>
        <time>2017-06-07T10:34:43Z</time>
      </trkpt>
      <trkpt lat="43.6674" lon="3.81218">
        <ele>188</ele>
        <time>2017-06-07T10:34:46Z</time>
      </trkpt>
      <trkpt lat="43.66749" lon="3.8122">
        <ele>187.9</ele>
        <time>2017-06-07T10:34:48Z</time>
      </trkpt>
      <trkpt lat="43.66755" lon="3.81214">
        <ele>187.7</ele>
        <time>2017-06-07T10:34:51Z</time>
      </trkpt>
      <trkpt lat="43.66762" lon="3.81207">
        <ele>187.7</ele>
        <time>2017-06-07T10:34:55Z</time>
      </trkpt>
      <trkpt lat="43.66768" lon="3.812">
        <ele>187.7</ele>
        <time>2017-06-07T10:34:58Z</time>
      </trkpt>
      <trkpt lat="43.66773" lon="3.81189">
        <ele>188.2</ele>
        <time>2017-06-07T10:35:01Z</time>
      </trkpt>
      <trkpt lat="43.66774" lon="3.8118">
        <ele>188.5</ele>
        <time>2017-06-07T10:35:03Z</time>
      </trkpt>
      <trkpt lat="43.66775" lon="3.81165">
        <ele>187.4</ele>
        <time>2017-06-07T10:35:07Z</time>
      </trkpt>
      <trkpt lat="43.66783" lon="3.81165">
        <ele>187.1</ele>
        <time>2017-06-07T10:35:08Z</time>
      </trkpt>
      <trkpt lat="43.66794" lon="3.81162">
        <ele>186.8</ele>
        <time>2017-06-07T10:35:10Z</time>
      </trkpt>
      <trkpt lat="43.66802" lon="3.81159">
        <ele>186.8</ele>
        <time>2017-06-07T10:35:12Z</time>
      </trkpt>
      <trkpt lat="43.66804" lon="3.81149">
        <ele>184.1</ele>
        <time>2017-06-07T10:35:16Z</time>
      </trkpt>
      <trkpt lat="43.66809" lon="3.81137">
        <ele>183.9</ele>
        <time>2017-06-07T10:35:18Z</time>
      </trkpt>
      <trkpt lat="43.66815" lon="3.81125">
        <ele>183.9</ele>
        <time>2017-06-07T10:35:20Z</time>
      </trkpt>
      <trkpt lat="43.66822" lon="3.81112">
        <ele>183.1</ele>
        <time>2017-06-07T10:35:22Z</time>
      </trkpt>
      <trkpt lat="43.6683" lon="3.81099">
        <ele>182</ele>
        <time>2017-06-07T10:35:24Z</time>
      </trkpt>
      <trkpt lat="43.66837" lon="3.81092">
        <ele>181.3</ele>
        <time>2017-06-07T10:35:26Z</time>
      </trkpt>
      <trkpt lat="43.66845" lon="3.8109">
        <ele>181.1</ele>
        <time>2017-06-07T10:35:29Z</time>
      </trkpt>
      <trkpt lat="43.66842" lon="3.81092">
        <ele>179.1</ele>
        <time>2017-06-07T10:35:43Z</time>
      </trkpt>
      <trkpt lat="43.66834" lon="3.81088">
        <ele>178.7</ele>
        <time>2017-06-07T10:35:48Z</time>
      </trkpt>
      <trkpt lat="43.66829" lon="3.81082">
        <ele>178.1</ele>
        <time>2017-06-07T10:35:55Z</time>
      </trkpt>
      <trkpt lat="43.66836" lon="3.81089">
        <ele>177.5</ele>
        <time>2017-06-07T10:36:00Z</time>
      </trkpt>
      <trkpt lat="43.66845" lon="3.81089">
        <ele>177.1</ele>
        <time>2017-06-07T10:36:03Z</time>
      </trkpt>
      <trkpt lat="43.66856" lon="3.81087">
        <ele>174.5</ele>
        <time>2017-06-07T10:36:06Z</time>
      </trkpt>
      <trkpt lat="43.66863" lon="3.81084">
        <ele>174.2</ele>
        <time>2017-06-07T10:36:08Z</time>
      </trkpt>
      <trkpt lat="43.6687" lon="3.81084">
        <ele>173</ele>
        <time>2017-06-07T10:36:10Z</time>
      </trkpt>
      <trkpt lat="43.66882" lon="3.81082">
        <ele>172.5</ele>
        <time>2017-06-07T10:36:12Z</time>
      </trkpt>
      <trkpt lat="43.66892" lon="3.81083">
        <ele>172.2</ele>
        <time>2017-06-07T10:36:14Z</time>
      </trkpt>
      <trkpt lat="43.66904" lon="3.81081">
        <ele>170.9</ele>
        <time>2017-06-07T10:36:16Z</time>
      </trkpt>
      <trkpt lat="43.66914" lon="3.81072">
        <ele>170.6</ele>
        <time>2017-06-07T10:36:19Z</time>
      </trkpt>
      <trkpt lat="43.66921" lon="3.81069">
        <ele>170.6</ele>
        <time>2017-06-07T10:36:21Z</time>
      </trkpt>
      <trkpt lat="43.66928" lon="3.81059">
        <ele>170</ele>
        <time>2017-06-07T10:36:23Z</time>
      </trkpt>
      <trkpt lat="43.66937" lon="3.81051">
        <ele>170.4</ele>
        <time>2017-06-07T10:36:25Z</time>
      </trkpt>
      <trkpt lat="43.66947" lon="3.81046">
        <ele>171.1</ele>
        <time>2017-06-07T10:36:27Z</time>
      </trkpt>
      <trkpt lat="43.66956" lon="3.81042">
        <ele>172.3</ele>
        <time>2017-06-07T10:36:29Z</time>
      </trkpt>
      <trkpt lat="43.66964" lon="3.81041">
        <ele>172.9</ele>
        <time>2017-06-07T10:36:31Z</time>
      </trkpt>
      <trkpt lat="43.66971" lon="3.81037">
        <ele>173</ele>
        <time>2017-06-07T10:36:33Z</time>
      </trkpt>
      <trkpt lat="43.66979" lon="3.81037">
        <ele>172.9</ele>
        <time>2017-06-07T10:36:35Z</time>
      </trkpt>
      <trkpt lat="43.66986" lon="3.81042">
        <ele>172.9</ele>
        <time>2017-06-07T10:36:38Z</time>
      </trkpt>
      <trkpt lat="43.66993" lon="3.81043">
        <ele>172.9</ele>
        <time>2017-06-07T10:36:41Z</time>
      </trkpt>
      <trkpt lat="43.67002" lon="3.81043">
        <ele>173.3</ele>
        <time>2017-06-07T10:36:44Z</time>
      </trkpt>
      <trkpt lat="43.67007" lon="3.81035">
        <ele>173.5</ele>
        <time>2017-06-07T10:36:47Z</time>
      </trkpt>
      <trkpt lat="43.67015" lon="3.8103">
        <ele>173.4</ele>
        <time>2017-06-07T10:36:51Z</time>
      </trkpt>
      <trkpt lat="43.67025" lon="3.8103">
        <ele>173.3</ele>
        <time>2017-06-07T10:36:56Z</time>
      </trkpt>
      <trkpt lat="43.67032" lon="3.81034">
        <ele>173.5</ele>
        <time>2017-06-07T10:36:58Z</time>
      </trkpt>
      <trkpt lat="43.67037" lon="3.81039">
        <ele>173.6</ele>
        <time>2017-06-07T10:37:00Z</time>
      </trkpt>
      <trkpt lat="43.67045" lon="3.81047">
        <ele>173.3</ele>
        <time>2017-06-07T10:37:03Z</time>
      </trkpt>
      <trkpt lat="43.67051" lon="3.81054">
        <ele>171.9</ele>
        <time>2017-06-07T10:37:05Z</time>
      </trkpt>
      <trkpt lat="43.6706" lon="3.81054">
        <ele>171.1</ele>
        <time>2017-06-07T10:37:08Z</time>
      </trkpt>
      <trkpt lat="43.67069" lon="3.81058">
        <ele>170.9</ele>
        <time>2017-06-07T10:37:11Z</time>
      </trkpt>
      <trkpt lat="43.6708" lon="3.81058">
        <ele>170.8</ele>
        <time>2017-06-07T10:37:14Z</time>
      </trkpt>
      <trkpt lat="43.6709" lon="3.81062">
        <ele>170.7</ele>
        <time>2017-06-07T10:37:17Z</time>
      </trkpt>
      <trkpt lat="43.67099" lon="3.81063">
        <ele>170.5</ele>
        <time>2017-06-07T10:37:20Z</time>
      </trkpt>
      <trkpt lat="43.67109" lon="3.81065">
        <ele>170.2</ele>
        <time>2017-06-07T10:37:23Z</time>
      </trkpt>
      <trkpt lat="43.67118" lon="3.81069">
        <ele>169.8</ele>
        <time>2017-06-07T10:37:26Z</time>
      </trkpt>
      <trkpt lat="43.67126" lon="3.81074">
        <ele>169.9</ele>
        <time>2017-06-07T10:37:28Z</time>
      </trkpt>
      <trkpt lat="43.67133" lon="3.81077">
        <ele>169.9</ele>
        <time>2017-06-07T10:37:31Z</time>
      </trkpt>
      <trkpt lat="43.67142" lon="3.81076">
        <ele>169.9</ele>
        <time>2017-06-07T10:37:35Z</time>
      </trkpt>
      <trkpt lat="43.6715" lon="3.81068">
        <ele>169.7</ele>
        <time>2017-06-07T10:37:38Z</time>
      </trkpt>
      <trkpt lat="43.67158" lon="3.81062">
        <ele>169.6</ele>
        <time>2017-06-07T10:37:41Z</time>
      </trkpt>
      <trkpt lat="43.67166" lon="3.81052">
        <ele>168.3</ele>
        <time>2017-06-07T10:37:44Z</time>
      </trkpt>
      <trkpt lat="43.67175" lon="3.81046">
        <ele>167.5</ele>
        <time>2017-06-07T10:37:46Z</time>
      </trkpt>
      <trkpt lat="43.67184" lon="3.81043">
        <ele>166.8</ele>
        <time>2017-06-07T10:37:48Z</time>
      </trkpt>
      <trkpt lat="43.67192" lon="3.81036">
        <ele>165.6</ele>
        <time>2017-06-07T10:37:50Z</time>
      </trkpt>
      <trkpt lat="43.672" lon="3.81031">
        <ele>164.8</ele>
        <time>2017-06-07T10:37:52Z</time>
      </trkpt>
      <trkpt lat="43.67208" lon="3.81027">
        <ele>165.5</ele>
        <time>2017-06-07T10:37:54Z</time>
      </trkpt>
      <trkpt lat="43.67218" lon="3.81025">
        <ele>166.6</ele>
        <time>2017-06-07T10:37:56Z</time>
      </trkpt>
      <trkpt lat="43.67229" lon="3.81024">
        <ele>167.7</ele>
        <time>2017-06-07T10:37:58Z</time>
      </trkpt>
      <trkpt lat="43.67237" lon="3.81017">
        <ele>169.3</ele>
        <time>2017-06-07T10:38:00Z</time>
      </trkpt>
      <trkpt lat="43.67244" lon="3.81006">
        <ele>170.1</ele>
        <time>2017-06-07T10:38:03Z</time>
      </trkpt>
      <trkpt lat="43.67244" lon="3.80991">
        <ele>170.3</ele>
        <time>2017-06-07T10:38:05Z</time>
      </trkpt>
      <trkpt lat="43.6724" lon="3.80981">
        <ele>171.2</ele>
        <time>2017-06-07T10:38:07Z</time>
      </trkpt>
      <trkpt lat="43.67242" lon="3.80971">
        <ele>171.8</ele>
        <time>2017-06-07T10:38:09Z</time>
      </trkpt>
      <trkpt lat="43.67246" lon="3.80958">
        <ele>173.6</ele>
        <time>2017-06-07T10:38:11Z</time>
      </trkpt>
      <trkpt lat="43.67246" lon="3.80943">
        <ele>175.1</ele>
        <time>2017-06-07T10:38:13Z</time>
      </trkpt>
      <trkpt lat="43.6725" lon="3.80928">
        <ele>175.5</ele>
        <time>2017-06-07T10:38:15Z</time>
      </trkpt>
      <trkpt lat="43.67254" lon="3.80912">
        <ele>174.3</ele>
        <time>2017-06-07T10:38:17Z</time>
      </trkpt>
      <trkpt lat="43.67258" lon="3.80898">
        <ele>173</ele>
        <time>2017-06-07T10:38:19Z</time>
      </trkpt>
      <trkpt lat="43.67264" lon="3.80887">
        <ele>171.8</ele>
        <time>2017-06-07T10:38:21Z</time>
      </trkpt>
      <trkpt lat="43.6727" lon="3.80875">
        <ele>170.6</ele>
        <time>2017-06-07T10:38:23Z</time>
      </trkpt>
      <trkpt lat="43.67275" lon="3.80865">
        <ele>170.5</ele>
        <time>2017-06-07T10:38:25Z</time>
      </trkpt>
      <trkpt lat="43.6728" lon="3.80857">
        <ele>170.3</ele>
        <time>2017-06-07T10:38:27Z</time>
      </trkpt>
      <trkpt lat="43.67286" lon="3.80847">
        <ele>170.1</ele>
        <time>2017-06-07T10:38:29Z</time>
      </trkpt>
      <trkpt lat="43.67293" lon="3.8084">
        <ele>170</ele>
        <time>2017-06-07T10:38:31Z</time>
      </trkpt>
      <trkpt lat="43.67299" lon="3.80831">
        <ele>169.8</ele>
        <time>2017-06-07T10:38:33Z</time>
      </trkpt>
      <trkpt lat="43.67307" lon="3.80824">
        <ele>168.8</ele>
        <time>2017-06-07T10:38:35Z</time>
      </trkpt>
      <trkpt lat="43.67313" lon="3.80814">
        <ele>166.9</ele>
        <time>2017-06-07T10:38:37Z</time>
      </trkpt>
      <trkpt lat="43.67318" lon="3.80804">
        <ele>165.2</ele>
        <time>2017-06-07T10:38:39Z</time>
      </trkpt>
      <trkpt lat="43.67324" lon="3.80796">
        <ele>163</ele>
        <time>2017-06-07T10:38:41Z</time>
      </trkpt>
      <trkpt lat="43.67328" lon="3.80787">
        <ele>162.8</ele>
        <time>2017-06-07T10:38:43Z</time>
      </trkpt>
      <trkpt lat="43.67336" lon="3.80776">
        <ele>162.2</ele>
        <time>2017-06-07T10:38:45Z</time>
      </trkpt>
      <trkpt lat="43.67345" lon="3.80763">
        <ele>160.6</ele>
        <time>2017-06-07T10:38:47Z</time>
      </trkpt>
      <trkpt lat="43.67351" lon="3.80751">
        <ele>160.1</ele>
        <time>2017-06-07T10:38:49Z</time>
      </trkpt>
      <trkpt lat="43.6736" lon="3.80744">
        <ele>159.2</ele>
        <time>2017-06-07T10:38:52Z</time>
      </trkpt>
      <trkpt lat="43.67372" lon="3.80733">
        <ele>157.5</ele>
        <time>2017-06-07T10:38:54Z</time>
      </trkpt>
      <trkpt lat="43.67383" lon="3.80731">
        <ele>157</ele>
        <time>2017-06-07T10:38:56Z</time>
      </trkpt>
      <trkpt lat="43.67391" lon="3.80732">
        <ele>156.9</ele>
        <time>2017-06-07T10:38:59Z</time>
      </trkpt>
      <trkpt lat="43.67401" lon="3.80734">
        <ele>156.6</ele>
        <time>2017-06-07T10:39:02Z</time>
      </trkpt>
      <trkpt lat="43.6741" lon="3.80734">
        <ele>156.3</ele>
        <time>2017-06-07T10:39:05Z</time>
      </trkpt>
      <trkpt lat="43.67421" lon="3.80734">
        <ele>154.8</ele>
        <time>2017-06-07T10:39:08Z</time>
      </trkpt>
      <trkpt lat="43.67428" lon="3.80735">
        <ele>154.8</ele>
        <time>2017-06-07T10:39:10Z</time>
      </trkpt>
      <trkpt lat="43.67439" lon="3.80735">
        <ele>154.7</ele>
        <time>2017-06-07T10:39:13Z</time>
      </trkpt>
      <trkpt lat="43.67449" lon="3.80736">
        <ele>154.5</ele>
        <time>2017-06-07T10:39:16Z</time>
      </trkpt>
      <trkpt lat="43.67459" lon="3.80734">
        <ele>152.8</ele>
        <time>2017-06-07T10:39:18Z</time>
      </trkpt>
      <trkpt lat="43.67467" lon="3.80734">
        <ele>152.6</ele>
        <time>2017-06-07T10:39:20Z</time>
      </trkpt>
      <trkpt lat="43.67477" lon="3.80736">
        <ele>152.6</ele>
        <time>2017-06-07T10:39:23Z</time>
      </trkpt>
      <trkpt lat="43.67486" lon="3.80734">
        <ele>152.5</ele>
        <time>2017-06-07T10:39:26Z</time>
      </trkpt>
      <trkpt lat="43.67494" lon="3.80732">
        <ele>152.1</ele>
        <time>2017-06-07T10:39:30Z</time>
      </trkpt>
      <trkpt lat="43.67501" lon="3.80731">
        <ele>151.8</ele>
        <time>2017-06-07T10:39:32Z</time>
      </trkpt>
      <trkpt lat="43.67509" lon="3.80732">
        <ele>151.5</ele>
        <time>2017-06-07T10:39:34Z</time>
      </trkpt>
      <trkpt lat="43.67517" lon="3.80733">
        <ele>151.2</ele>
        <time>2017-06-07T10:39:36Z</time>
      </trkpt>
      <trkpt lat="43.67528" lon="3.80736">
        <ele>149.4</ele>
        <time>2017-06-07T10:39:39Z</time>
      </trkpt>
      <trkpt lat="43.67536" lon="3.80736">
        <ele>146.9</ele>
        <time>2017-06-07T10:39:41Z</time>
      </trkpt>
      <trkpt lat="43.67545" lon="3.80738">
        <ele>146.7</ele>
        <time>2017-06-07T10:39:43Z</time>
      </trkpt>
      <trkpt lat="43.67551" lon="3.80741">
        <ele>146.6</ele>
        <time>2017-06-07T10:39:45Z</time>
      </trkpt>
      <trkpt lat="43.67563" lon="3.80743">
        <ele>146.5</ele>
        <time>2017-06-07T10:39:48Z</time>
      </trkpt>
      <trkpt lat="43.67571" lon="3.80745">
        <ele>146.9</ele>
        <time>2017-06-07T10:39:50Z</time>
      </trkpt>
      <trkpt lat="43.6758" lon="3.80749">
        <ele>146.7</ele>
        <time>2017-06-07T10:39:52Z</time>
      </trkpt>
      <trkpt lat="43.67588" lon="3.80752">
        <ele>146.7</ele>
        <time>2017-06-07T10:39:54Z</time>
      </trkpt>
      <trkpt lat="43.67598" lon="3.80752">
        <ele>146.4</ele>
        <time>2017-06-07T10:39:57Z</time>
      </trkpt>
      <trkpt lat="43.67607" lon="3.80746">
        <ele>142.4</ele>
        <time>2017-06-07T10:40:00Z</time>
      </trkpt>
      <trkpt lat="43.67614" lon="3.8074">
        <ele>141.7</ele>
        <time>2017-06-07T10:40:02Z</time>
      </trkpt>
      <trkpt lat="43.6762" lon="3.80732">
        <ele>141</ele>
        <time>2017-06-07T10:40:04Z</time>
      </trkpt>
      <trkpt lat="43.67626" lon="3.80726">
        <ele>140.9</ele>
        <time>2017-06-07T10:40:06Z</time>
      </trkpt>
      <trkpt lat="43.67632" lon="3.8072">
        <ele>140.7</ele>
        <time>2017-06-07T10:40:08Z</time>
      </trkpt>
      <trkpt lat="43.67636" lon="3.80712">
        <ele>140</ele>
        <time>2017-06-07T10:40:11Z</time>
      </trkpt>
      <trkpt lat="43.67642" lon="3.80705">
        <ele>139.5</ele>
        <time>2017-06-07T10:40:13Z</time>
      </trkpt>
      <trkpt lat="43.67647" lon="3.80695">
        <ele>139</ele>
        <time>2017-06-07T10:40:16Z</time>
      </trkpt>
      <trkpt lat="43.67653" lon="3.80687">
        <ele>138.5</ele>
        <time>2017-06-07T10:40:19Z</time>
      </trkpt>
      <trkpt lat="43.67659" lon="3.80675">
        <ele>138.2</ele>
        <time>2017-06-07T10:40:22Z</time>
      </trkpt>
      <trkpt lat="43.67665" lon="3.80666">
        <ele>138</ele>
        <time>2017-06-07T10:40:25Z</time>
      </trkpt>
      <trkpt lat="43.67672" lon="3.80658">
        <ele>137.8</ele>
        <time>2017-06-07T10:40:28Z</time>
      </trkpt>
      <trkpt lat="43.67677" lon="3.80648">
        <ele>137.6</ele>
        <time>2017-06-07T10:40:30Z</time>
      </trkpt>
      <trkpt lat="43.67682" lon="3.80645">
        <ele>137.5</ele>
        <time>2017-06-07T10:40:37Z</time>
      </trkpt>
      <trkpt lat="43.67679" lon="3.80648">
        <ele>137</ele>
        <time>2017-06-07T10:40:44Z</time>
      </trkpt>
      <trkpt lat="43.67681" lon="3.80648">
        <ele>138</ele>
        <time>2017-06-07T10:40:51Z</time>
      </trkpt>
      <trkpt lat="43.67687" lon="3.80641">
        <ele>138.6</ele>
        <time>2017-06-07T10:40:58Z</time>
      </trkpt>
      <trkpt lat="43.67679" lon="3.80638">
        <ele>138.8</ele>
        <time>2017-06-07T10:41:02Z</time>
      </trkpt>
      <trkpt lat="43.67672" lon="3.80639">
        <ele>139</ele>
        <time>2017-06-07T10:41:05Z</time>
      </trkpt>
      <trkpt lat="43.67665" lon="3.80637">
        <ele>139.3</ele>
        <time>2017-06-07T10:41:08Z</time>
      </trkpt>
      <trkpt lat="43.67658" lon="3.80633">
        <ele>139.7</ele>
        <time>2017-06-07T10:41:12Z</time>
      </trkpt>
      <trkpt lat="43.67651" lon="3.80628">
        <ele>140.1</ele>
        <time>2017-06-07T10:41:16Z</time>
      </trkpt>
      <trkpt lat="43.67643" lon="3.80621">
        <ele>140.3</ele>
        <time>2017-06-07T10:41:20Z</time>
      </trkpt>
      <trkpt lat="43.67634" lon="3.80615">
        <ele>140.5</ele>
        <time>2017-06-07T10:41:23Z</time>
      </trkpt>
      <trkpt lat="43.67626" lon="3.80608">
        <ele>140.8</ele>
        <time>2017-06-07T10:41:26Z</time>
      </trkpt>
      <trkpt lat="43.67619" lon="3.80601">
        <ele>141.2</ele>
        <time>2017-06-07T10:41:29Z</time>
      </trkpt>
      <trkpt lat="43.6761" lon="3.80594">
        <ele>142</ele>
        <time>2017-06-07T10:41:33Z</time>
      </trkpt>
      <trkpt lat="43.67604" lon="3.80587">
        <ele>142.5</ele>
        <time>2017-06-07T10:41:36Z</time>
      </trkpt>
      <trkpt lat="43.67594" lon="3.8058">
        <ele>143.2</ele>
        <time>2017-06-07T10:41:40Z</time>
      </trkpt>
      <trkpt lat="43.67587" lon="3.80576">
        <ele>143.6</ele>
        <time>2017-06-07T10:41:43Z</time>
      </trkpt>
      <trkpt lat="43.67579" lon="3.80572">
        <ele>144.4</ele>
        <time>2017-06-07T10:41:49Z</time>
      </trkpt>
      <trkpt lat="43.67571" lon="3.80572">
        <ele>144.7</ele>
        <time>2017-06-07T10:41:52Z</time>
      </trkpt>
      <trkpt lat="43.67563" lon="3.80572">
        <ele>145</ele>
        <time>2017-06-07T10:41:55Z</time>
      </trkpt>
      <trkpt lat="43.67554" lon="3.80571">
        <ele>145.5</ele>
        <time>2017-06-07T10:41:58Z</time>
      </trkpt>
      <trkpt lat="43.67547" lon="3.80573">
        <ele>146.1</ele>
        <time>2017-06-07T10:42:01Z</time>
      </trkpt>
      <trkpt lat="43.67539" lon="3.80577">
        <ele>146.8</ele>
        <time>2017-06-07T10:42:05Z</time>
      </trkpt>
      <trkpt lat="43.6753" lon="3.8058">
        <ele>147.3</ele>
        <time>2017-06-07T10:42:08Z</time>
      </trkpt>
      <trkpt lat="43.6752" lon="3.80589">
        <ele>147.7</ele>
        <time>2017-06-07T10:42:11Z</time>
      </trkpt>
      <trkpt lat="43.67512" lon="3.80592">
        <ele>148.2</ele>
        <time>2017-06-07T10:42:14Z</time>
      </trkpt>
      <trkpt lat="43.67504" lon="3.80593">
        <ele>148.5</ele>
        <time>2017-06-07T10:42:17Z</time>
      </trkpt>
      <trkpt lat="43.67493" lon="3.80592">
        <ele>148.9</ele>
        <time>2017-06-07T10:42:20Z</time>
      </trkpt>
      <trkpt lat="43.67485" lon="3.80589">
        <ele>149.4</ele>
        <time>2017-06-07T10:42:23Z</time>
      </trkpt>
      <trkpt lat="43.67478" lon="3.80588">
        <ele>149.7</ele>
        <time>2017-06-07T10:42:25Z</time>
      </trkpt>
      <trkpt lat="43.6747" lon="3.80586">
        <ele>150.2</ele>
        <time>2017-06-07T10:42:27Z</time>
      </trkpt>
      <trkpt lat="43.67461" lon="3.80586">
        <ele>150.7</ele>
        <time>2017-06-07T10:42:30Z</time>
      </trkpt>
      <trkpt lat="43.67451" lon="3.80584">
        <ele>151.3</ele>
        <time>2017-06-07T10:42:33Z</time>
      </trkpt>
      <trkpt lat="43.67443" lon="3.80584">
        <ele>151.8</ele>
        <time>2017-06-07T10:42:36Z</time>
      </trkpt>
      <trkpt lat="43.67433" lon="3.80585">
        <ele>152.7</ele>
        <time>2017-06-07T10:42:40Z</time>
      </trkpt>
      <trkpt lat="43.67426" lon="3.80583">
        <ele>153.2</ele>
        <time>2017-06-07T10:42:43Z</time>
      </trkpt>
      <trkpt lat="43.67417" lon="3.80583">
        <ele>153.9</ele>
        <time>2017-06-07T10:42:46Z</time>
      </trkpt>
      <trkpt lat="43.67408" lon="3.80583">
        <ele>154.6</ele>
        <time>2017-06-07T10:42:49Z</time>
      </trkpt>
      <trkpt lat="43.674" lon="3.80583">
        <ele>155.3</ele>
        <time>2017-06-07T10:42:52Z</time>
      </trkpt>
      <trkpt lat="43.67392" lon="3.80582">
        <ele>155.8</ele>
        <time>2017-06-07T10:42:55Z</time>
      </trkpt>
      <trkpt lat="43.67384" lon="3.80577">
        <ele>156.5</ele>
        <time>2017-06-07T10:42:58Z</time>
      </trkpt>
      <trkpt lat="43.67375" lon="3.8057">
        <ele>157</ele>
        <time>2017-06-07T10:43:01Z</time>
      </trkpt>
      <trkpt lat="43.67367" lon="3.80564">
        <ele>157.4</ele>
        <time>2017-06-07T10:43:04Z</time>
      </trkpt>
      <trkpt lat="43.67361" lon="3.80558">
        <ele>157.9</ele>
        <time>2017-06-07T10:43:07Z</time>
      </trkpt>
      <trkpt lat="43.67354" lon="3.80552">
        <ele>158.3</ele>
        <time>2017-06-07T10:43:10Z</time>
      </trkpt>
      <trkpt lat="43.67345" lon="3.80545">
        <ele>158.9</ele>
        <time>2017-06-07T10:43:13Z</time>
      </trkpt>
      <trkpt lat="43.67336" lon="3.80539">
        <ele>161.1</ele>
        <time>2017-06-07T10:43:15Z</time>
      </trkpt>
      <trkpt lat="43.67327" lon="3.80533">
        <ele>164.2</ele>
        <time>2017-06-07T10:43:17Z</time>
      </trkpt>
      <trkpt lat="43.67317" lon="3.80525">
        <ele>166.9</ele>
        <time>2017-06-07T10:43:19Z</time>
      </trkpt>
      <trkpt lat="43.67308" lon="3.80517">
        <ele>168.8</ele>
        <time>2017-06-07T10:43:21Z</time>
      </trkpt>
      <trkpt lat="43.67298" lon="3.80509">
        <ele>169.8</ele>
        <time>2017-06-07T10:43:23Z</time>
      </trkpt>
      <trkpt lat="43.67291" lon="3.80504">
        <ele>170</ele>
        <time>2017-06-07T10:43:25Z</time>
      </trkpt>
      <trkpt lat="43.67283" lon="3.80506">
        <ele>169.9</ele>
        <time>2017-06-07T10:43:27Z</time>
      </trkpt>
      <trkpt lat="43.67276" lon="3.80508">
        <ele>170</ele>
        <time>2017-06-07T10:43:29Z</time>
      </trkpt>
      <trkpt lat="43.67269" lon="3.80517">
        <ele>170.1</ele>
        <time>2017-06-07T10:43:33Z</time>
      </trkpt>
      <trkpt lat="43.6726" lon="3.80525">
        <ele>169.3</ele>
        <time>2017-06-07T10:43:36Z</time>
      </trkpt>
      <trkpt lat="43.6725" lon="3.80525">
        <ele>169.4</ele>
        <time>2017-06-07T10:43:39Z</time>
      </trkpt>
      <trkpt lat="43.67242" lon="3.80525">
        <ele>169.1</ele>
        <time>2017-06-07T10:43:41Z</time>
      </trkpt>
      <trkpt lat="43.67235" lon="3.80522">
        <ele>168.9</ele>
        <time>2017-06-07T10:43:43Z</time>
      </trkpt>
      <trkpt lat="43.67225" lon="3.80519">
        <ele>168.8</ele>
        <time>2017-06-07T10:43:46Z</time>
      </trkpt>
      <trkpt lat="43.67216" lon="3.80516">
        <ele>168.7</ele>
        <time>2017-06-07T10:43:48Z</time>
      </trkpt>
      <trkpt lat="43.67209" lon="3.80513">
        <ele>168.7</ele>
        <time>2017-06-07T10:43:50Z</time>
      </trkpt>
      <trkpt lat="43.67203" lon="3.80502">
        <ele>168.7</ele>
        <time>2017-06-07T10:43:52Z</time>
      </trkpt>
      <trkpt lat="43.67195" lon="3.80496">
        <ele>169.5</ele>
        <time>2017-06-07T10:43:54Z</time>
      </trkpt>
      <trkpt lat="43.6719" lon="3.80487">
        <ele>170.5</ele>
        <time>2017-06-07T10:43:56Z</time>
      </trkpt>
      <trkpt lat="43.67181" lon="3.8048">
        <ele>170.5</ele>
        <time>2017-06-07T10:43:58Z</time>
      </trkpt>
      <trkpt lat="43.67172" lon="3.80472">
        <ele>170.1</ele>
        <time>2017-06-07T10:44:00Z</time>
      </trkpt>
      <trkpt lat="43.67161" lon="3.80467">
        <ele>170</ele>
        <time>2017-06-07T10:44:02Z</time>
      </trkpt>
      <trkpt lat="43.67148" lon="3.80462">
        <ele>169.1</ele>
        <time>2017-06-07T10:44:04Z</time>
      </trkpt>
      <trkpt lat="43.6714" lon="3.8046">
        <ele>168.3</ele>
        <time>2017-06-07T10:44:05Z</time>
      </trkpt>
      <trkpt lat="43.67132" lon="3.80457">
        <ele>167.2</ele>
        <time>2017-06-07T10:44:06Z</time>
      </trkpt>
      <trkpt lat="43.67125" lon="3.8045">
        <ele>165.9</ele>
        <time>2017-06-07T10:44:07Z</time>
      </trkpt>
      <trkpt lat="43.67118" lon="3.80443">
        <ele>165.2</ele>
        <time>2017-06-07T10:44:08Z</time>
      </trkpt>
      <trkpt lat="43.67111" lon="3.80437">
        <ele>164.5</ele>
        <time>2017-06-07T10:44:09Z</time>
      </trkpt>
      <trkpt lat="43.67106" lon="3.80429">
        <ele>163.7</ele>
        <time>2017-06-07T10:44:10Z</time>
      </trkpt>
      <trkpt lat="43.67099" lon="3.80417">
        <ele>162.5</ele>
        <time>2017-06-07T10:44:12Z</time>
      </trkpt>
      <trkpt lat="43.6709" lon="3.80412">
        <ele>161.7</ele>
        <time>2017-06-07T10:44:14Z</time>
      </trkpt>
      <trkpt lat="43.67081" lon="3.80411">
        <ele>159.9</ele>
        <time>2017-06-07T10:44:16Z</time>
      </trkpt>
      <trkpt lat="43.67071" lon="3.80415">
        <ele>156</ele>
        <time>2017-06-07T10:44:19Z</time>
      </trkpt>
      <trkpt lat="43.6706" lon="3.80422">
        <ele>152.2</ele>
        <time>2017-06-07T10:44:22Z</time>
      </trkpt>
      <trkpt lat="43.6705" lon="3.80425">
        <ele>149.6</ele>
        <time>2017-06-07T10:44:24Z</time>
      </trkpt>
      <trkpt lat="43.67043" lon="3.80427">
        <ele>149.4</ele>
        <time>2017-06-07T10:44:26Z</time>
      </trkpt>
      <trkpt lat="43.67036" lon="3.80429">
        <ele>148.9</ele>
        <time>2017-06-07T10:44:29Z</time>
      </trkpt>
      <trkpt lat="43.67029" lon="3.80433">
        <ele>148.8</ele>
        <time>2017-06-07T10:44:31Z</time>
      </trkpt>
      <trkpt lat="43.67022" lon="3.8044">
        <ele>148.8</ele>
        <time>2017-06-07T10:44:36Z</time>
      </trkpt>
      <trkpt lat="43.67015" lon="3.80447">
        <ele>148.6</ele>
        <time>2017-06-07T10:44:39Z</time>
      </trkpt>
      <trkpt lat="43.6701" lon="3.80455">
        <ele>148.7</ele>
        <time>2017-06-07T10:44:42Z</time>
      </trkpt>
      <trkpt lat="43.67003" lon="3.80465">
        <ele>149</ele>
        <time>2017-06-07T10:44:45Z</time>
      </trkpt>
      <trkpt lat="43.66998" lon="3.80472">
        <ele>149.3</ele>
        <time>2017-06-07T10:44:47Z</time>
      </trkpt>
      <trkpt lat="43.66991" lon="3.80482">
        <ele>149.8</ele>
        <time>2017-06-07T10:44:50Z</time>
      </trkpt>
      <trkpt lat="43.66983" lon="3.80491">
        <ele>150.2</ele>
        <time>2017-06-07T10:44:53Z</time>
      </trkpt>
      <trkpt lat="43.66977" lon="3.80498">
        <ele>150.3</ele>
        <time>2017-06-07T10:44:56Z</time>
      </trkpt>
      <trkpt lat="43.66971" lon="3.80506">
        <ele>150.4</ele>
        <time>2017-06-07T10:44:59Z</time>
      </trkpt>
      <trkpt lat="43.66964" lon="3.80513">
        <ele>150.5</ele>
        <time>2017-06-07T10:45:02Z</time>
      </trkpt>
      <trkpt lat="43.66958" lon="3.80521">
        <ele>150.7</ele>
        <time>2017-06-07T10:45:05Z</time>
      </trkpt>
      <trkpt lat="43.6695" lon="3.80525">
        <ele>151.1</ele>
        <time>2017-06-07T10:45:08Z</time>
      </trkpt>
      <trkpt lat="43.66941" lon="3.80524">
        <ele>151.7</ele>
        <time>2017-06-07T10:45:11Z</time>
      </trkpt>
      <trkpt lat="43.66934" lon="3.80521">
        <ele>152</ele>
        <time>2017-06-07T10:45:13Z</time>
      </trkpt>
      <trkpt lat="43.66928" lon="3.80512">
        <ele>152.5</ele>
        <time>2017-06-07T10:45:16Z</time>
      </trkpt>
      <trkpt lat="43.66929" lon="3.80501">
        <ele>152.8</ele>
        <time>2017-06-07T10:45:19Z</time>
      </trkpt>
      <trkpt lat="43.66932" lon="3.8049">
        <ele>153.4</ele>
        <time>2017-06-07T10:45:23Z</time>
      </trkpt>
      <trkpt lat="43.66937" lon="3.8048">
        <ele>154</ele>
        <time>2017-06-07T10:45:27Z</time>
      </trkpt>
      <trkpt lat="43.66942" lon="3.80469">
        <ele>154.4</ele>
        <time>2017-06-07T10:45:30Z</time>
      </trkpt>
      <trkpt lat="43.66944" lon="3.80458">
        <ele>154.9</ele>
        <time>2017-06-07T10:45:33Z</time>
      </trkpt>
      <trkpt lat="43.66946" lon="3.80447">
        <ele>155.7</ele>
        <time>2017-06-07T10:45:37Z</time>
      </trkpt>
      <trkpt lat="43.66943" lon="3.80436">
        <ele>156</ele>
        <time>2017-06-07T10:45:41Z</time>
      </trkpt>
      <trkpt lat="43.66937" lon="3.80428">
        <ele>156.7</ele>
        <time>2017-06-07T10:45:46Z</time>
      </trkpt>
      <trkpt lat="43.66934" lon="3.80417">
        <ele>157.1</ele>
        <time>2017-06-07T10:45:51Z</time>
      </trkpt>
      <trkpt lat="43.66932" lon="3.80405">
        <ele>157.7</ele>
        <time>2017-06-07T10:45:54Z</time>
      </trkpt>
      <trkpt lat="43.66933" lon="3.8039">
        <ele>158.2</ele>
        <time>2017-06-07T10:45:57Z</time>
      </trkpt>
      <trkpt lat="43.66935" lon="3.80379">
        <ele>158.7</ele>
        <time>2017-06-07T10:45:59Z</time>
      </trkpt>
      <trkpt lat="43.66938" lon="3.80366">
        <ele>159.1</ele>
        <time>2017-06-07T10:46:01Z</time>
      </trkpt>
      <trkpt lat="43.66945" lon="3.80355">
        <ele>159.8</ele>
        <time>2017-06-07T10:46:04Z</time>
      </trkpt>
      <trkpt lat="43.66953" lon="3.80347">
        <ele>163.1</ele>
        <time>2017-06-07T10:46:07Z</time>
      </trkpt>
      <trkpt lat="43.66963" lon="3.80341">
        <ele>163.6</ele>
        <time>2017-06-07T10:46:10Z</time>
      </trkpt>
      <trkpt lat="43.66972" lon="3.80336">
        <ele>164.2</ele>
        <time>2017-06-07T10:46:13Z</time>
      </trkpt>
      <trkpt lat="43.66977" lon="3.80327">
        <ele>165.2</ele>
        <time>2017-06-07T10:46:17Z</time>
      </trkpt>
      <trkpt lat="43.66975" lon="3.80316">
        <ele>165.7</ele>
        <time>2017-06-07T10:46:21Z</time>
      </trkpt>
      <trkpt lat="43.66973" lon="3.80306">
        <ele>165.9</ele>
        <time>2017-06-07T10:46:24Z</time>
      </trkpt>
      <trkpt lat="43.66967" lon="3.80297">
        <ele>166.3</ele>
        <time>2017-06-07T10:46:27Z</time>
      </trkpt>
      <trkpt lat="43.66961" lon="3.8029">
        <ele>166.7</ele>
        <time>2017-06-07T10:46:30Z</time>
      </trkpt>
      <trkpt lat="43.66953" lon="3.80283">
        <ele>167.1</ele>
        <time>2017-06-07T10:46:33Z</time>
      </trkpt>
      <trkpt lat="43.66946" lon="3.80278">
        <ele>167.4</ele>
        <time>2017-06-07T10:46:35Z</time>
      </trkpt>
      <trkpt lat="43.66938" lon="3.80273">
        <ele>167.7</ele>
        <time>2017-06-07T10:46:38Z</time>
      </trkpt>
      <trkpt lat="43.6693" lon="3.8027">
        <ele>168</ele>
        <time>2017-06-07T10:46:41Z</time>
      </trkpt>
      <trkpt lat="43.66922" lon="3.80266">
        <ele>168.3</ele>
        <time>2017-06-07T10:46:44Z</time>
      </trkpt>
      <trkpt lat="43.66918" lon="3.80256">
        <ele>169.9</ele>
        <time>2017-06-07T10:46:46Z</time>
      </trkpt>
      <trkpt lat="43.66912" lon="3.80249">
        <ele>172.7</ele>
        <time>2017-06-07T10:46:48Z</time>
      </trkpt>
      <trkpt lat="43.66904" lon="3.80242">
        <ele>173.1</ele>
        <time>2017-06-07T10:46:50Z</time>
      </trkpt>
      <trkpt lat="43.66895" lon="3.80235">
        <ele>174</ele>
        <time>2017-06-07T10:46:52Z</time>
      </trkpt>
      <trkpt lat="43.66886" lon="3.80229">
        <ele>174.8</ele>
        <time>2017-06-07T10:46:54Z</time>
      </trkpt>
      <trkpt lat="43.66874" lon="3.80224">
        <ele>174</ele>
        <time>2017-06-07T10:46:56Z</time>
      </trkpt>
      <trkpt lat="43.66861" lon="3.80222">
        <ele>172.9</ele>
        <time>2017-06-07T10:46:58Z</time>
      </trkpt>
      <trkpt lat="43.66854" lon="3.80221">
        <ele>172.5</ele>
        <time>2017-06-07T10:46:59Z</time>
      </trkpt>
      <trkpt lat="43.66842" lon="3.8022">
        <ele>170.6</ele>
        <time>2017-06-07T10:47:01Z</time>
      </trkpt>
      <trkpt lat="43.66828" lon="3.80226">
        <ele>169.9</ele>
        <time>2017-06-07T10:47:03Z</time>
      </trkpt>
      <trkpt lat="43.6682" lon="3.80229">
        <ele>169.6</ele>
        <time>2017-06-07T10:47:04Z</time>
      </trkpt>
      <trkpt lat="43.66813" lon="3.80232">
        <ele>169.5</ele>
        <time>2017-06-07T10:47:05Z</time>
      </trkpt>
      <trkpt lat="43.66805" lon="3.80235">
        <ele>169.5</ele>
        <time>2017-06-07T10:47:06Z</time>
      </trkpt>
      <trkpt lat="43.66797" lon="3.80234">
        <ele>169.6</ele>
        <time>2017-06-07T10:47:07Z</time>
      </trkpt>
      <trkpt lat="43.66788" lon="3.80235">
        <ele>170.4</ele>
        <time>2017-06-07T10:47:08Z</time>
      </trkpt>
      <trkpt lat="43.6678" lon="3.8023">
        <ele>171</ele>
        <time>2017-06-07T10:47:09Z</time>
      </trkpt>
      <trkpt lat="43.66774" lon="3.80224">
        <ele>171.2</ele>
        <time>2017-06-07T10:47:10Z</time>
      </trkpt>
      <trkpt lat="43.66767" lon="3.80217">
        <ele>171.5</ele>
        <time>2017-06-07T10:47:11Z</time>
      </trkpt>
      <trkpt lat="43.6676" lon="3.80211">
        <ele>171.4</ele>
        <time>2017-06-07T10:47:12Z</time>
      </trkpt>
      <trkpt lat="43.66753" lon="3.80207">
        <ele>171.7</ele>
        <time>2017-06-07T10:47:13Z</time>
      </trkpt>
      <trkpt lat="43.66746" lon="3.80202">
        <ele>172.5</ele>
        <time>2017-06-07T10:47:14Z</time>
      </trkpt>
      <trkpt lat="43.66739" lon="3.80199">
        <ele>173.1</ele>
        <time>2017-06-07T10:47:15Z</time>
      </trkpt>
      <trkpt lat="43.66731" lon="3.80196">
        <ele>172.1</ele>
        <time>2017-06-07T10:47:16Z</time>
      </trkpt>
      <trkpt lat="43.6672" lon="3.8019">
        <ele>169.7</ele>
        <time>2017-06-07T10:47:18Z</time>
      </trkpt>
      <trkpt lat="43.66712" lon="3.80186">
        <ele>169.5</ele>
        <time>2017-06-07T10:47:19Z</time>
      </trkpt>
      <trkpt lat="43.66704" lon="3.80182">
        <ele>168.9</ele>
        <time>2017-06-07T10:47:20Z</time>
      </trkpt>
      <trkpt lat="43.66696" lon="3.80177">
        <ele>168.7</ele>
        <time>2017-06-07T10:47:21Z</time>
      </trkpt>
      <trkpt lat="43.66689" lon="3.80169">
        <ele>168.7</ele>
        <time>2017-06-07T10:47:22Z</time>
      </trkpt>
      <trkpt lat="43.66682" lon="3.80162">
        <ele>168.5</ele>
        <time>2017-06-07T10:47:23Z</time>
      </trkpt>
      <trkpt lat="43.66675" lon="3.80158">
        <ele>168.4</ele>
        <time>2017-06-07T10:47:24Z</time>
      </trkpt>
      <trkpt lat="43.66666" lon="3.80157">
        <ele>167.9</ele>
        <time>2017-06-07T10:47:25Z</time>
      </trkpt>
      <trkpt lat="43.66659" lon="3.80156">
        <ele>166.9</ele>
        <time>2017-06-07T10:47:26Z</time>
      </trkpt>
      <trkpt lat="43.66652" lon="3.80154">
        <ele>166</ele>
        <time>2017-06-07T10:47:27Z</time>
      </trkpt>
      <trkpt lat="43.6664" lon="3.80154">
        <ele>165.6</ele>
        <time>2017-06-07T10:47:29Z</time>
      </trkpt>
      <trkpt lat="43.66626" lon="3.80153">
        <ele>165.8</ele>
        <time>2017-06-07T10:47:31Z</time>
      </trkpt>
      <trkpt lat="43.66615" lon="3.80148">
        <ele>166</ele>
        <time>2017-06-07T10:47:33Z</time>
      </trkpt>
      <trkpt lat="43.66608" lon="3.80136">
        <ele>166.6</ele>
        <time>2017-06-07T10:47:35Z</time>
      </trkpt>
      <trkpt lat="43.66601" lon="3.80126">
        <ele>166.6</ele>
        <time>2017-06-07T10:47:37Z</time>
      </trkpt>
      <trkpt lat="43.66599" lon="3.80116">
        <ele>166.6</ele>
        <time>2017-06-07T10:47:39Z</time>
      </trkpt>
      <trkpt lat="43.66599" lon="3.80105">
        <ele>166.8</ele>
        <time>2017-06-07T10:47:42Z</time>
      </trkpt>
      <trkpt lat="43.66601" lon="3.80091">
        <ele>166.8</ele>
        <time>2017-06-07T10:47:46Z</time>
      </trkpt>
      <trkpt lat="43.66599" lon="3.80076">
        <ele>165</ele>
        <time>2017-06-07T10:47:48Z</time>
      </trkpt>
      <trkpt lat="43.66597" lon="3.80066">
        <ele>164.4</ele>
        <time>2017-06-07T10:47:52Z</time>
      </trkpt>
      <trkpt lat="43.66588" lon="3.80047">
        <ele>161.8</ele>
        <time>2017-06-07T10:47:59Z</time>
      </trkpt>
      <trkpt lat="43.66581" lon="3.80031">
        <ele>159.6</ele>
        <time>2017-06-07T10:48:01Z</time>
      </trkpt>
      <trkpt lat="43.66575" lon="3.80021">
        <ele>158</ele>
        <time>2017-06-07T10:48:03Z</time>
      </trkpt>
      <trkpt lat="43.66568" lon="3.80014">
        <ele>155.9</ele>
        <time>2017-06-07T10:48:05Z</time>
      </trkpt>
      <trkpt lat="43.66559" lon="3.80007">
        <ele>153.7</ele>
        <time>2017-06-07T10:48:07Z</time>
      </trkpt>
      <trkpt lat="43.6655" lon="3.79998">
        <ele>152.8</ele>
        <time>2017-06-07T10:48:09Z</time>
      </trkpt>
      <trkpt lat="43.66539" lon="3.79986">
        <ele>153.5</ele>
        <time>2017-06-07T10:48:11Z</time>
      </trkpt>
      <trkpt lat="43.66533" lon="3.79978">
        <ele>153.4</ele>
        <time>2017-06-07T10:48:12Z</time>
      </trkpt>
      <trkpt lat="43.66526" lon="3.7997">
        <ele>153.8</ele>
        <time>2017-06-07T10:48:13Z</time>
      </trkpt>
      <trkpt lat="43.66519" lon="3.79963">
        <ele>153.6</ele>
        <time>2017-06-07T10:48:14Z</time>
      </trkpt>
      <trkpt lat="43.66513" lon="3.79957">
        <ele>153.5</ele>
        <time>2017-06-07T10:48:15Z</time>
      </trkpt>
      <trkpt lat="43.66506" lon="3.79953">
        <ele>152.5</ele>
        <time>2017-06-07T10:48:16Z</time>
      </trkpt>
      <trkpt lat="43.66494" lon="3.79947">
        <ele>151.3</ele>
        <time>2017-06-07T10:48:18Z</time>
      </trkpt>
      <trkpt lat="43.66487" lon="3.79944">
        <ele>150.5</ele>
        <time>2017-06-07T10:48:19Z</time>
      </trkpt>
      <trkpt lat="43.66475" lon="3.79937">
        <ele>151</ele>
        <time>2017-06-07T10:48:21Z</time>
      </trkpt>
      <trkpt lat="43.66467" lon="3.79925">
        <ele>151.9</ele>
        <time>2017-06-07T10:48:23Z</time>
      </trkpt>
      <trkpt lat="43.66459" lon="3.79913">
        <ele>152</ele>
        <time>2017-06-07T10:48:25Z</time>
      </trkpt>
      <trkpt lat="43.66459" lon="3.79903">
        <ele>152</ele>
        <time>2017-06-07T10:48:27Z</time>
      </trkpt>
      <trkpt lat="43.66455" lon="3.79892">
        <ele>153.6</ele>
        <time>2017-06-07T10:48:29Z</time>
      </trkpt>
      <trkpt lat="43.66448" lon="3.79886">
        <ele>153.2</ele>
        <time>2017-06-07T10:48:32Z</time>
      </trkpt>
      <trkpt lat="43.6644" lon="3.79877">
        <ele>152.3</ele>
        <time>2017-06-07T10:48:36Z</time>
      </trkpt>
      <trkpt lat="43.66434" lon="3.79871">
        <ele>151.8</ele>
        <time>2017-06-07T10:48:38Z</time>
      </trkpt>
      <trkpt lat="43.66428" lon="3.79865">
        <ele>148.1</ele>
        <time>2017-06-07T10:48:40Z</time>
      </trkpt>
      <trkpt lat="43.66422" lon="3.79859">
        <ele>144.8</ele>
        <time>2017-06-07T10:48:42Z</time>
      </trkpt>
      <trkpt lat="43.66414" lon="3.79852">
        <ele>141.8</ele>
        <time>2017-06-07T10:48:44Z</time>
      </trkpt>
      <trkpt lat="43.66407" lon="3.79846">
        <ele>138.8</ele>
        <time>2017-06-07T10:48:46Z</time>
      </trkpt>
      <trkpt lat="43.66399" lon="3.79837">
        <ele>137.1</ele>
        <time>2017-06-07T10:48:48Z</time>
      </trkpt>
      <trkpt lat="43.66393" lon="3.79827">
        <ele>134.7</ele>
        <time>2017-06-07T10:48:50Z</time>
      </trkpt>
      <trkpt lat="43.66385" lon="3.79817">
        <ele>132.8</ele>
        <time>2017-06-07T10:48:52Z</time>
      </trkpt>
      <trkpt lat="43.66379" lon="3.7981">
        <ele>131.4</ele>
        <time>2017-06-07T10:48:54Z</time>
      </trkpt>
      <trkpt lat="43.66371" lon="3.79801">
        <ele>132.4</ele>
        <time>2017-06-07T10:48:56Z</time>
      </trkpt>
      <trkpt lat="43.66362" lon="3.79791">
        <ele>133</ele>
        <time>2017-06-07T10:48:58Z</time>
      </trkpt>
      <trkpt lat="43.66353" lon="3.79783">
        <ele>132.2</ele>
        <time>2017-06-07T10:49:00Z</time>
      </trkpt>
      <trkpt lat="43.66344" lon="3.79773">
        <ele>131.4</ele>
        <time>2017-06-07T10:49:02Z</time>
      </trkpt>
      <trkpt lat="43.66337" lon="3.79766">
        <ele>130.8</ele>
        <time>2017-06-07T10:49:04Z</time>
      </trkpt>
      <trkpt lat="43.66328" lon="3.7976">
        <ele>130.4</ele>
        <time>2017-06-07T10:49:06Z</time>
      </trkpt>
      <trkpt lat="43.66319" lon="3.79756">
        <ele>129.7</ele>
        <time>2017-06-07T10:49:09Z</time>
      </trkpt>
      <trkpt lat="43.6631" lon="3.79752">
        <ele>129.8</ele>
        <time>2017-06-07T10:49:12Z</time>
      </trkpt>
      <trkpt lat="43.66302" lon="3.79748">
        <ele>129.9</ele>
        <time>2017-06-07T10:49:14Z</time>
      </trkpt>
      <trkpt lat="43.66293" lon="3.79742">
        <ele>130</ele>
        <time>2017-06-07T10:49:16Z</time>
      </trkpt>
      <trkpt lat="43.66283" lon="3.79734">
        <ele>129.3</ele>
        <time>2017-06-07T10:49:18Z</time>
      </trkpt>
      <trkpt lat="43.6627" lon="3.79725">
        <ele>128.8</ele>
        <time>2017-06-07T10:49:20Z</time>
      </trkpt>
      <trkpt lat="43.66259" lon="3.79717">
        <ele>127.8</ele>
        <time>2017-06-07T10:49:22Z</time>
      </trkpt>
      <trkpt lat="43.6625" lon="3.79709">
        <ele>128</ele>
        <time>2017-06-07T10:49:24Z</time>
      </trkpt>
      <trkpt lat="43.66241" lon="3.79702">
        <ele>128.1</ele>
        <time>2017-06-07T10:49:26Z</time>
      </trkpt>
      <trkpt lat="43.66233" lon="3.79695">
        <ele>129.2</ele>
        <time>2017-06-07T10:49:28Z</time>
      </trkpt>
      <trkpt lat="43.66224" lon="3.79686">
        <ele>129.7</ele>
        <time>2017-06-07T10:49:30Z</time>
      </trkpt>
      <trkpt lat="43.66216" lon="3.79678">
        <ele>129.4</ele>
        <time>2017-06-07T10:49:32Z</time>
      </trkpt>
      <trkpt lat="43.66207" lon="3.79668">
        <ele>129.1</ele>
        <time>2017-06-07T10:49:34Z</time>
      </trkpt>
      <trkpt lat="43.66194" lon="3.79657">
        <ele>128.3</ele>
        <time>2017-06-07T10:49:36Z</time>
      </trkpt>
      <trkpt lat="43.66184" lon="3.79646">
        <ele>130.6</ele>
        <time>2017-06-07T10:49:38Z</time>
      </trkpt>
      <trkpt lat="43.66178" lon="3.7964">
        <ele>131.2</ele>
        <time>2017-06-07T10:49:39Z</time>
      </trkpt>
      <trkpt lat="43.66172" lon="3.79634">
        <ele>132</ele>
        <time>2017-06-07T10:49:40Z</time>
      </trkpt>
      <trkpt lat="43.6616" lon="3.79624">
        <ele>133</ele>
        <time>2017-06-07T10:49:42Z</time>
      </trkpt>
      <trkpt lat="43.66149" lon="3.79614">
        <ele>132.8</ele>
        <time>2017-06-07T10:49:44Z</time>
      </trkpt>
      <trkpt lat="43.66141" lon="3.79601">
        <ele>132.6</ele>
        <time>2017-06-07T10:49:46Z</time>
      </trkpt>
      <trkpt lat="43.66139" lon="3.79583">
        <ele>131.5</ele>
        <time>2017-06-07T10:49:48Z</time>
      </trkpt>
      <trkpt lat="43.66135" lon="3.79566">
        <ele>131.4</ele>
        <time>2017-06-07T10:49:50Z</time>
      </trkpt>
      <trkpt lat="43.66131" lon="3.79549">
        <ele>131.4</ele>
        <time>2017-06-07T10:49:52Z</time>
      </trkpt>
      <trkpt lat="43.66126" lon="3.79535">
        <ele>130.9</ele>
        <time>2017-06-07T10:49:54Z</time>
      </trkpt>
      <trkpt lat="43.66119" lon="3.79521">
        <ele>129.7</ele>
        <time>2017-06-07T10:49:56Z</time>
      </trkpt>
      <trkpt lat="43.6611" lon="3.79508">
        <ele>130.7</ele>
        <time>2017-06-07T10:49:58Z</time>
      </trkpt>
      <trkpt lat="43.66101" lon="3.79496">
        <ele>129.6</ele>
        <time>2017-06-07T10:50:00Z</time>
      </trkpt>
      <trkpt lat="43.66093" lon="3.79484">
        <ele>127.6</ele>
        <time>2017-06-07T10:50:02Z</time>
      </trkpt>
      <trkpt lat="43.66084" lon="3.79477">
        <ele>126.6</ele>
        <time>2017-06-07T10:50:04Z</time>
      </trkpt>
      <trkpt lat="43.66075" lon="3.7947">
        <ele>127.1</ele>
        <time>2017-06-07T10:50:06Z</time>
      </trkpt>
      <trkpt lat="43.66068" lon="3.79464">
        <ele>127.8</ele>
        <time>2017-06-07T10:50:08Z</time>
      </trkpt>
      <trkpt lat="43.6606" lon="3.79458">
        <ele>127.4</ele>
        <time>2017-06-07T10:50:10Z</time>
      </trkpt>
      <trkpt lat="43.66052" lon="3.79453">
        <ele>126.2</ele>
        <time>2017-06-07T10:50:12Z</time>
      </trkpt>
      <trkpt lat="43.66045" lon="3.79445">
        <ele>126.1</ele>
        <time>2017-06-07T10:50:18Z</time>
      </trkpt>
      <trkpt lat="43.66038" lon="3.79445">
        <ele>126.2</ele>
        <time>2017-06-07T10:50:25Z</time>
      </trkpt>
      <trkpt lat="43.66034" lon="3.79456">
        <ele>126.4</ele>
        <time>2017-06-07T10:50:29Z</time>
      </trkpt>
      <trkpt lat="43.66032" lon="3.79467">
        <ele>127</ele>
        <time>2017-06-07T10:50:33Z</time>
      </trkpt>
      <trkpt lat="43.66028" lon="3.79478">
        <ele>127.5</ele>
        <time>2017-06-07T10:50:37Z</time>
      </trkpt>
      <trkpt lat="43.6602" lon="3.7948">
        <ele>128</ele>
        <time>2017-06-07T10:50:41Z</time>
      </trkpt>
      <trkpt lat="43.66012" lon="3.79481">
        <ele>128.5</ele>
        <time>2017-06-07T10:50:46Z</time>
      </trkpt>
      <trkpt lat="43.66004" lon="3.79483">
        <ele>129</ele>
        <time>2017-06-07T10:50:50Z</time>
      </trkpt>
      <trkpt lat="43.65996" lon="3.79483">
        <ele>129.4</ele>
        <time>2017-06-07T10:50:54Z</time>
      </trkpt>
      <trkpt lat="43.65988" lon="3.79482">
        <ele>130.3</ele>
        <time>2017-06-07T10:50:59Z</time>
      </trkpt>
      <trkpt lat="43.65981" lon="3.79479">
        <ele>131.8</ele>
        <time>2017-06-07T10:51:04Z</time>
      </trkpt>
      <trkpt lat="43.65973" lon="3.79479">
        <ele>133.6</ele>
        <time>2017-06-07T10:51:10Z</time>
      </trkpt>
      <trkpt lat="43.65967" lon="3.79484">
        <ele>135.2</ele>
        <time>2017-06-07T10:51:16Z</time>
      </trkpt>
      <trkpt lat="43.65961" lon="3.79493">
        <ele>136.9</ele>
        <time>2017-06-07T10:51:23Z</time>
      </trkpt>
      <trkpt lat="43.65957" lon="3.79502">
        <ele>138.8</ele>
        <time>2017-06-07T10:51:30Z</time>
      </trkpt>
      <trkpt lat="43.65954" lon="3.79513">
        <ele>139.9</ele>
        <time>2017-06-07T10:51:35Z</time>
      </trkpt>
      <trkpt lat="43.65952" lon="3.79522">
        <ele>140.2</ele>
        <time>2017-06-07T10:51:40Z</time>
      </trkpt>
      <trkpt lat="43.65953" lon="3.79534">
        <ele>140.8</ele>
        <time>2017-06-07T10:51:44Z</time>
      </trkpt>
      <trkpt lat="43.65952" lon="3.79547">
        <ele>141.3</ele>
        <time>2017-06-07T10:51:48Z</time>
      </trkpt>
      <trkpt lat="43.6595" lon="3.79556">
        <ele>141.5</ele>
        <time>2017-06-07T10:51:51Z</time>
      </trkpt>
      <trkpt lat="43.65946" lon="3.79567">
        <ele>142.2</ele>
        <time>2017-06-07T10:51:55Z</time>
      </trkpt>
      <trkpt lat="43.65941" lon="3.79575">
        <ele>143.1</ele>
        <time>2017-06-07T10:52:00Z</time>
      </trkpt>
      <trkpt lat="43.65936" lon="3.79585">
        <ele>144.1</ele>
        <time>2017-06-07T10:52:04Z</time>
      </trkpt>
      <trkpt lat="43.65931" lon="3.79594">
        <ele>145.3</ele>
        <time>2017-06-07T10:52:09Z</time>
      </trkpt>
      <trkpt lat="43.65928" lon="3.79603">
        <ele>146.5</ele>
        <time>2017-06-07T10:52:14Z</time>
      </trkpt>
      <trkpt lat="43.65923" lon="3.79612">
        <ele>148.4</ele>
        <time>2017-06-07T10:52:20Z</time>
      </trkpt>
      <trkpt lat="43.6592" lon="3.79622">
        <ele>150.4</ele>
        <time>2017-06-07T10:52:26Z</time>
      </trkpt>
      <trkpt lat="43.65919" lon="3.79633">
        <ele>153.2</ele>
        <time>2017-06-07T10:52:33Z</time>
      </trkpt>
      <trkpt lat="43.65917" lon="3.79643">
        <ele>155.4</ele>
        <time>2017-06-07T10:52:39Z</time>
      </trkpt>
      <trkpt lat="43.65913" lon="3.79652">
        <ele>157.5</ele>
        <time>2017-06-07T10:52:45Z</time>
      </trkpt>
      <trkpt lat="43.65911" lon="3.79663">
        <ele>159</ele>
        <time>2017-06-07T10:52:50Z</time>
      </trkpt>
      <trkpt lat="43.65908" lon="3.79672">
        <ele>160.8</ele>
        <time>2017-06-07T10:52:55Z</time>
      </trkpt>
      <trkpt lat="43.65908" lon="3.79681">
        <ele>163.1</ele>
        <time>2017-06-07T10:53:02Z</time>
      </trkpt>
      <trkpt lat="43.65905" lon="3.79691">
        <ele>164.7</ele>
        <time>2017-06-07T10:53:07Z</time>
      </trkpt>
      <trkpt lat="43.659" lon="3.79699">
        <ele>166.4</ele>
        <time>2017-06-07T10:53:12Z</time>
      </trkpt>
      <trkpt lat="43.65892" lon="3.79707">
        <ele>168.3</ele>
        <time>2017-06-07T10:53:18Z</time>
      </trkpt>
      <trkpt lat="43.65885" lon="3.79712">
        <ele>169.7</ele>
        <time>2017-06-07T10:53:24Z</time>
      </trkpt>
      <trkpt lat="43.65879" lon="3.79718">
        <ele>170.7</ele>
        <time>2017-06-07T10:53:29Z</time>
      </trkpt>
      <trkpt lat="43.65874" lon="3.79725">
        <ele>171.9</ele>
        <time>2017-06-07T10:53:34Z</time>
      </trkpt>
      <trkpt lat="43.65867" lon="3.79731">
        <ele>172.9</ele>
        <time>2017-06-07T10:53:39Z</time>
      </trkpt>
      <trkpt lat="43.65861" lon="3.79737">
        <ele>174.5</ele>
        <time>2017-06-07T10:53:45Z</time>
      </trkpt>
      <trkpt lat="43.65854" lon="3.79744">
        <ele>175.5</ele>
        <time>2017-06-07T10:53:51Z</time>
      </trkpt>
      <trkpt lat="43.65849" lon="3.79752">
        <ele>176.7</ele>
        <time>2017-06-07T10:53:55Z</time>
      </trkpt>
      <trkpt lat="43.65843" lon="3.79757">
        <ele>177.6</ele>
        <time>2017-06-07T10:53:59Z</time>
      </trkpt>
      <trkpt lat="43.65837" lon="3.79765">
        <ele>178.8</ele>
        <time>2017-06-07T10:54:04Z</time>
      </trkpt>
      <trkpt lat="43.6583" lon="3.7977">
        <ele>179.5</ele>
        <time>2017-06-07T10:54:08Z</time>
      </trkpt>
      <trkpt lat="43.65823" lon="3.79773">
        <ele>180</ele>
        <time>2017-06-07T10:54:11Z</time>
      </trkpt>
      <trkpt lat="43.65816" lon="3.79778">
        <ele>180.5</ele>
        <time>2017-06-07T10:54:15Z</time>
      </trkpt>
      <trkpt lat="43.65809" lon="3.79783">
        <ele>180.9</ele>
        <time>2017-06-07T10:54:19Z</time>
      </trkpt>
      <trkpt lat="43.65801" lon="3.79788">
        <ele>181.6</ele>
        <time>2017-06-07T10:54:23Z</time>
      </trkpt>
      <trkpt lat="43.65793" lon="3.79795">
        <ele>182.3</ele>
        <time>2017-06-07T10:54:27Z</time>
      </trkpt>
      <trkpt lat="43.65787" lon="3.79802">
        <ele>182.8</ele>
        <time>2017-06-07T10:54:31Z</time>
      </trkpt>
      <trkpt lat="43.6578" lon="3.7981">
        <ele>183.2</ele>
        <time>2017-06-07T10:54:35Z</time>
      </trkpt>
      <trkpt lat="43.65774" lon="3.79821">
        <ele>183.7</ele>
        <time>2017-06-07T10:54:39Z</time>
      </trkpt>
      <trkpt lat="43.65769" lon="3.7983">
        <ele>184.5</ele>
        <time>2017-06-07T10:54:44Z</time>
      </trkpt>
      <trkpt lat="43.65763" lon="3.79839">
        <ele>184.9</ele>
        <time>2017-06-07T10:54:47Z</time>
      </trkpt>
      <trkpt lat="43.65758" lon="3.79848">
        <ele>185.5</ele>
        <time>2017-06-07T10:54:51Z</time>
      </trkpt>
      <trkpt lat="43.65749" lon="3.79856">
        <ele>186.4</ele>
        <time>2017-06-07T10:54:56Z</time>
      </trkpt>
      <trkpt lat="43.65741" lon="3.79861">
        <ele>186.8</ele>
        <time>2017-06-07T10:54:59Z</time>
      </trkpt>
      <trkpt lat="43.65732" lon="3.79858">
        <ele>187.1</ele>
        <time>2017-06-07T10:55:03Z</time>
      </trkpt>
      <trkpt lat="43.65725" lon="3.79852">
        <ele>187.5</ele>
        <time>2017-06-07T10:55:06Z</time>
      </trkpt>
      <trkpt lat="43.65718" lon="3.79846">
        <ele>187.7</ele>
        <time>2017-06-07T10:55:09Z</time>
      </trkpt>
      <trkpt lat="43.65709" lon="3.79841">
        <ele>188</ele>
        <time>2017-06-07T10:55:13Z</time>
      </trkpt>
      <trkpt lat="43.657" lon="3.79834">
        <ele>188.5</ele>
        <time>2017-06-07T10:55:16Z</time>
      </trkpt>
      <trkpt lat="43.65691" lon="3.79829">
        <ele>188.8</ele>
        <time>2017-06-07T10:55:19Z</time>
      </trkpt>
      <trkpt lat="43.65682" lon="3.79824">
        <ele>189.4</ele>
        <time>2017-06-07T10:55:22Z</time>
      </trkpt>
      <trkpt lat="43.65673" lon="3.79819">
        <ele>189.9</ele>
        <time>2017-06-07T10:55:25Z</time>
      </trkpt>
      <trkpt lat="43.65664" lon="3.79811">
        <ele>190.3</ele>
        <time>2017-06-07T10:55:28Z</time>
      </trkpt>
      <trkpt lat="43.65658" lon="3.79805">
        <ele>190.5</ele>
        <time>2017-06-07T10:55:30Z</time>
      </trkpt>
      <trkpt lat="43.65651" lon="3.79799">
        <ele>192.2</ele>
        <time>2017-06-07T10:55:32Z</time>
      </trkpt>
      <trkpt lat="43.65641" lon="3.79791">
        <ele>194.2</ele>
        <time>2017-06-07T10:55:35Z</time>
      </trkpt>
      <trkpt lat="43.65632" lon="3.79785">
        <ele>194.2</ele>
        <time>2017-06-07T10:55:37Z</time>
      </trkpt>
      <trkpt lat="43.65623" lon="3.7978">
        <ele>194.1</ele>
        <time>2017-06-07T10:55:39Z</time>
      </trkpt>
      <trkpt lat="43.65612" lon="3.79773">
        <ele>194</ele>
        <time>2017-06-07T10:55:41Z</time>
      </trkpt>
      <trkpt lat="43.65605" lon="3.79768">
        <ele>194.3</ele>
        <time>2017-06-07T10:55:43Z</time>
      </trkpt>
      <trkpt lat="43.65595" lon="3.79763">
        <ele>193.7</ele>
        <time>2017-06-07T10:55:45Z</time>
      </trkpt>
      <trkpt lat="43.65584" lon="3.7976">
        <ele>192.6</ele>
        <time>2017-06-07T10:55:47Z</time>
      </trkpt>
      <trkpt lat="43.65573" lon="3.79755">
        <ele>192.5</ele>
        <time>2017-06-07T10:55:49Z</time>
      </trkpt>
      <trkpt lat="43.65563" lon="3.79749">
        <ele>192.2</ele>
        <time>2017-06-07T10:55:51Z</time>
      </trkpt>
      <trkpt lat="43.65554" lon="3.79738">
        <ele>192.4</ele>
        <time>2017-06-07T10:55:53Z</time>
      </trkpt>
      <trkpt lat="43.6555" lon="3.79729">
        <ele>192.3</ele>
        <time>2017-06-07T10:55:54Z</time>
      </trkpt>
      <trkpt lat="43.65543" lon="3.79712">
        <ele>191.2</ele>
        <time>2017-06-07T10:55:56Z</time>
      </trkpt>
      <trkpt lat="43.65538" lon="3.79695">
        <ele>190.1</ele>
        <time>2017-06-07T10:55:58Z</time>
      </trkpt>
      <trkpt lat="43.65534" lon="3.79679">
        <ele>189.4</ele>
        <time>2017-06-07T10:56:00Z</time>
      </trkpt>
      <trkpt lat="43.65531" lon="3.79665">
        <ele>188.4</ele>
        <time>2017-06-07T10:56:02Z</time>
      </trkpt>
      <trkpt lat="43.65528" lon="3.79654">
        <ele>187.5</ele>
        <time>2017-06-07T10:56:04Z</time>
      </trkpt>
      <trkpt lat="43.65526" lon="3.79642">
        <ele>186.6</ele>
        <time>2017-06-07T10:56:06Z</time>
      </trkpt>
      <trkpt lat="43.65522" lon="3.79629">
        <ele>186.3</ele>
        <time>2017-06-07T10:56:08Z</time>
      </trkpt>
      <trkpt lat="43.65517" lon="3.7962">
        <ele>187.8</ele>
        <time>2017-06-07T10:56:10Z</time>
      </trkpt>
      <trkpt lat="43.6551" lon="3.7961">
        <ele>188</ele>
        <time>2017-06-07T10:56:13Z</time>
      </trkpt>
      <trkpt lat="43.65505" lon="3.79603">
        <ele>188.2</ele>
        <time>2017-06-07T10:56:15Z</time>
      </trkpt>
      <trkpt lat="43.65499" lon="3.79596">
        <ele>188.3</ele>
        <time>2017-06-07T10:56:17Z</time>
      </trkpt>
      <trkpt lat="43.65493" lon="3.79589">
        <ele>188.5</ele>
        <time>2017-06-07T10:56:19Z</time>
      </trkpt>
      <trkpt lat="43.65485" lon="3.79579">
        <ele>190.1</ele>
        <time>2017-06-07T10:56:22Z</time>
      </trkpt>
      <trkpt lat="43.65479" lon="3.79571">
        <ele>191</ele>
        <time>2017-06-07T10:56:24Z</time>
      </trkpt>
      <trkpt lat="43.65474" lon="3.79564">
        <ele>191.1</ele>
        <time>2017-06-07T10:56:26Z</time>
      </trkpt>
      <trkpt lat="43.65468" lon="3.79556">
        <ele>190.3</ele>
        <time>2017-06-07T10:56:28Z</time>
      </trkpt>
      <trkpt lat="43.6546" lon="3.79547">
        <ele>190.4</ele>
        <time>2017-06-07T10:56:31Z</time>
      </trkpt>
      <trkpt lat="43.65453" lon="3.7954">
        <ele>190.6</ele>
        <time>2017-06-07T10:56:33Z</time>
      </trkpt>
      <trkpt lat="43.65445" lon="3.79534">
        <ele>190.8</ele>
        <time>2017-06-07T10:56:36Z</time>
      </trkpt>
      <trkpt lat="43.65436" lon="3.79527">
        <ele>192.8</ele>
        <time>2017-06-07T10:56:39Z</time>
      </trkpt>
      <trkpt lat="43.65428" lon="3.7952">
        <ele>192.9</ele>
        <time>2017-06-07T10:56:41Z</time>
      </trkpt>
      <trkpt lat="43.6542" lon="3.79512">
        <ele>193.4</ele>
        <time>2017-06-07T10:56:43Z</time>
      </trkpt>
      <trkpt lat="43.65411" lon="3.79504">
        <ele>192.5</ele>
        <time>2017-06-07T10:56:45Z</time>
      </trkpt>
      <trkpt lat="43.65398" lon="3.79498">
        <ele>190.5</ele>
        <time>2017-06-07T10:56:47Z</time>
      </trkpt>
      <trkpt lat="43.6539" lon="3.79497">
        <ele>189.7</ele>
        <time>2017-06-07T10:56:48Z</time>
      </trkpt>
      <trkpt lat="43.65382" lon="3.79496">
        <ele>189.2</ele>
        <time>2017-06-07T10:56:49Z</time>
      </trkpt>
      <trkpt lat="43.65373" lon="3.79496">
        <ele>188.5</ele>
        <time>2017-06-07T10:56:50Z</time>
      </trkpt>
      <trkpt lat="43.65364" lon="3.79496">
        <ele>188</ele>
        <time>2017-06-07T10:56:51Z</time>
      </trkpt>
      <trkpt lat="43.65355" lon="3.79496">
        <ele>188</ele>
        <time>2017-06-07T10:56:52Z</time>
      </trkpt>
      <trkpt lat="43.65344" lon="3.79496">
        <ele>187.6</ele>
        <time>2017-06-07T10:56:53Z</time>
      </trkpt>
      <trkpt lat="43.65334" lon="3.79496">
        <ele>187.3</ele>
        <time>2017-06-07T10:56:54Z</time>
      </trkpt>
      <trkpt lat="43.65323" lon="3.79497">
        <ele>186.7</ele>
        <time>2017-06-07T10:56:55Z</time>
      </trkpt>
      <trkpt lat="43.65314" lon="3.79497">
        <ele>185.9</ele>
        <time>2017-06-07T10:56:56Z</time>
      </trkpt>
      <trkpt lat="43.65303" lon="3.79493">
        <ele>184.6</ele>
        <time>2017-06-07T10:56:57Z</time>
      </trkpt>
      <trkpt lat="43.65292" lon="3.79486">
        <ele>183.6</ele>
        <time>2017-06-07T10:56:58Z</time>
      </trkpt>
      <trkpt lat="43.65283" lon="3.79478">
        <ele>182.6</ele>
        <time>2017-06-07T10:56:59Z</time>
      </trkpt>
      <trkpt lat="43.65275" lon="3.79468">
        <ele>182.1</ele>
        <time>2017-06-07T10:57:00Z</time>
      </trkpt>
      <trkpt lat="43.65268" lon="3.79459">
        <ele>181.6</ele>
        <time>2017-06-07T10:57:01Z</time>
      </trkpt>
      <trkpt lat="43.65261" lon="3.7945">
        <ele>182</ele>
        <time>2017-06-07T10:57:02Z</time>
      </trkpt>
      <trkpt lat="43.65251" lon="3.79444">
        <ele>181.6</ele>
        <time>2017-06-07T10:57:03Z</time>
      </trkpt>
      <trkpt lat="43.65242" lon="3.79439">
        <ele>181.6</ele>
        <time>2017-06-07T10:57:04Z</time>
      </trkpt>
      <trkpt lat="43.65235" lon="3.79433">
        <ele>181.9</ele>
        <time>2017-06-07T10:57:05Z</time>
      </trkpt>
      <trkpt lat="43.65227" lon="3.79428">
        <ele>182.2</ele>
        <time>2017-06-07T10:57:06Z</time>
      </trkpt>
      <trkpt lat="43.65219" lon="3.79421">
        <ele>181.6</ele>
        <time>2017-06-07T10:57:07Z</time>
      </trkpt>
      <trkpt lat="43.65212" lon="3.79415">
        <ele>181</ele>
        <time>2017-06-07T10:57:08Z</time>
      </trkpt>
      <trkpt lat="43.65207" lon="3.79408">
        <ele>179.7</ele>
        <time>2017-06-07T10:57:09Z</time>
      </trkpt>
      <trkpt lat="43.652" lon="3.79392">
        <ele>177.9</ele>
        <time>2017-06-07T10:57:11Z</time>
      </trkpt>
      <trkpt lat="43.65196" lon="3.79382">
        <ele>177.5</ele>
        <time>2017-06-07T10:57:12Z</time>
      </trkpt>
      <trkpt lat="43.65192" lon="3.79373">
        <ele>176.9</ele>
        <time>2017-06-07T10:57:13Z</time>
      </trkpt>
      <trkpt lat="43.65184" lon="3.79359">
        <ele>174.3</ele>
        <time>2017-06-07T10:57:15Z</time>
      </trkpt>
      <trkpt lat="43.65175" lon="3.79344">
        <ele>173.4</ele>
        <time>2017-06-07T10:57:17Z</time>
      </trkpt>
      <trkpt lat="43.6517" lon="3.79329">
        <ele>172</ele>
        <time>2017-06-07T10:57:19Z</time>
      </trkpt>
      <trkpt lat="43.65173" lon="3.7932">
        <ele>172</ele>
        <time>2017-06-07T10:57:21Z</time>
      </trkpt>
      <trkpt lat="43.65176" lon="3.79305">
        <ele>171.1</ele>
        <time>2017-06-07T10:57:23Z</time>
      </trkpt>
      <trkpt lat="43.65178" lon="3.79295">
        <ele>171</ele>
        <time>2017-06-07T10:57:24Z</time>
      </trkpt>
      <trkpt lat="43.6518" lon="3.79284">
        <ele>171.3</ele>
        <time>2017-06-07T10:57:25Z</time>
      </trkpt>
      <trkpt lat="43.65182" lon="3.79274">
        <ele>171.1</ele>
        <time>2017-06-07T10:57:26Z</time>
      </trkpt>
      <trkpt lat="43.65184" lon="3.79263">
        <ele>170.2</ele>
        <time>2017-06-07T10:57:27Z</time>
      </trkpt>
      <trkpt lat="43.65189" lon="3.79251">
        <ele>168.8</ele>
        <time>2017-06-07T10:57:28Z</time>
      </trkpt>
      <trkpt lat="43.65194" lon="3.79244">
        <ele>168</ele>
        <time>2017-06-07T10:57:29Z</time>
      </trkpt>
      <trkpt lat="43.65199" lon="3.79236">
        <ele>167.6</ele>
        <time>2017-06-07T10:57:30Z</time>
      </trkpt>
      <trkpt lat="43.65205" lon="3.79223">
        <ele>167.2</ele>
        <time>2017-06-07T10:57:32Z</time>
      </trkpt>
      <trkpt lat="43.65208" lon="3.79211">
        <ele>167.2</ele>
        <time>2017-06-07T10:57:34Z</time>
      </trkpt>
      <trkpt lat="43.65214" lon="3.792">
        <ele>164.8</ele>
        <time>2017-06-07T10:57:36Z</time>
      </trkpt>
      <trkpt lat="43.6522" lon="3.79192">
        <ele>162.9</ele>
        <time>2017-06-07T10:57:38Z</time>
      </trkpt>
      <trkpt lat="43.65225" lon="3.79181">
        <ele>162.2</ele>
        <time>2017-06-07T10:57:42Z</time>
      </trkpt>
      <trkpt lat="43.65232" lon="3.79177">
        <ele>161.6</ele>
        <time>2017-06-07T10:57:44Z</time>
      </trkpt>
      <trkpt lat="43.65237" lon="3.79169">
        <ele>160.6</ele>
        <time>2017-06-07T10:57:47Z</time>
      </trkpt>
      <trkpt lat="43.65243" lon="3.79162">
        <ele>157.6</ele>
        <time>2017-06-07T10:57:49Z</time>
      </trkpt>
      <trkpt lat="43.65252" lon="3.79158">
        <ele>155.1</ele>
        <time>2017-06-07T10:57:52Z</time>
      </trkpt>
      <trkpt lat="43.65259" lon="3.79153">
        <ele>152.2</ele>
        <time>2017-06-07T10:57:54Z</time>
      </trkpt>
      <trkpt lat="43.65263" lon="3.79143">
        <ele>151.4</ele>
        <time>2017-06-07T10:57:58Z</time>
      </trkpt>
      <trkpt lat="43.6526" lon="3.79125">
        <ele>146.1</ele>
        <time>2017-06-07T10:58:01Z</time>
      </trkpt>
      <trkpt lat="43.65252" lon="3.79111">
        <ele>140.6</ele>
        <time>2017-06-07T10:58:03Z</time>
      </trkpt>
      <trkpt lat="43.65247" lon="3.79103">
        <ele>138.4</ele>
        <time>2017-06-07T10:58:04Z</time>
      </trkpt>
      <trkpt lat="43.65242" lon="3.79097">
        <ele>137.4</ele>
        <time>2017-06-07T10:58:05Z</time>
      </trkpt>
      <trkpt lat="43.65229" lon="3.79089">
        <ele>134.4</ele>
        <time>2017-06-07T10:58:07Z</time>
      </trkpt>
      <trkpt lat="43.65216" lon="3.79084">
        <ele>131.2</ele>
        <time>2017-06-07T10:58:09Z</time>
      </trkpt>
      <trkpt lat="43.65206" lon="3.79081">
        <ele>128.9</ele>
        <time>2017-06-07T10:58:11Z</time>
      </trkpt>
      <trkpt lat="43.65199" lon="3.79074">
        <ele>127.1</ele>
        <time>2017-06-07T10:58:13Z</time>
      </trkpt>
      <trkpt lat="43.65197" lon="3.79062">
        <ele>126.6</ele>
        <time>2017-06-07T10:58:16Z</time>
      </trkpt>
      <trkpt lat="43.65189" lon="3.79059">
        <ele>124.1</ele>
        <time>2017-06-07T10:58:18Z</time>
      </trkpt>
      <trkpt lat="43.65179" lon="3.79058">
        <ele>124</ele>
        <time>2017-06-07T10:58:21Z</time>
      </trkpt>
      <trkpt lat="43.65171" lon="3.79059">
        <ele>123.7</ele>
        <time>2017-06-07T10:58:23Z</time>
      </trkpt>
      <trkpt lat="43.65163" lon="3.79058">
        <ele>121.2</ele>
        <time>2017-06-07T10:58:25Z</time>
      </trkpt>
      <trkpt lat="43.65155" lon="3.79058">
        <ele>120.1</ele>
        <time>2017-06-07T10:58:27Z</time>
      </trkpt>
      <trkpt lat="43.65144" lon="3.7906">
        <ele>119.5</ele>
        <time>2017-06-07T10:58:30Z</time>
      </trkpt>
      <trkpt lat="43.65135" lon="3.79061">
        <ele>118.7</ele>
        <time>2017-06-07T10:58:32Z</time>
      </trkpt>
      <trkpt lat="43.65126" lon="3.79063">
        <ele>116.7</ele>
        <time>2017-06-07T10:58:34Z</time>
      </trkpt>
      <trkpt lat="43.65117" lon="3.79067">
        <ele>115.8</ele>
        <time>2017-06-07T10:58:36Z</time>
      </trkpt>
      <trkpt lat="43.65109" lon="3.79071">
        <ele>113.6</ele>
        <time>2017-06-07T10:58:38Z</time>
      </trkpt>
      <trkpt lat="43.65102" lon="3.79075">
        <ele>111.8</ele>
        <time>2017-06-07T10:58:40Z</time>
      </trkpt>
      <trkpt lat="43.65095" lon="3.79079">
        <ele>110.5</ele>
        <time>2017-06-07T10:58:42Z</time>
      </trkpt>
      <trkpt lat="43.65088" lon="3.79083">
        <ele>110.7</ele>
        <time>2017-06-07T10:58:44Z</time>
      </trkpt>
      <trkpt lat="43.65078" lon="3.79088">
        <ele>110.9</ele>
        <time>2017-06-07T10:58:47Z</time>
      </trkpt>
      <trkpt lat="43.65071" lon="3.79081">
        <ele>111.3</ele>
        <time>2017-06-07T10:58:50Z</time>
      </trkpt>
      <trkpt lat="43.65078" lon="3.79067">
        <ele>114.4</ele>
        <time>2017-06-07T10:58:52Z</time>
      </trkpt>
      <trkpt lat="43.65089" lon="3.79049">
        <ele>114.2</ele>
        <time>2017-06-07T10:58:56Z</time>
      </trkpt>
      <trkpt lat="43.65094" lon="3.79036">
        <ele>113.3</ele>
        <time>2017-06-07T10:58:57Z</time>
      </trkpt>
      <trkpt lat="43.65097" lon="3.79023">
        <ele>114.9</ele>
        <time>2017-06-07T10:58:59Z</time>
      </trkpt>
      <trkpt lat="43.65098" lon="3.79009">
        <ele>115.7</ele>
        <time>2017-06-07T10:59:01Z</time>
      </trkpt>
      <trkpt lat="43.65097" lon="3.78996">
        <ele>115.5</ele>
        <time>2017-06-07T10:59:03Z</time>
      </trkpt>
      <trkpt lat="43.65095" lon="3.78984">
        <ele>115.4</ele>
        <time>2017-06-07T10:59:05Z</time>
      </trkpt>
      <trkpt lat="43.65092" lon="3.78973">
        <ele>113.9</ele>
        <time>2017-06-07T10:59:07Z</time>
      </trkpt>
      <trkpt lat="43.6509" lon="3.78963">
        <ele>113.3</ele>
        <time>2017-06-07T10:59:09Z</time>
      </trkpt>
      <trkpt lat="43.65086" lon="3.78952">
        <ele>113.6</ele>
        <time>2017-06-07T10:59:11Z</time>
      </trkpt>
      <trkpt lat="43.65082" lon="3.78943">
        <ele>112.8</ele>
        <time>2017-06-07T10:59:13Z</time>
      </trkpt>
      <trkpt lat="43.65078" lon="3.7893">
        <ele>110.6</ele>
        <time>2017-06-07T10:59:15Z</time>
      </trkpt>
      <trkpt lat="43.65073" lon="3.78921">
        <ele>110.2</ele>
        <time>2017-06-07T10:59:17Z</time>
      </trkpt>
      <trkpt lat="43.6507" lon="3.78909">
        <ele>111.3</ele>
        <time>2017-06-07T10:59:19Z</time>
      </trkpt>
      <trkpt lat="43.65064" lon="3.78904">
        <ele>111.3</ele>
        <time>2017-06-07T10:59:21Z</time>
      </trkpt>
      <trkpt lat="43.65057" lon="3.78915">
        <ele>112.9</ele>
        <time>2017-06-07T10:59:23Z</time>
      </trkpt>
      <trkpt lat="43.65048" lon="3.78922">
        <ele>111.5</ele>
        <time>2017-06-07T10:59:25Z</time>
      </trkpt>
      <trkpt lat="43.65039" lon="3.78927">
        <ele>110.7</ele>
        <time>2017-06-07T10:59:27Z</time>
      </trkpt>
      <trkpt lat="43.65035" lon="3.7894">
        <ele>109.4</ele>
        <time>2017-06-07T10:59:30Z</time>
      </trkpt>
      <trkpt lat="43.6503" lon="3.78949">
        <ele>108.3</ele>
        <time>2017-06-07T10:59:32Z</time>
      </trkpt>
      <trkpt lat="43.65021" lon="3.78956">
        <ele>107.1</ele>
        <time>2017-06-07T10:59:34Z</time>
      </trkpt>
      <trkpt lat="43.65011" lon="3.78963">
        <ele>106.5</ele>
        <time>2017-06-07T10:59:36Z</time>
      </trkpt>
      <trkpt lat="43.65002" lon="3.7897">
        <ele>106.4</ele>
        <time>2017-06-07T10:59:38Z</time>
      </trkpt>
      <trkpt lat="43.64993" lon="3.78978">
        <ele>105.9</ele>
        <time>2017-06-07T10:59:40Z</time>
      </trkpt>
      <trkpt lat="43.64983" lon="3.78986">
        <ele>107</ele>
        <time>2017-06-07T10:59:42Z</time>
      </trkpt>
      <trkpt lat="43.64974" lon="3.78993">
        <ele>107.4</ele>
        <time>2017-06-07T10:59:44Z</time>
      </trkpt>
      <trkpt lat="43.64966" lon="3.79">
        <ele>107.7</ele>
        <time>2017-06-07T10:59:46Z</time>
      </trkpt>
      <trkpt lat="43.64958" lon="3.79006">
        <ele>107.7</ele>
        <time>2017-06-07T10:59:48Z</time>
      </trkpt>
      <trkpt lat="43.64951" lon="3.7901">
        <ele>107.7</ele>
        <time>2017-06-07T10:59:50Z</time>
      </trkpt>
      <trkpt lat="43.64942" lon="3.79017">
        <ele>107.3</ele>
        <time>2017-06-07T10:59:52Z</time>
      </trkpt>
      <trkpt lat="43.64935" lon="3.79023">
        <ele>107.6</ele>
        <time>2017-06-07T10:59:54Z</time>
      </trkpt>
      <trkpt lat="43.64926" lon="3.79029">
        <ele>108.9</ele>
        <time>2017-06-07T10:59:56Z</time>
      </trkpt>
      <trkpt lat="43.64919" lon="3.79035">
        <ele>109.8</ele>
        <time>2017-06-07T10:59:58Z</time>
      </trkpt>
      <trkpt lat="43.64912" lon="3.79041">
        <ele>110.9</ele>
        <time>2017-06-07T11:00:00Z</time>
      </trkpt>
      <trkpt lat="43.64904" lon="3.79047">
        <ele>110.8</ele>
        <time>2017-06-07T11:00:02Z</time>
      </trkpt>
      <trkpt lat="43.64896" lon="3.79052">
        <ele>109.5</ele>
        <time>2017-06-07T11:00:04Z</time>
      </trkpt>
      <trkpt lat="43.64886" lon="3.79059">
        <ele>109.4</ele>
        <time>2017-06-07T11:00:06Z</time>
      </trkpt>
      <trkpt lat="43.64876" lon="3.79068">
        <ele>109.4</ele>
        <time>2017-06-07T11:00:08Z</time>
      </trkpt>
      <trkpt lat="43.64866" lon="3.79075">
        <ele>110</ele>
        <time>2017-06-07T11:00:10Z</time>
      </trkpt>
      <trkpt lat="43.64857" lon="3.7908">
        <ele>109.8</ele>
        <time>2017-06-07T11:00:12Z</time>
      </trkpt>
      <trkpt lat="43.64849" lon="3.79085">
        <ele>110.2</ele>
        <time>2017-06-07T11:00:14Z</time>
      </trkpt>
      <trkpt lat="43.64845" lon="3.79093">
        <ele>110.2</ele>
        <time>2017-06-07T11:00:17Z</time>
      </trkpt>
      <trkpt lat="43.64838" lon="3.79102">
        <ele>110</ele>
        <time>2017-06-07T11:00:19Z</time>
      </trkpt>
      <trkpt lat="43.64831" lon="3.79111">
        <ele>108.4</ele>
        <time>2017-06-07T11:00:21Z</time>
      </trkpt>
      <trkpt lat="43.64824" lon="3.79118">
        <ele>108.1</ele>
        <time>2017-06-07T11:00:23Z</time>
      </trkpt>
      <trkpt lat="43.64815" lon="3.79123">
        <ele>107.6</ele>
        <time>2017-06-07T11:00:25Z</time>
      </trkpt>
      <trkpt lat="43.64809" lon="3.79128">
        <ele>107.9</ele>
        <time>2017-06-07T11:00:27Z</time>
      </trkpt>
      <trkpt lat="43.64803" lon="3.79134">
        <ele>108.5</ele>
        <time>2017-06-07T11:00:29Z</time>
      </trkpt>
      <trkpt lat="43.64796" lon="3.79141">
        <ele>108.5</ele>
        <time>2017-06-07T11:00:32Z</time>
      </trkpt>
      <trkpt lat="43.64788" lon="3.79146">
        <ele>108.7</ele>
        <time>2017-06-07T11:00:34Z</time>
      </trkpt>
      <trkpt lat="43.64777" lon="3.79147">
        <ele>108.8</ele>
        <time>2017-06-07T11:00:37Z</time>
      </trkpt>
      <trkpt lat="43.64768" lon="3.79152">
        <ele>109</ele>
        <time>2017-06-07T11:00:41Z</time>
      </trkpt>
      <trkpt lat="43.6476" lon="3.79157">
        <ele>110.1</ele>
        <time>2017-06-07T11:00:44Z</time>
      </trkpt>
      <trkpt lat="43.64752" lon="3.79162">
        <ele>110.3</ele>
        <time>2017-06-07T11:00:47Z</time>
      </trkpt>
      <trkpt lat="43.64745" lon="3.79171">
        <ele>110.3</ele>
        <time>2017-06-07T11:00:50Z</time>
      </trkpt>
      <trkpt lat="43.64739" lon="3.79181">
        <ele>110.4</ele>
        <time>2017-06-07T11:00:53Z</time>
      </trkpt>
      <trkpt lat="43.64732" lon="3.79188">
        <ele>110.5</ele>
        <time>2017-06-07T11:00:56Z</time>
      </trkpt>
      <trkpt lat="43.64723" lon="3.79195">
        <ele>110.8</ele>
        <time>2017-06-07T11:00:59Z</time>
      </trkpt>
      <trkpt lat="43.64716" lon="3.79198">
        <ele>110.9</ele>
        <time>2017-06-07T11:01:01Z</time>
      </trkpt>
      <trkpt lat="43.64709" lon="3.79203">
        <ele>111.1</ele>
        <time>2017-06-07T11:01:06Z</time>
      </trkpt>
      <trkpt lat="43.64708" lon="3.79204">
        <ele>111.4</ele>
        <time>2017-06-07T11:01:13Z</time>
      </trkpt>
      <trkpt lat="43.64705" lon="3.79221">
        <ele>112.3</ele>
        <time>2017-06-07T11:01:35Z</time>
      </trkpt>
      <trkpt lat="43.64707" lon="3.79239">
        <ele>111.9</ele>
        <time>2017-06-07T11:01:37Z</time>
      </trkpt>
      <trkpt lat="43.64709" lon="3.79249">
        <ele>112.1</ele>
        <time>2017-06-07T11:01:38Z</time>
      </trkpt>
      <trkpt lat="43.6471" lon="3.79261">
        <ele>112.3</ele>
        <time>2017-06-07T11:01:39Z</time>
      </trkpt>
      <trkpt lat="43.64706" lon="3.79277">
        <ele>111.6</ele>
        <time>2017-06-07T11:01:41Z</time>
      </trkpt>
      <trkpt lat="43.64699" lon="3.79285">
        <ele>111.4</ele>
        <time>2017-06-07T11:01:44Z</time>
      </trkpt>
      <trkpt lat="43.6469" lon="3.79287">
        <ele>111.4</ele>
        <time>2017-06-07T11:01:46Z</time>
      </trkpt>
      <trkpt lat="43.64683" lon="3.79289">
        <ele>111.3</ele>
        <time>2017-06-07T11:01:48Z</time>
      </trkpt>
      <trkpt lat="43.64676" lon="3.79297">
        <ele>110.9</ele>
        <time>2017-06-07T11:01:53Z</time>
      </trkpt>
      <trkpt lat="43.64672" lon="3.79312">
        <ele>111.2</ele>
        <time>2017-06-07T11:01:57Z</time>
      </trkpt>
      <trkpt lat="43.64669" lon="3.79325">
        <ele>111.7</ele>
        <time>2017-06-07T11:01:59Z</time>
      </trkpt>
      <trkpt lat="43.64666" lon="3.79341">
        <ele>112.5</ele>
        <time>2017-06-07T11:02:01Z</time>
      </trkpt>
      <trkpt lat="43.6466" lon="3.79358">
        <ele>112.5</ele>
        <time>2017-06-07T11:02:03Z</time>
      </trkpt>
      <trkpt lat="43.64656" lon="3.79368">
        <ele>111.3</ele>
        <time>2017-06-07T11:02:04Z</time>
      </trkpt>
      <trkpt lat="43.64652" lon="3.79378">
        <ele>110.8</ele>
        <time>2017-06-07T11:02:05Z</time>
      </trkpt>
      <trkpt lat="43.64647" lon="3.79389">
        <ele>109.8</ele>
        <time>2017-06-07T11:02:06Z</time>
      </trkpt>
      <trkpt lat="43.64642" lon="3.79396">
        <ele>109.1</ele>
        <time>2017-06-07T11:02:07Z</time>
      </trkpt>
      <trkpt lat="43.64634" lon="3.79409">
        <ele>107.6</ele>
        <time>2017-06-07T11:02:09Z</time>
      </trkpt>
      <trkpt lat="43.64623" lon="3.79423">
        <ele>106</ele>
        <time>2017-06-07T11:02:11Z</time>
      </trkpt>
      <trkpt lat="43.64617" lon="3.7943">
        <ele>105.6</ele>
        <time>2017-06-07T11:02:12Z</time>
      </trkpt>
      <trkpt lat="43.64611" lon="3.79443">
        <ele>104.4</ele>
        <time>2017-06-07T11:02:14Z</time>
      </trkpt>
      <trkpt lat="43.64604" lon="3.79448">
        <ele>104.2</ele>
        <time>2017-06-07T11:02:17Z</time>
      </trkpt>
      <trkpt lat="43.646" lon="3.79459">
        <ele>104.1</ele>
        <time>2017-06-07T11:02:20Z</time>
      </trkpt>
      <trkpt lat="43.64604" lon="3.7947">
        <ele>103.7</ele>
        <time>2017-06-07T11:02:23Z</time>
      </trkpt>
      <trkpt lat="43.64603" lon="3.79482">
        <ele>102.5</ele>
        <time>2017-06-07T11:02:25Z</time>
      </trkpt>
      <trkpt lat="43.64598" lon="3.79495">
        <ele>102.4</ele>
        <time>2017-06-07T11:02:28Z</time>
      </trkpt>
      <trkpt lat="43.64592" lon="3.79507">
        <ele>101.4</ele>
        <time>2017-06-07T11:02:30Z</time>
      </trkpt>
      <trkpt lat="43.64587" lon="3.79521">
        <ele>100.9</ele>
        <time>2017-06-07T11:02:32Z</time>
      </trkpt>
      <trkpt lat="43.64582" lon="3.79534">
        <ele>100</ele>
        <time>2017-06-07T11:02:34Z</time>
      </trkpt>
      <trkpt lat="43.64578" lon="3.79547">
        <ele>99.1</ele>
        <time>2017-06-07T11:02:36Z</time>
      </trkpt>
      <trkpt lat="43.64574" lon="3.79564">
        <ele>99.5</ele>
        <time>2017-06-07T11:02:38Z</time>
      </trkpt>
      <trkpt lat="43.64569" lon="3.7958">
        <ele>100.2</ele>
        <time>2017-06-07T11:02:40Z</time>
      </trkpt>
      <trkpt lat="43.64565" lon="3.79596">
        <ele>101.8</ele>
        <time>2017-06-07T11:02:42Z</time>
      </trkpt>
      <trkpt lat="43.64558" lon="3.79608">
        <ele>102.4</ele>
        <time>2017-06-07T11:02:44Z</time>
      </trkpt>
      <trkpt lat="43.64553" lon="3.7962">
        <ele>102.2</ele>
        <time>2017-06-07T11:02:46Z</time>
      </trkpt>
      <trkpt lat="43.64549" lon="3.79633">
        <ele>102.3</ele>
        <time>2017-06-07T11:02:48Z</time>
      </trkpt>
      <trkpt lat="43.64543" lon="3.79646">
        <ele>103.3</ele>
        <time>2017-06-07T11:02:50Z</time>
      </trkpt>
      <trkpt lat="43.64541" lon="3.7966">
        <ele>103.2</ele>
        <time>2017-06-07T11:02:52Z</time>
      </trkpt>
      <trkpt lat="43.64535" lon="3.79671">
        <ele>102.9</ele>
        <time>2017-06-07T11:02:54Z</time>
      </trkpt>
      <trkpt lat="43.64527" lon="3.79681">
        <ele>102.4</ele>
        <time>2017-06-07T11:02:56Z</time>
      </trkpt>
      <trkpt lat="43.6452" lon="3.79694">
        <ele>102.3</ele>
        <time>2017-06-07T11:02:58Z</time>
      </trkpt>
      <trkpt lat="43.64515" lon="3.79707">
        <ele>103.2</ele>
        <time>2017-06-07T11:03:00Z</time>
      </trkpt>
      <trkpt lat="43.64509" lon="3.79722">
        <ele>104.1</ele>
        <time>2017-06-07T11:03:02Z</time>
      </trkpt>
      <trkpt lat="43.64504" lon="3.79738">
        <ele>105.1</ele>
        <time>2017-06-07T11:03:04Z</time>
      </trkpt>
      <trkpt lat="43.64496" lon="3.7975">
        <ele>105.1</ele>
        <time>2017-06-07T11:03:06Z</time>
      </trkpt>
      <trkpt lat="43.64489" lon="3.79758">
        <ele>104.5</ele>
        <time>2017-06-07T11:03:08Z</time>
      </trkpt>
      <trkpt lat="43.64482" lon="3.79764">
        <ele>104.4</ele>
        <time>2017-06-07T11:03:10Z</time>
      </trkpt>
      <trkpt lat="43.64475" lon="3.79773">
        <ele>104.3</ele>
        <time>2017-06-07T11:03:12Z</time>
      </trkpt>
      <trkpt lat="43.64468" lon="3.79782">
        <ele>103.8</ele>
        <time>2017-06-07T11:03:14Z</time>
      </trkpt>
      <trkpt lat="43.64459" lon="3.79786">
        <ele>103.8</ele>
        <time>2017-06-07T11:03:16Z</time>
      </trkpt>
      <trkpt lat="43.64451" lon="3.79789">
        <ele>103.8</ele>
        <time>2017-06-07T11:03:18Z</time>
      </trkpt>
      <trkpt lat="43.64442" lon="3.79793">
        <ele>104.6</ele>
        <time>2017-06-07T11:03:20Z</time>
      </trkpt>
      <trkpt lat="43.64428" lon="3.79792">
        <ele>102.9</ele>
        <time>2017-06-07T11:03:22Z</time>
      </trkpt>
      <trkpt lat="43.64416" lon="3.79789">
        <ele>101.4</ele>
        <time>2017-06-07T11:03:24Z</time>
      </trkpt>
      <trkpt lat="43.64404" lon="3.79785">
        <ele>100.5</ele>
        <time>2017-06-07T11:03:26Z</time>
      </trkpt>
      <trkpt lat="43.64392" lon="3.79783">
        <ele>99.3</ele>
        <time>2017-06-07T11:03:28Z</time>
      </trkpt>
      <trkpt lat="43.64379" lon="3.79787">
        <ele>98.3</ele>
        <time>2017-06-07T11:03:30Z</time>
      </trkpt>
      <trkpt lat="43.64367" lon="3.79791">
        <ele>98.5</ele>
        <time>2017-06-07T11:03:32Z</time>
      </trkpt>
      <trkpt lat="43.64356" lon="3.79794">
        <ele>98.4</ele>
        <time>2017-06-07T11:03:34Z</time>
      </trkpt>
      <trkpt lat="43.64347" lon="3.79798">
        <ele>97.1</ele>
        <time>2017-06-07T11:03:36Z</time>
      </trkpt>
      <trkpt lat="43.64337" lon="3.79803">
        <ele>96.5</ele>
        <time>2017-06-07T11:03:38Z</time>
      </trkpt>
      <trkpt lat="43.6433" lon="3.7981">
        <ele>97.1</ele>
        <time>2017-06-07T11:03:40Z</time>
      </trkpt>
      <trkpt lat="43.64321" lon="3.79818">
        <ele>98.6</ele>
        <time>2017-06-07T11:03:42Z</time>
      </trkpt>
      <trkpt lat="43.64311" lon="3.79822">
        <ele>99.8</ele>
        <time>2017-06-07T11:03:44Z</time>
      </trkpt>
      <trkpt lat="43.64302" lon="3.79825">
        <ele>101.1</ele>
        <time>2017-06-07T11:03:46Z</time>
      </trkpt>
      <trkpt lat="43.64294" lon="3.79829">
        <ele>101.1</ele>
        <time>2017-06-07T11:03:48Z</time>
      </trkpt>
      <trkpt lat="43.64282" lon="3.79834">
        <ele>100.5</ele>
        <time>2017-06-07T11:03:50Z</time>
      </trkpt>
      <trkpt lat="43.64271" lon="3.79841">
        <ele>100</ele>
        <time>2017-06-07T11:03:52Z</time>
      </trkpt>
      <trkpt lat="43.64262" lon="3.79846">
        <ele>100</ele>
        <time>2017-06-07T11:03:54Z</time>
      </trkpt>
      <trkpt lat="43.64252" lon="3.79851">
        <ele>99.6</ele>
        <time>2017-06-07T11:03:56Z</time>
      </trkpt>
      <trkpt lat="43.64243" lon="3.79856">
        <ele>98.6</ele>
        <time>2017-06-07T11:03:58Z</time>
      </trkpt>
      <trkpt lat="43.64233" lon="3.79864">
        <ele>99.1</ele>
        <time>2017-06-07T11:04:00Z</time>
      </trkpt>
      <trkpt lat="43.64228" lon="3.79873">
        <ele>99.4</ele>
        <time>2017-06-07T11:04:02Z</time>
      </trkpt>
      <trkpt lat="43.64225" lon="3.79884">
        <ele>99.6</ele>
        <time>2017-06-07T11:04:04Z</time>
      </trkpt>
      <trkpt lat="43.64219" lon="3.79897">
        <ele>100.3</ele>
        <time>2017-06-07T11:04:06Z</time>
      </trkpt>
      <trkpt lat="43.64209" lon="3.79899">
        <ele>101.2</ele>
        <time>2017-06-07T11:04:08Z</time>
      </trkpt>
      <trkpt lat="43.64201" lon="3.79899">
        <ele>100.9</ele>
        <time>2017-06-07T11:04:10Z</time>
      </trkpt>
      <trkpt lat="43.64191" lon="3.79901">
        <ele>100.4</ele>
        <time>2017-06-07T11:04:12Z</time>
      </trkpt>
      <trkpt lat="43.64179" lon="3.79909">
        <ele>99</ele>
        <time>2017-06-07T11:04:14Z</time>
      </trkpt>
      <trkpt lat="43.6417" lon="3.79916">
        <ele>99</ele>
        <time>2017-06-07T11:04:16Z</time>
      </trkpt>
      <trkpt lat="43.6416" lon="3.79924">
        <ele>98.5</ele>
        <time>2017-06-07T11:04:18Z</time>
      </trkpt>
      <trkpt lat="43.64151" lon="3.79932">
        <ele>97.8</ele>
        <time>2017-06-07T11:04:20Z</time>
      </trkpt>
      <trkpt lat="43.64142" lon="3.79939">
        <ele>98.3</ele>
        <time>2017-06-07T11:04:22Z</time>
      </trkpt>
      <trkpt lat="43.64131" lon="3.79947">
        <ele>97.4</ele>
        <time>2017-06-07T11:04:24Z</time>
      </trkpt>
      <trkpt lat="43.64121" lon="3.79953">
        <ele>97.4</ele>
        <time>2017-06-07T11:04:26Z</time>
      </trkpt>
      <trkpt lat="43.64112" lon="3.79961">
        <ele>97.4</ele>
        <time>2017-06-07T11:04:28Z</time>
      </trkpt>
      <trkpt lat="43.64101" lon="3.79969">
        <ele>97.6</ele>
        <time>2017-06-07T11:04:30Z</time>
      </trkpt>
      <trkpt lat="43.64091" lon="3.79975">
        <ele>96.5</ele>
        <time>2017-06-07T11:04:32Z</time>
      </trkpt>
      <trkpt lat="43.64081" lon="3.7998">
        <ele>96</ele>
        <time>2017-06-07T11:04:34Z</time>
      </trkpt>
      <trkpt lat="43.64072" lon="3.79986">
        <ele>95.3</ele>
        <time>2017-06-07T11:04:36Z</time>
      </trkpt>
      <trkpt lat="43.64063" lon="3.79992">
        <ele>95.9</ele>
        <time>2017-06-07T11:04:38Z</time>
      </trkpt>
      <trkpt lat="43.64054" lon="3.79998">
        <ele>97.5</ele>
        <time>2017-06-07T11:04:40Z</time>
      </trkpt>
      <trkpt lat="43.64046" lon="3.80005">
        <ele>98</ele>
        <time>2017-06-07T11:04:42Z</time>
      </trkpt>
      <trkpt lat="43.64036" lon="3.80013">
        <ele>98.8</ele>
        <time>2017-06-07T11:04:44Z</time>
      </trkpt>
      <trkpt lat="43.64028" lon="3.8002">
        <ele>99</ele>
        <time>2017-06-07T11:04:46Z</time>
      </trkpt>
      <trkpt lat="43.64018" lon="3.80029">
        <ele>99.3</ele>
        <time>2017-06-07T11:04:48Z</time>
      </trkpt>
      <trkpt lat="43.64009" lon="3.80037">
        <ele>99.9</ele>
        <time>2017-06-07T11:04:50Z</time>
      </trkpt>
      <trkpt lat="43.64001" lon="3.80044">
        <ele>100.4</ele>
        <time>2017-06-07T11:04:52Z</time>
      </trkpt>
      <trkpt lat="43.63993" lon="3.80052">
        <ele>99.1</ele>
        <time>2017-06-07T11:04:54Z</time>
      </trkpt>
      <trkpt lat="43.63983" lon="3.80058">
        <ele>98.3</ele>
        <time>2017-06-07T11:04:56Z</time>
      </trkpt>
      <trkpt lat="43.63974" lon="3.80067">
        <ele>98.8</ele>
        <time>2017-06-07T11:04:58Z</time>
      </trkpt>
      <trkpt lat="43.63964" lon="3.80071">
        <ele>99.9</ele>
        <time>2017-06-07T11:05:00Z</time>
      </trkpt>
      <trkpt lat="43.63954" lon="3.80077">
        <ele>99.6</ele>
        <time>2017-06-07T11:05:02Z</time>
      </trkpt>
      <trkpt lat="43.63944" lon="3.80084">
        <ele>99.3</ele>
        <time>2017-06-07T11:05:04Z</time>
      </trkpt>
      <trkpt lat="43.63935" lon="3.8009">
        <ele>99.3</ele>
        <time>2017-06-07T11:05:06Z</time>
      </trkpt>
      <trkpt lat="43.63926" lon="3.80095">
        <ele>99.8</ele>
        <time>2017-06-07T11:05:08Z</time>
      </trkpt>
      <trkpt lat="43.63916" lon="3.80101">
        <ele>99.6</ele>
        <time>2017-06-07T11:05:10Z</time>
      </trkpt>
      <trkpt lat="43.63904" lon="3.80104">
        <ele>99.2</ele>
        <time>2017-06-07T11:05:12Z</time>
      </trkpt>
      <trkpt lat="43.63893" lon="3.80108">
        <ele>99.1</ele>
        <time>2017-06-07T11:05:14Z</time>
      </trkpt>
      <trkpt lat="43.63886" lon="3.80112">
        <ele>99.3</ele>
        <time>2017-06-07T11:05:16Z</time>
      </trkpt>
      <trkpt lat="43.63877" lon="3.80115">
        <ele>97.8</ele>
        <time>2017-06-07T11:05:18Z</time>
      </trkpt>
      <trkpt lat="43.63872" lon="3.80123">
        <ele>98.2</ele>
        <time>2017-06-07T11:05:20Z</time>
      </trkpt>
      <trkpt lat="43.63867" lon="3.80134">
        <ele>97.7</ele>
        <time>2017-06-07T11:05:23Z</time>
      </trkpt>
      <trkpt lat="43.6386" lon="3.80141">
        <ele>97.5</ele>
        <time>2017-06-07T11:05:26Z</time>
      </trkpt>
      <trkpt lat="43.63855" lon="3.80151">
        <ele>97.6</ele>
        <time>2017-06-07T11:05:29Z</time>
      </trkpt>
      <trkpt lat="43.63849" lon="3.80162">
        <ele>97.5</ele>
        <time>2017-06-07T11:05:32Z</time>
      </trkpt>
      <trkpt lat="43.63843" lon="3.80169">
        <ele>98</ele>
        <time>2017-06-07T11:05:34Z</time>
      </trkpt>
      <trkpt lat="43.63838" lon="3.80182">
        <ele>98.5</ele>
        <time>2017-06-07T11:05:37Z</time>
      </trkpt>
      <trkpt lat="43.63835" lon="3.80196">
        <ele>98.5</ele>
        <time>2017-06-07T11:05:40Z</time>
      </trkpt>
      <trkpt lat="43.63832" lon="3.80211">
        <ele>98.6</ele>
        <time>2017-06-07T11:05:43Z</time>
      </trkpt>
      <trkpt lat="43.63832" lon="3.80221">
        <ele>99.5</ele>
        <time>2017-06-07T11:05:45Z</time>
      </trkpt>
      <trkpt lat="43.63832" lon="3.80235">
        <ele>100.2</ele>
        <time>2017-06-07T11:05:48Z</time>
      </trkpt>
      <trkpt lat="43.63831" lon="3.80245">
        <ele>100</ele>
        <time>2017-06-07T11:05:50Z</time>
      </trkpt>
      <trkpt lat="43.6383" lon="3.80257">
        <ele>99.9</ele>
        <time>2017-06-07T11:05:52Z</time>
      </trkpt>
      <trkpt lat="43.63832" lon="3.80268">
        <ele>100</ele>
        <time>2017-06-07T11:05:54Z</time>
      </trkpt>
      <trkpt lat="43.63836" lon="3.80277">
        <ele>99.8</ele>
        <time>2017-06-07T11:05:56Z</time>
      </trkpt>
      <trkpt lat="43.63842" lon="3.80291">
        <ele>100.1</ele>
        <time>2017-06-07T11:05:59Z</time>
      </trkpt>
      <trkpt lat="43.63847" lon="3.80299">
        <ele>100.7</ele>
        <time>2017-06-07T11:06:01Z</time>
      </trkpt>
      <trkpt lat="43.63852" lon="3.80309">
        <ele>100.4</ele>
        <time>2017-06-07T11:06:03Z</time>
      </trkpt>
      <trkpt lat="43.63853" lon="3.80324">
        <ele>101</ele>
        <time>2017-06-07T11:06:05Z</time>
      </trkpt>
      <trkpt lat="43.63851" lon="3.80336">
        <ele>102.2</ele>
        <time>2017-06-07T11:06:07Z</time>
      </trkpt>
      <trkpt lat="43.63849" lon="3.80349">
        <ele>103.5</ele>
        <time>2017-06-07T11:06:09Z</time>
      </trkpt>
      <trkpt lat="43.63845" lon="3.80363">
        <ele>103.4</ele>
        <time>2017-06-07T11:06:11Z</time>
      </trkpt>
      <trkpt lat="43.63846" lon="3.80379">
        <ele>104.3</ele>
        <time>2017-06-07T11:06:13Z</time>
      </trkpt>
      <trkpt lat="43.63852" lon="3.8039">
        <ele>103.4</ele>
        <time>2017-06-07T11:06:15Z</time>
      </trkpt>
      <trkpt lat="43.63859" lon="3.80402">
        <ele>103.2</ele>
        <time>2017-06-07T11:06:17Z</time>
      </trkpt>
      <trkpt lat="43.63866" lon="3.80413">
        <ele>103.3</ele>
        <time>2017-06-07T11:06:19Z</time>
      </trkpt>
      <trkpt lat="43.63874" lon="3.80423">
        <ele>103.6</ele>
        <time>2017-06-07T11:06:21Z</time>
      </trkpt>
      <trkpt lat="43.63882" lon="3.80434">
        <ele>102.3</ele>
        <time>2017-06-07T11:06:23Z</time>
      </trkpt>
      <trkpt lat="43.63889" lon="3.80444">
        <ele>101.1</ele>
        <time>2017-06-07T11:06:25Z</time>
      </trkpt>
      <trkpt lat="43.63895" lon="3.80454">
        <ele>100.1</ele>
        <time>2017-06-07T11:06:27Z</time>
      </trkpt>
      <trkpt lat="43.63901" lon="3.80463">
        <ele>101.2</ele>
        <time>2017-06-07T11:06:29Z</time>
      </trkpt>
      <trkpt lat="43.63905" lon="3.80472">
        <ele>102</ele>
        <time>2017-06-07T11:06:31Z</time>
      </trkpt>
      <trkpt lat="43.63913" lon="3.80475">
        <ele>101.7</ele>
        <time>2017-06-07T11:06:33Z</time>
      </trkpt>
      <trkpt lat="43.63915" lon="3.80489">
        <ele>101.7</ele>
        <time>2017-06-07T11:06:36Z</time>
      </trkpt>
      <trkpt lat="43.63914" lon="3.80499">
        <ele>101.5</ele>
        <time>2017-06-07T11:06:38Z</time>
      </trkpt>
      <trkpt lat="43.63913" lon="3.80512">
        <ele>100.9</ele>
        <time>2017-06-07T11:06:40Z</time>
      </trkpt>
      <trkpt lat="43.63911" lon="3.80528">
        <ele>100.3</ele>
        <time>2017-06-07T11:06:42Z</time>
      </trkpt>
      <trkpt lat="43.63909" lon="3.80545">
        <ele>98.5</ele>
        <time>2017-06-07T11:06:44Z</time>
      </trkpt>
      <trkpt lat="43.6391" lon="3.80564">
        <ele>98.8</ele>
        <time>2017-06-07T11:06:46Z</time>
      </trkpt>
      <trkpt lat="43.63911" lon="3.80582">
        <ele>99</ele>
        <time>2017-06-07T11:06:48Z</time>
      </trkpt>
      <trkpt lat="43.63911" lon="3.80597">
        <ele>98.4</ele>
        <time>2017-06-07T11:06:50Z</time>
      </trkpt>
      <trkpt lat="43.6391" lon="3.80614">
        <ele>97.6</ele>
        <time>2017-06-07T11:06:52Z</time>
      </trkpt>
      <trkpt lat="43.63909" lon="3.80628">
        <ele>96.1</ele>
        <time>2017-06-07T11:06:54Z</time>
      </trkpt>
      <trkpt lat="43.63909" lon="3.80644">
        <ele>96.2</ele>
        <time>2017-06-07T11:06:56Z</time>
      </trkpt>
      <trkpt lat="43.63909" lon="3.80655">
        <ele>95.8</ele>
        <time>2017-06-07T11:06:58Z</time>
      </trkpt>
      <trkpt lat="43.6391" lon="3.80666">
        <ele>95.8</ele>
        <time>2017-06-07T11:07:02Z</time>
      </trkpt>
      <trkpt lat="43.63919" lon="3.80665">
        <ele>96</ele>
        <time>2017-06-07T11:07:09Z</time>
      </trkpt>
      <trkpt lat="43.63927" lon="3.80664">
        <ele>96.3</ele>
        <time>2017-06-07T11:07:12Z</time>
      </trkpt>
      <trkpt lat="43.63935" lon="3.80662">
        <ele>96.6</ele>
        <time>2017-06-07T11:07:16Z</time>
      </trkpt>
      <trkpt lat="43.63943" lon="3.8066">
        <ele>96.7</ele>
        <time>2017-06-07T11:07:19Z</time>
      </trkpt>
      <trkpt lat="43.63949" lon="3.80655">
        <ele>97.2</ele>
        <time>2017-06-07T11:07:24Z</time>
      </trkpt>
      <trkpt lat="43.63957" lon="3.80652">
        <ele>97.5</ele>
        <time>2017-06-07T11:07:29Z</time>
      </trkpt>
      <trkpt lat="43.63965" lon="3.8065">
        <ele>97.5</ele>
        <time>2017-06-07T11:07:32Z</time>
      </trkpt>
      <trkpt lat="43.63973" lon="3.80647">
        <ele>97.3</ele>
        <time>2017-06-07T11:07:36Z</time>
      </trkpt>
      <trkpt lat="43.63981" lon="3.80644">
        <ele>97.4</ele>
        <time>2017-06-07T11:07:40Z</time>
      </trkpt>
      <trkpt lat="43.63989" lon="3.80641">
        <ele>97.4</ele>
        <time>2017-06-07T11:07:44Z</time>
      </trkpt>
      <trkpt lat="43.63996" lon="3.80637">
        <ele>97.6</ele>
        <time>2017-06-07T11:07:48Z</time>
      </trkpt>
      <trkpt lat="43.64005" lon="3.80633">
        <ele>97.9</ele>
        <time>2017-06-07T11:07:52Z</time>
      </trkpt>
      <trkpt lat="43.64012" lon="3.8063">
        <ele>98.2</ele>
        <time>2017-06-07T11:07:56Z</time>
      </trkpt>
      <trkpt lat="43.64019" lon="3.80624">
        <ele>98.3</ele>
        <time>2017-06-07T11:08:02Z</time>
      </trkpt>
      <trkpt lat="43.64026" lon="3.80621">
        <ele>98.7</ele>
        <time>2017-06-07T11:08:05Z</time>
      </trkpt>
      <trkpt lat="43.64034" lon="3.80617">
        <ele>99</ele>
        <time>2017-06-07T11:08:08Z</time>
      </trkpt>
      <trkpt lat="43.64041" lon="3.80618">
        <ele>99.3</ele>
        <time>2017-06-07T11:08:12Z</time>
      </trkpt>
      <trkpt lat="43.6405" lon="3.80617">
        <ele>99.7</ele>
        <time>2017-06-07T11:08:17Z</time>
      </trkpt>
      <trkpt lat="43.64057" lon="3.80624">
        <ele>100.3</ele>
        <time>2017-06-07T11:08:21Z</time>
      </trkpt>
      <trkpt lat="43.64062" lon="3.80631">
        <ele>101.1</ele>
        <time>2017-06-07T11:08:25Z</time>
      </trkpt>
      <trkpt lat="43.64064" lon="3.80633">
        <ele>102.6</ele>
        <time>2017-06-07T11:08:32Z</time>
      </trkpt>
      <trkpt lat="43.64077" lon="3.80617">
        <ele>105.3</ele>
        <time>2017-06-07T11:08:43Z</time>
      </trkpt>
      <trkpt lat="43.64088" lon="3.80613">
        <ele>106.4</ele>
        <time>2017-06-07T11:08:49Z</time>
      </trkpt>
      <trkpt lat="43.64094" lon="3.80608">
        <ele>107</ele>
        <time>2017-06-07T11:08:55Z</time>
      </trkpt>
      <trkpt lat="43.64095" lon="3.80604">
        <ele>108.1</ele>
        <time>2017-06-07T11:09:02Z</time>
      </trkpt>
      <trkpt lat="43.64103" lon="3.80587">
        <ele>108.7</ele>
        <time>2017-06-07T11:09:06Z</time>
      </trkpt>
      <trkpt lat="43.64109" lon="3.80582">
        <ele>109.5</ele>
        <time>2017-06-07T11:09:10Z</time>
      </trkpt>
      <trkpt lat="43.64113" lon="3.80587">
        <ele>110.9</ele>
        <time>2017-06-07T11:09:17Z</time>
      </trkpt>
      <trkpt lat="43.64115" lon="3.80599">
        <ele>111.5</ele>
        <time>2017-06-07T11:09:19Z</time>
      </trkpt>
      <trkpt lat="43.64119" lon="3.80606">
        <ele>112.9</ele>
        <time>2017-06-07T11:09:26Z</time>
      </trkpt>
      <trkpt lat="43.64125" lon="3.80614">
        <ele>113.7</ele>
        <time>2017-06-07T11:09:30Z</time>
      </trkpt>
      <trkpt lat="43.64133" lon="3.80615">
        <ele>114.6</ele>
        <time>2017-06-07T11:09:34Z</time>
      </trkpt>
      <trkpt lat="43.64141" lon="3.80621">
        <ele>115.7</ele>
        <time>2017-06-07T11:09:39Z</time>
      </trkpt>
      <trkpt lat="43.64147" lon="3.80626">
        <ele>116.8</ele>
        <time>2017-06-07T11:09:44Z</time>
      </trkpt>
      <trkpt lat="43.6415" lon="3.80634">
        <ele>117.8</ele>
        <time>2017-06-07T11:09:48Z</time>
      </trkpt>
      <trkpt lat="43.64154" lon="3.80646">
        <ele>118.7</ele>
        <time>2017-06-07T11:09:53Z</time>
      </trkpt>
      <trkpt lat="43.64156" lon="3.80656">
        <ele>119.2</ele>
        <time>2017-06-07T11:09:56Z</time>
      </trkpt>
      <trkpt lat="43.64158" lon="3.80666">
        <ele>119.8</ele>
        <time>2017-06-07T11:09:59Z</time>
      </trkpt>
      <trkpt lat="43.6416" lon="3.80678">
        <ele>120.8</ele>
        <time>2017-06-07T11:10:04Z</time>
      </trkpt>
      <trkpt lat="43.6416" lon="3.80683">
        <ele>122.3</ele>
        <time>2017-06-07T11:10:11Z</time>
      </trkpt>
      <trkpt lat="43.64162" lon="3.80702">
        <ele>123</ele>
        <time>2017-06-07T11:10:14Z</time>
      </trkpt>
      <trkpt lat="43.64164" lon="3.80713">
        <ele>123.5</ele>
        <time>2017-06-07T11:10:18Z</time>
      </trkpt>
      <trkpt lat="43.64167" lon="3.80722">
        <ele>124.4</ele>
        <time>2017-06-07T11:10:22Z</time>
      </trkpt>
      <trkpt lat="43.64166" lon="3.80734">
        <ele>125.6</ele>
        <time>2017-06-07T11:10:27Z</time>
      </trkpt>
      <trkpt lat="43.64167" lon="3.8074">
        <ele>127.4</ele>
        <time>2017-06-07T11:10:34Z</time>
      </trkpt>
      <trkpt lat="43.64164" lon="3.8076">
        <ele>128.6</ele>
        <time>2017-06-07T11:10:38Z</time>
      </trkpt>
      <trkpt lat="43.64165" lon="3.8077">
        <ele>129.7</ele>
        <time>2017-06-07T11:10:42Z</time>
      </trkpt>
      <trkpt lat="43.6417" lon="3.8078">
        <ele>131</ele>
        <time>2017-06-07T11:10:48Z</time>
      </trkpt>
      <trkpt lat="43.64171" lon="3.8079">
        <ele>132.7</ele>
        <time>2017-06-07T11:10:55Z</time>
      </trkpt>
      <trkpt lat="43.64171" lon="3.80801">
        <ele>133.9</ele>
        <time>2017-06-07T11:10:59Z</time>
      </trkpt>
      <trkpt lat="43.64172" lon="3.80812">
        <ele>135.8</ele>
        <time>2017-06-07T11:11:05Z</time>
      </trkpt>
      <trkpt lat="43.64174" lon="3.80825">
        <ele>136.9</ele>
        <time>2017-06-07T11:11:09Z</time>
      </trkpt>
      <trkpt lat="43.64174" lon="3.80835">
        <ele>137.2</ele>
        <time>2017-06-07T11:11:11Z</time>
      </trkpt>
      <trkpt lat="43.64175" lon="3.80847">
        <ele>137.7</ele>
        <time>2017-06-07T11:11:14Z</time>
      </trkpt>
      <trkpt lat="43.64177" lon="3.80857">
        <ele>138.2</ele>
        <time>2017-06-07T11:11:18Z</time>
      </trkpt>
      <trkpt lat="43.64179" lon="3.80868">
        <ele>139.3</ele>
        <time>2017-06-07T11:11:23Z</time>
      </trkpt>
      <trkpt lat="43.64183" lon="3.80879">
        <ele>140</ele>
        <time>2017-06-07T11:11:27Z</time>
      </trkpt>
      <trkpt lat="43.64186" lon="3.8089">
        <ele>141.2</ele>
        <time>2017-06-07T11:11:32Z</time>
      </trkpt>
      <trkpt lat="43.64188" lon="3.80901">
        <ele>142.3</ele>
        <time>2017-06-07T11:11:36Z</time>
      </trkpt>
      <trkpt lat="43.64185" lon="3.8091">
        <ele>143.7</ele>
        <time>2017-06-07T11:11:41Z</time>
      </trkpt>
      <trkpt lat="43.64179" lon="3.80917">
        <ele>144.4</ele>
        <time>2017-06-07T11:11:44Z</time>
      </trkpt>
      <trkpt lat="43.64174" lon="3.80925">
        <ele>145.1</ele>
        <time>2017-06-07T11:11:47Z</time>
      </trkpt>
      <trkpt lat="43.64169" lon="3.80933">
        <ele>146.1</ele>
        <time>2017-06-07T11:11:52Z</time>
      </trkpt>
      <trkpt lat="43.64163" lon="3.80942">
        <ele>146.7</ele>
        <time>2017-06-07T11:11:55Z</time>
      </trkpt>
      <trkpt lat="43.64157" lon="3.80948">
        <ele>148.7</ele>
        <time>2017-06-07T11:11:57Z</time>
      </trkpt>
      <trkpt lat="43.64152" lon="3.80955">
        <ele>150.3</ele>
        <time>2017-06-07T11:11:59Z</time>
      </trkpt>
      <trkpt lat="43.64146" lon="3.80967">
        <ele>151.3</ele>
        <time>2017-06-07T11:12:01Z</time>
      </trkpt>
      <trkpt lat="43.64141" lon="3.80976">
        <ele>152.3</ele>
        <time>2017-06-07T11:12:02Z</time>
      </trkpt>
      <trkpt lat="43.64137" lon="3.80984">
        <ele>152.6</ele>
        <time>2017-06-07T11:12:03Z</time>
      </trkpt>
      <trkpt lat="43.64131" lon="3.80995">
        <ele>153</ele>
        <time>2017-06-07T11:12:05Z</time>
      </trkpt>
      <trkpt lat="43.64126" lon="3.81002">
        <ele>152.9</ele>
        <time>2017-06-07T11:12:07Z</time>
      </trkpt>
      <trkpt lat="43.64121" lon="3.8101">
        <ele>153</ele>
        <time>2017-06-07T11:12:10Z</time>
      </trkpt>
      <trkpt lat="43.64116" lon="3.81019">
        <ele>153.2</ele>
        <time>2017-06-07T11:12:14Z</time>
      </trkpt>
      <trkpt lat="43.64112" lon="3.81028">
        <ele>153.4</ele>
        <time>2017-06-07T11:12:18Z</time>
      </trkpt>
      <trkpt lat="43.64109" lon="3.81041">
        <ele>153.7</ele>
        <time>2017-06-07T11:12:22Z</time>
      </trkpt>
      <trkpt lat="43.64107" lon="3.81053">
        <ele>154.2</ele>
        <time>2017-06-07T11:12:26Z</time>
      </trkpt>
      <trkpt lat="43.64102" lon="3.81062">
        <ele>154.7</ele>
        <time>2017-06-07T11:12:30Z</time>
      </trkpt>
      <trkpt lat="43.64095" lon="3.81071">
        <ele>155.1</ele>
        <time>2017-06-07T11:12:34Z</time>
      </trkpt>
      <trkpt lat="43.6409" lon="3.81078">
        <ele>155.6</ele>
        <time>2017-06-07T11:12:38Z</time>
      </trkpt>
      <trkpt lat="43.64086" lon="3.81088">
        <ele>156</ele>
        <time>2017-06-07T11:12:42Z</time>
      </trkpt>
      <trkpt lat="43.64087" lon="3.81098">
        <ele>156.4</ele>
        <time>2017-06-07T11:12:47Z</time>
      </trkpt>
      <trkpt lat="43.64092" lon="3.81106">
        <ele>156.9</ele>
        <time>2017-06-07T11:12:51Z</time>
      </trkpt>
      <trkpt lat="43.64098" lon="3.81113">
        <ele>157.4</ele>
        <time>2017-06-07T11:12:54Z</time>
      </trkpt>
      <trkpt lat="43.64106" lon="3.81122">
        <ele>157.9</ele>
        <time>2017-06-07T11:12:58Z</time>
      </trkpt>
      <trkpt lat="43.64112" lon="3.8113">
        <ele>158.3</ele>
        <time>2017-06-07T11:13:01Z</time>
      </trkpt>
      <trkpt lat="43.64118" lon="3.81141">
        <ele>158.8</ele>
        <time>2017-06-07T11:13:04Z</time>
      </trkpt>
      <trkpt lat="43.64125" lon="3.81149">
        <ele>159.1</ele>
        <time>2017-06-07T11:13:07Z</time>
      </trkpt>
      <trkpt lat="43.64132" lon="3.81154">
        <ele>159.4</ele>
        <time>2017-06-07T11:13:10Z</time>
      </trkpt>
      <trkpt lat="43.6414" lon="3.81162">
        <ele>160</ele>
        <time>2017-06-07T11:13:13Z</time>
      </trkpt>
      <trkpt lat="43.64146" lon="3.8117">
        <ele>160.6</ele>
        <time>2017-06-07T11:13:16Z</time>
      </trkpt>
      <trkpt lat="43.64153" lon="3.81176">
        <ele>160.8</ele>
        <time>2017-06-07T11:13:18Z</time>
      </trkpt>
      <trkpt lat="43.64161" lon="3.81184">
        <ele>161.2</ele>
        <time>2017-06-07T11:13:21Z</time>
      </trkpt>
      <trkpt lat="43.64169" lon="3.81194">
        <ele>162.6</ele>
        <time>2017-06-07T11:13:24Z</time>
      </trkpt>
      <trkpt lat="43.64175" lon="3.81203">
        <ele>163.2</ele>
        <time>2017-06-07T11:13:27Z</time>
      </trkpt>
      <trkpt lat="43.64182" lon="3.81212">
        <ele>163.6</ele>
        <time>2017-06-07T11:13:30Z</time>
      </trkpt>
      <trkpt lat="43.64186" lon="3.8122">
        <ele>163.9</ele>
        <time>2017-06-07T11:13:32Z</time>
      </trkpt>
      <trkpt lat="43.64192" lon="3.81233">
        <ele>165.2</ele>
        <time>2017-06-07T11:13:35Z</time>
      </trkpt>
      <trkpt lat="43.64198" lon="3.81242">
        <ele>165.2</ele>
        <time>2017-06-07T11:13:37Z</time>
      </trkpt>
      <trkpt lat="43.64205" lon="3.81249">
        <ele>165.2</ele>
        <time>2017-06-07T11:13:40Z</time>
      </trkpt>
      <trkpt lat="43.64214" lon="3.81243">
        <ele>165.2</ele>
        <time>2017-06-07T11:13:44Z</time>
      </trkpt>
      <trkpt lat="43.64224" lon="3.81234">
        <ele>164.7</ele>
        <time>2017-06-07T11:13:47Z</time>
      </trkpt>
      <trkpt lat="43.64233" lon="3.81224">
        <ele>163.6</ele>
        <time>2017-06-07T11:13:49Z</time>
      </trkpt>
      <trkpt lat="43.64242" lon="3.81215">
        <ele>163.1</ele>
        <time>2017-06-07T11:13:51Z</time>
      </trkpt>
      <trkpt lat="43.64247" lon="3.81207">
        <ele>162.6</ele>
        <time>2017-06-07T11:13:53Z</time>
      </trkpt>
      <trkpt lat="43.64256" lon="3.81206">
        <ele>162.5</ele>
        <time>2017-06-07T11:13:57Z</time>
      </trkpt>
      <trkpt lat="43.64264" lon="3.81206">
        <ele>161.6</ele>
        <time>2017-06-07T11:14:04Z</time>
      </trkpt>
      <trkpt lat="43.64271" lon="3.81206">
        <ele>161</ele>
        <time>2017-06-07T11:14:08Z</time>
      </trkpt>
      <trkpt lat="43.6428" lon="3.81208">
        <ele>160.7</ele>
        <time>2017-06-07T11:14:11Z</time>
      </trkpt>
      <trkpt lat="43.6429" lon="3.81215">
        <ele>160</ele>
        <time>2017-06-07T11:14:15Z</time>
      </trkpt>
      <trkpt lat="43.64297" lon="3.81219">
        <ele>159.4</ele>
        <time>2017-06-07T11:14:18Z</time>
      </trkpt>
      <trkpt lat="43.64307" lon="3.81222">
        <ele>158.8</ele>
        <time>2017-06-07T11:14:21Z</time>
      </trkpt>
      <trkpt lat="43.64315" lon="3.8123">
        <ele>158</ele>
        <time>2017-06-07T11:14:24Z</time>
      </trkpt>
      <trkpt lat="43.6432" lon="3.8124">
        <ele>157.3</ele>
        <time>2017-06-07T11:14:26Z</time>
      </trkpt>
      <trkpt lat="43.64322" lon="3.81253">
        <ele>156.8</ele>
        <time>2017-06-07T11:14:28Z</time>
      </trkpt>
      <trkpt lat="43.64325" lon="3.81264">
        <ele>155.9</ele>
        <time>2017-06-07T11:14:32Z</time>
      </trkpt>
      <trkpt lat="43.64327" lon="3.81274">
        <ele>155.5</ele>
        <time>2017-06-07T11:14:34Z</time>
      </trkpt>
      <trkpt lat="43.64329" lon="3.81285">
        <ele>155</ele>
        <time>2017-06-07T11:14:36Z</time>
      </trkpt>
      <trkpt lat="43.6433" lon="3.81295">
        <ele>154.3</ele>
        <time>2017-06-07T11:14:40Z</time>
      </trkpt>
      <trkpt lat="43.64332" lon="3.81304">
        <ele>153.4</ele>
        <time>2017-06-07T11:14:46Z</time>
      </trkpt>
      <trkpt lat="43.64335" lon="3.81307">
        <ele>152.6</ele>
        <time>2017-06-07T11:14:53Z</time>
      </trkpt>
      <trkpt lat="43.64338" lon="3.81315">
        <ele>152.4</ele>
        <time>2017-06-07T11:14:56Z</time>
      </trkpt>
      <trkpt lat="43.6434" lon="3.81327">
        <ele>152.1</ele>
        <time>2017-06-07T11:15:00Z</time>
      </trkpt>
      <trkpt lat="43.64344" lon="3.81337">
        <ele>150.3</ele>
        <time>2017-06-07T11:15:07Z</time>
      </trkpt>
      <trkpt lat="43.6435" lon="3.81348">
        <ele>149.4</ele>
        <time>2017-06-07T11:15:11Z</time>
      </trkpt>
      <trkpt lat="43.64356" lon="3.81357">
        <ele>149</ele>
        <time>2017-06-07T11:15:16Z</time>
      </trkpt>
      <trkpt lat="43.6436" lon="3.81366">
        <ele>148.8</ele>
        <time>2017-06-07T11:15:19Z</time>
      </trkpt>
      <trkpt lat="43.64368" lon="3.81374">
        <ele>148.5</ele>
        <time>2017-06-07T11:15:23Z</time>
      </trkpt>
      <trkpt lat="43.64372" lon="3.81382">
        <ele>148.4</ele>
        <time>2017-06-07T11:15:27Z</time>
      </trkpt>
      <trkpt lat="43.64379" lon="3.81391">
        <ele>147.9</ele>
        <time>2017-06-07T11:15:31Z</time>
      </trkpt>
      <trkpt lat="43.64385" lon="3.81401">
        <ele>147</ele>
        <time>2017-06-07T11:15:37Z</time>
      </trkpt>
      <trkpt lat="43.64388" lon="3.81405">
        <ele>146.4</ele>
        <time>2017-06-07T11:15:44Z</time>
      </trkpt>
      <trkpt lat="43.64386" lon="3.81419">
        <ele>146.2</ele>
        <time>2017-06-07T11:15:48Z</time>
      </trkpt>
      <trkpt lat="43.6439" lon="3.81428">
        <ele>146.7</ele>
        <time>2017-06-07T11:15:54Z</time>
      </trkpt>
      <trkpt lat="43.64395" lon="3.81435">
        <ele>147.1</ele>
        <time>2017-06-07T11:16:00Z</time>
      </trkpt>
      <trkpt lat="43.64398" lon="3.81446">
        <ele>147.5</ele>
        <time>2017-06-07T11:16:05Z</time>
      </trkpt>
      <trkpt lat="43.64404" lon="3.81454">
        <ele>147.2</ele>
        <time>2017-06-07T11:16:09Z</time>
      </trkpt>
      <trkpt lat="43.64408" lon="3.81463">
        <ele>147.3</ele>
        <time>2017-06-07T11:16:12Z</time>
      </trkpt>
      <trkpt lat="43.64414" lon="3.81471">
        <ele>147.5</ele>
        <time>2017-06-07T11:16:15Z</time>
      </trkpt>
      <trkpt lat="43.64423" lon="3.81479">
        <ele>149</ele>
        <time>2017-06-07T11:16:18Z</time>
      </trkpt>
      <trkpt lat="43.64433" lon="3.81488">
        <ele>152.6</ele>
        <time>2017-06-07T11:16:20Z</time>
      </trkpt>
      <trkpt lat="43.64442" lon="3.81501">
        <ele>153.1</ele>
        <time>2017-06-07T11:16:22Z</time>
      </trkpt>
      <trkpt lat="43.64448" lon="3.81511">
        <ele>153.1</ele>
        <time>2017-06-07T11:16:24Z</time>
      </trkpt>
      <trkpt lat="43.64458" lon="3.81526">
        <ele>153.4</ele>
        <time>2017-06-07T11:16:26Z</time>
      </trkpt>
      <trkpt lat="43.64461" lon="3.81548">
        <ele>153</ele>
        <time>2017-06-07T11:16:28Z</time>
      </trkpt>
      <trkpt lat="43.64467" lon="3.81565">
        <ele>152.6</ele>
        <time>2017-06-07T11:16:39Z</time>
      </trkpt>
      <trkpt lat="43.64472" lon="3.81609">
        <ele>151.5</ele>
        <time>2017-06-07T11:16:39Z</time>
      </trkpt>
      <trkpt lat="43.64472" lon="3.81619">
        <ele>150.6</ele>
        <time>2017-06-07T11:16:43Z</time>
      </trkpt>
      <trkpt lat="43.64473" lon="3.81631">
        <ele>149.6</ele>
        <time>2017-06-07T11:16:46Z</time>
      </trkpt>
      <trkpt lat="43.64475" lon="3.81644">
        <ele>148.8</ele>
        <time>2017-06-07T11:16:50Z</time>
      </trkpt>
      <trkpt lat="43.64479" lon="3.81655">
        <ele>148.1</ele>
        <time>2017-06-07T11:16:54Z</time>
      </trkpt>
      <trkpt lat="43.64482" lon="3.81666">
        <ele>147.9</ele>
        <time>2017-06-07T11:16:59Z</time>
      </trkpt>
      <trkpt lat="43.64485" lon="3.81676">
        <ele>147.9</ele>
        <time>2017-06-07T11:17:03Z</time>
      </trkpt>
      <trkpt lat="43.64489" lon="3.81688">
        <ele>148.1</ele>
        <time>2017-06-07T11:17:07Z</time>
      </trkpt>
      <trkpt lat="43.64493" lon="3.817">
        <ele>148.6</ele>
        <time>2017-06-07T11:17:10Z</time>
      </trkpt>
      <trkpt lat="43.64495" lon="3.8171">
        <ele>148.7</ele>
        <time>2017-06-07T11:17:13Z</time>
      </trkpt>
      <trkpt lat="43.64497" lon="3.81722">
        <ele>149.1</ele>
        <time>2017-06-07T11:17:17Z</time>
      </trkpt>
      <trkpt lat="43.64499" lon="3.81732">
        <ele>149.5</ele>
        <time>2017-06-07T11:17:20Z</time>
      </trkpt>
      <trkpt lat="43.64498" lon="3.81743">
        <ele>149.8</ele>
        <time>2017-06-07T11:17:23Z</time>
      </trkpt>
      <trkpt lat="43.64497" lon="3.81753">
        <ele>150.2</ele>
        <time>2017-06-07T11:17:26Z</time>
      </trkpt>
      <trkpt lat="43.64496" lon="3.81765">
        <ele>150.8</ele>
        <time>2017-06-07T11:17:29Z</time>
      </trkpt>
      <trkpt lat="43.64494" lon="3.81777">
        <ele>151.2</ele>
        <time>2017-06-07T11:17:33Z</time>
      </trkpt>
      <trkpt lat="43.64494" lon="3.8179">
        <ele>151.3</ele>
        <time>2017-06-07T11:17:36Z</time>
      </trkpt>
      <trkpt lat="43.64495" lon="3.81799">
        <ele>151.5</ele>
        <time>2017-06-07T11:17:39Z</time>
      </trkpt>
      <trkpt lat="43.64493" lon="3.8181">
        <ele>151.4</ele>
        <time>2017-06-07T11:17:42Z</time>
      </trkpt>
      <trkpt lat="43.64493" lon="3.81821">
        <ele>151.3</ele>
        <time>2017-06-07T11:17:45Z</time>
      </trkpt>
      <trkpt lat="43.6449" lon="3.81833">
        <ele>151.1</ele>
        <time>2017-06-07T11:17:48Z</time>
      </trkpt>
      <trkpt lat="43.64489" lon="3.81847">
        <ele>150.8</ele>
        <time>2017-06-07T11:17:51Z</time>
      </trkpt>
      <trkpt lat="43.64487" lon="3.81857">
        <ele>150.7</ele>
        <time>2017-06-07T11:17:53Z</time>
      </trkpt>
      <trkpt lat="43.64482" lon="3.81867">
        <ele>150.7</ele>
        <time>2017-06-07T11:17:56Z</time>
      </trkpt>
      <trkpt lat="43.64479" lon="3.81879">
        <ele>150.7</ele>
        <time>2017-06-07T11:17:59Z</time>
      </trkpt>
      <trkpt lat="43.64477" lon="3.81891">
        <ele>150.7</ele>
        <time>2017-06-07T11:18:03Z</time>
      </trkpt>
      <trkpt lat="43.64475" lon="3.81905">
        <ele>150.6</ele>
        <time>2017-06-07T11:18:06Z</time>
      </trkpt>
      <trkpt lat="43.6447" lon="3.81919">
        <ele>150.4</ele>
        <time>2017-06-07T11:18:09Z</time>
      </trkpt>
      <trkpt lat="43.64463" lon="3.8193">
        <ele>148.1</ele>
        <time>2017-06-07T11:18:12Z</time>
      </trkpt>
      <trkpt lat="43.64459" lon="3.81942">
        <ele>147.7</ele>
        <time>2017-06-07T11:18:14Z</time>
      </trkpt>
      <trkpt lat="43.64453" lon="3.81952">
        <ele>149.2</ele>
        <time>2017-06-07T11:18:16Z</time>
      </trkpt>
      <trkpt lat="43.64448" lon="3.81961">
        <ele>149.5</ele>
        <time>2017-06-07T11:18:18Z</time>
      </trkpt>
      <trkpt lat="43.64442" lon="3.81972">
        <ele>150.2</ele>
        <time>2017-06-07T11:18:20Z</time>
      </trkpt>
      <trkpt lat="43.64434" lon="3.81983">
        <ele>150.1</ele>
        <time>2017-06-07T11:18:22Z</time>
      </trkpt>
      <trkpt lat="43.64427" lon="3.81995">
        <ele>149.9</ele>
        <time>2017-06-07T11:18:24Z</time>
      </trkpt>
      <trkpt lat="43.64421" lon="3.82007">
        <ele>151.4</ele>
        <time>2017-06-07T11:18:26Z</time>
      </trkpt>
      <trkpt lat="43.64415" lon="3.82016">
        <ele>151.5</ele>
        <time>2017-06-07T11:18:28Z</time>
      </trkpt>
      <trkpt lat="43.64407" lon="3.82029">
        <ele>151.9</ele>
        <time>2017-06-07T11:18:30Z</time>
      </trkpt>
      <trkpt lat="43.64401" lon="3.8204">
        <ele>151.1</ele>
        <time>2017-06-07T11:18:32Z</time>
      </trkpt>
      <trkpt lat="43.64395" lon="3.82051">
        <ele>150</ele>
        <time>2017-06-07T11:18:34Z</time>
      </trkpt>
      <trkpt lat="43.6439" lon="3.82062">
        <ele>149.8</ele>
        <time>2017-06-07T11:18:36Z</time>
      </trkpt>
      <trkpt lat="43.64385" lon="3.82072">
        <ele>148.4</ele>
        <time>2017-06-07T11:18:38Z</time>
      </trkpt>
      <trkpt lat="43.64377" lon="3.82084">
        <ele>146.4</ele>
        <time>2017-06-07T11:18:40Z</time>
      </trkpt>
      <trkpt lat="43.64371" lon="3.82099">
        <ele>144.6</ele>
        <time>2017-06-07T11:18:42Z</time>
      </trkpt>
      <trkpt lat="43.64367" lon="3.82111">
        <ele>144.1</ele>
        <time>2017-06-07T11:18:44Z</time>
      </trkpt>
      <trkpt lat="43.6436" lon="3.82122">
        <ele>145.2</ele>
        <time>2017-06-07T11:18:46Z</time>
      </trkpt>
      <trkpt lat="43.64354" lon="3.82126">
        <ele>145.8</ele>
        <time>2017-06-07T11:18:48Z</time>
      </trkpt>
      <trkpt lat="43.64347" lon="3.82131">
        <ele>146.2</ele>
        <time>2017-06-07T11:18:53Z</time>
      </trkpt>
      <trkpt lat="43.64345" lon="3.82143">
        <ele>146.5</ele>
        <time>2017-06-07T11:18:58Z</time>
      </trkpt>
      <trkpt lat="43.64344" lon="3.82154">
        <ele>146.6</ele>
        <time>2017-06-07T11:19:01Z</time>
      </trkpt>
      <trkpt lat="43.64346" lon="3.82164">
        <ele>146.8</ele>
        <time>2017-06-07T11:19:04Z</time>
      </trkpt>
      <trkpt lat="43.64342" lon="3.82172">
        <ele>146.9</ele>
        <time>2017-06-07T11:19:08Z</time>
      </trkpt>
      <trkpt lat="43.64341" lon="3.82183">
        <ele>147</ele>
        <time>2017-06-07T11:19:10Z</time>
      </trkpt>
      <trkpt lat="43.6434" lon="3.822">
        <ele>148.2</ele>
        <time>2017-06-07T11:19:13Z</time>
      </trkpt>
      <trkpt lat="43.64339" lon="3.82217">
        <ele>148.7</ele>
        <time>2017-06-07T11:19:16Z</time>
      </trkpt>
      <trkpt lat="43.6434" lon="3.82231">
        <ele>148.8</ele>
        <time>2017-06-07T11:19:19Z</time>
      </trkpt>
      <trkpt lat="43.64342" lon="3.82241">
        <ele>148.2</ele>
        <time>2017-06-07T11:19:21Z</time>
      </trkpt>
      <trkpt lat="43.64349" lon="3.82249">
        <ele>145.9</ele>
        <time>2017-06-07T11:19:24Z</time>
      </trkpt>
      <trkpt lat="43.64351" lon="3.82261">
        <ele>145.8</ele>
        <time>2017-06-07T11:19:26Z</time>
      </trkpt>
      <trkpt lat="43.64347" lon="3.82269">
        <ele>145.7</ele>
        <time>2017-06-07T11:19:28Z</time>
      </trkpt>
      <trkpt lat="43.64343" lon="3.82281">
        <ele>145.7</ele>
        <time>2017-06-07T11:19:32Z</time>
      </trkpt>
      <trkpt lat="43.64337" lon="3.82289">
        <ele>145.8</ele>
        <time>2017-06-07T11:19:35Z</time>
      </trkpt>
      <trkpt lat="43.64328" lon="3.82293">
        <ele>145.7</ele>
        <time>2017-06-07T11:19:38Z</time>
      </trkpt>
      <trkpt lat="43.64321" lon="3.82296">
        <ele>146.6</ele>
        <time>2017-06-07T11:19:40Z</time>
      </trkpt>
      <trkpt lat="43.64313" lon="3.82299">
        <ele>147.8</ele>
        <time>2017-06-07T11:19:42Z</time>
      </trkpt>
      <trkpt lat="43.64304" lon="3.82299">
        <ele>149.5</ele>
        <time>2017-06-07T11:19:44Z</time>
      </trkpt>
      <trkpt lat="43.64296" lon="3.82297">
        <ele>149.7</ele>
        <time>2017-06-07T11:19:46Z</time>
      </trkpt>
      <trkpt lat="43.64291" lon="3.82305">
        <ele>150.1</ele>
        <time>2017-06-07T11:19:48Z</time>
      </trkpt>
      <trkpt lat="43.64281" lon="3.8231">
        <ele>149.4</ele>
        <time>2017-06-07T11:19:50Z</time>
      </trkpt>
      <trkpt lat="43.64273" lon="3.82313">
        <ele>149.1</ele>
        <time>2017-06-07T11:19:52Z</time>
      </trkpt>
      <trkpt lat="43.64266" lon="3.82311">
        <ele>149</ele>
        <time>2017-06-07T11:19:54Z</time>
      </trkpt>
      <trkpt lat="43.64257" lon="3.82306">
        <ele>149</ele>
        <time>2017-06-07T11:19:57Z</time>
      </trkpt>
      <trkpt lat="43.64249" lon="3.82309">
        <ele>149.1</ele>
        <time>2017-06-07T11:20:00Z</time>
      </trkpt>
      <trkpt lat="43.64242" lon="3.82309">
        <ele>149.2</ele>
        <time>2017-06-07T11:20:04Z</time>
      </trkpt>
      <trkpt lat="43.64235" lon="3.82309">
        <ele>149.3</ele>
        <time>2017-06-07T11:20:06Z</time>
      </trkpt>
      <trkpt lat="43.64224" lon="3.82309">
        <ele>149.4</ele>
        <time>2017-06-07T11:20:09Z</time>
      </trkpt>
      <trkpt lat="43.64216" lon="3.82313">
        <ele>149.6</ele>
        <time>2017-06-07T11:20:11Z</time>
      </trkpt>
      <trkpt lat="43.64207" lon="3.82316">
        <ele>149.9</ele>
        <time>2017-06-07T11:20:13Z</time>
      </trkpt>
      <trkpt lat="43.64199" lon="3.82322">
        <ele>150.1</ele>
        <time>2017-06-07T11:20:15Z</time>
      </trkpt>
      <trkpt lat="43.64191" lon="3.82329">
        <ele>150.2</ele>
        <time>2017-06-07T11:20:17Z</time>
      </trkpt>
      <trkpt lat="43.64187" lon="3.82338">
        <ele>150.2</ele>
        <time>2017-06-07T11:20:20Z</time>
      </trkpt>
      <trkpt lat="43.64184" lon="3.8235">
        <ele>150.2</ele>
        <time>2017-06-07T11:20:23Z</time>
      </trkpt>
      <trkpt lat="43.6418" lon="3.82359">
        <ele>150.2</ele>
        <time>2017-06-07T11:20:25Z</time>
      </trkpt>
      <trkpt lat="43.64176" lon="3.82371">
        <ele>150.4</ele>
        <time>2017-06-07T11:20:28Z</time>
      </trkpt>
      <trkpt lat="43.64168" lon="3.82379">
        <ele>150.6</ele>
        <time>2017-06-07T11:20:34Z</time>
      </trkpt>
      <trkpt lat="43.64162" lon="3.82389">
        <ele>150.7</ele>
        <time>2017-06-07T11:20:37Z</time>
      </trkpt>
      <trkpt lat="43.6416" lon="3.82402">
        <ele>150.7</ele>
        <time>2017-06-07T11:20:40Z</time>
      </trkpt>
      <trkpt lat="43.64153" lon="3.82414">
        <ele>150.8</ele>
        <time>2017-06-07T11:20:42Z</time>
      </trkpt>
      <trkpt lat="43.64152" lon="3.82425">
        <ele>150.8</ele>
        <time>2017-06-07T11:20:44Z</time>
      </trkpt>
      <trkpt lat="43.64147" lon="3.82436">
        <ele>150.5</ele>
        <time>2017-06-07T11:20:47Z</time>
      </trkpt>
      <trkpt lat="43.64142" lon="3.82445">
        <ele>150.2</ele>
        <time>2017-06-07T11:20:50Z</time>
      </trkpt>
      <trkpt lat="43.64141" lon="3.82455">
        <ele>150.2</ele>
        <time>2017-06-07T11:20:52Z</time>
      </trkpt>
      <trkpt lat="43.64139" lon="3.82457">
        <ele>149.5</ele>
        <time>2017-06-07T11:20:59Z</time>
      </trkpt>
      <trkpt lat="43.64141" lon="3.8246">
        <ele>148.8</ele>
        <time>2017-06-07T11:21:06Z</time>
      </trkpt>
      <trkpt lat="43.64145" lon="3.82462">
        <ele>148.9</ele>
        <time>2017-06-07T11:21:13Z</time>
      </trkpt>
      <trkpt lat="43.64147" lon="3.82462">
        <ele>148.4</ele>
        <time>2017-06-07T11:21:20Z</time>
      </trkpt>
      <trkpt lat="43.64148" lon="3.82464">
        <ele>147.2</ele>
        <time>2017-06-07T11:21:27Z</time>
      </trkpt>
      <trkpt lat="43.64145" lon="3.82471">
        <ele>147.7</ele>
        <time>2017-06-07T11:21:41Z</time>
      </trkpt>
      <trkpt lat="43.64139" lon="3.82479">
        <ele>148.2</ele>
        <time>2017-06-07T11:21:48Z</time>
      </trkpt>
      <trkpt lat="43.64139" lon="3.82493">
        <ele>148.2</ele>
        <time>2017-06-07T11:21:51Z</time>
      </trkpt>
      <trkpt lat="43.64132" lon="3.82505">
        <ele>148.1</ele>
        <time>2017-06-07T11:21:53Z</time>
      </trkpt>
      <trkpt lat="43.64126" lon="3.82516">
        <ele>147</ele>
        <time>2017-06-07T11:21:55Z</time>
      </trkpt>
      <trkpt lat="43.64122" lon="3.82529">
        <ele>146.8</ele>
        <time>2017-06-07T11:21:57Z</time>
      </trkpt>
      <trkpt lat="43.64116" lon="3.82544">
        <ele>146.5</ele>
        <time>2017-06-07T11:21:59Z</time>
      </trkpt>
      <trkpt lat="43.64113" lon="3.82562">
        <ele>146.2</ele>
        <time>2017-06-07T11:22:01Z</time>
      </trkpt>
      <trkpt lat="43.64107" lon="3.82579">
        <ele>145</ele>
        <time>2017-06-07T11:22:03Z</time>
      </trkpt>
      <trkpt lat="43.641" lon="3.82594">
        <ele>143</ele>
        <time>2017-06-07T11:22:05Z</time>
      </trkpt>
      <trkpt lat="43.64093" lon="3.8261">
        <ele>142.7</ele>
        <time>2017-06-07T11:22:07Z</time>
      </trkpt>
      <trkpt lat="43.64088" lon="3.82627">
        <ele>143.7</ele>
        <time>2017-06-07T11:22:09Z</time>
      </trkpt>
      <trkpt lat="43.64084" lon="3.82647">
        <ele>143</ele>
        <time>2017-06-07T11:22:11Z</time>
      </trkpt>
      <trkpt lat="43.64079" lon="3.82658">
        <ele>141.9</ele>
        <time>2017-06-07T11:22:12Z</time>
      </trkpt>
      <trkpt lat="43.64074" lon="3.82666">
        <ele>140.9</ele>
        <time>2017-06-07T11:22:13Z</time>
      </trkpt>
      <trkpt lat="43.64071" lon="3.82675">
        <ele>140.7</ele>
        <time>2017-06-07T11:22:14Z</time>
      </trkpt>
      <trkpt lat="43.64066" lon="3.82683">
        <ele>140.5</ele>
        <time>2017-06-07T11:22:15Z</time>
      </trkpt>
      <trkpt lat="43.64061" lon="3.82702">
        <ele>140.8</ele>
        <time>2017-06-07T11:22:17Z</time>
      </trkpt>
      <trkpt lat="43.64056" lon="3.82711">
        <ele>140.2</ele>
        <time>2017-06-07T11:22:18Z</time>
      </trkpt>
      <trkpt lat="43.6405" lon="3.82721">
        <ele>140.1</ele>
        <time>2017-06-07T11:22:19Z</time>
      </trkpt>
      <trkpt lat="43.64045" lon="3.82731">
        <ele>140.1</ele>
        <time>2017-06-07T11:22:20Z</time>
      </trkpt>
      <trkpt lat="43.64039" lon="3.8274">
        <ele>140</ele>
        <time>2017-06-07T11:22:21Z</time>
      </trkpt>
      <trkpt lat="43.64034" lon="3.82749">
        <ele>140.1</ele>
        <time>2017-06-07T11:22:22Z</time>
      </trkpt>
      <trkpt lat="43.64029" lon="3.82766">
        <ele>140.4</ele>
        <time>2017-06-07T11:22:24Z</time>
      </trkpt>
      <trkpt lat="43.64023" lon="3.8278">
        <ele>138.9</ele>
        <time>2017-06-07T11:22:26Z</time>
      </trkpt>
      <trkpt lat="43.64019" lon="3.82788">
        <ele>137.8</ele>
        <time>2017-06-07T11:22:27Z</time>
      </trkpt>
      <trkpt lat="43.64012" lon="3.82794">
        <ele>137</ele>
        <time>2017-06-07T11:22:28Z</time>
      </trkpt>
      <trkpt lat="43.64005" lon="3.82797">
        <ele>136.4</ele>
        <time>2017-06-07T11:22:29Z</time>
      </trkpt>
      <trkpt lat="43.63998" lon="3.82799">
        <ele>135.4</ele>
        <time>2017-06-07T11:22:30Z</time>
      </trkpt>
      <trkpt lat="43.63985" lon="3.82803">
        <ele>134.7</ele>
        <time>2017-06-07T11:22:32Z</time>
      </trkpt>
      <trkpt lat="43.63975" lon="3.82806">
        <ele>134</ele>
        <time>2017-06-07T11:22:34Z</time>
      </trkpt>
      <trkpt lat="43.63967" lon="3.82812">
        <ele>133.7</ele>
        <time>2017-06-07T11:22:37Z</time>
      </trkpt>
      <trkpt lat="43.63961" lon="3.82819">
        <ele>133.4</ele>
        <time>2017-06-07T11:22:40Z</time>
      </trkpt>
      <trkpt lat="43.63953" lon="3.82825">
        <ele>133.1</ele>
        <time>2017-06-07T11:22:43Z</time>
      </trkpt>
      <trkpt lat="43.63945" lon="3.82825">
        <ele>132.9</ele>
        <time>2017-06-07T11:22:46Z</time>
      </trkpt>
      <trkpt lat="43.63942" lon="3.82824">
        <ele>133.1</ele>
        <time>2017-06-07T11:22:53Z</time>
      </trkpt>
      <trkpt lat="43.63932" lon="3.82826">
        <ele>131.4</ele>
        <time>2017-06-07T11:23:06Z</time>
      </trkpt>
      <trkpt lat="43.63922" lon="3.82824">
        <ele>129.3</ele>
        <time>2017-06-07T11:23:08Z</time>
      </trkpt>
      <trkpt lat="43.63914" lon="3.82818">
        <ele>126.5</ele>
        <time>2017-06-07T11:23:10Z</time>
      </trkpt>
      <trkpt lat="43.63905" lon="3.8281">
        <ele>125.8</ele>
        <time>2017-06-07T11:23:13Z</time>
      </trkpt>
      <trkpt lat="43.63896" lon="3.82806">
        <ele>125.6</ele>
        <time>2017-06-07T11:23:15Z</time>
      </trkpt>
      <trkpt lat="43.63888" lon="3.82794">
        <ele>126</ele>
        <time>2017-06-07T11:23:18Z</time>
      </trkpt>
      <trkpt lat="43.63881" lon="3.82788">
        <ele>129.2</ele>
        <time>2017-06-07T11:23:20Z</time>
      </trkpt>
      <trkpt lat="43.63874" lon="3.82794">
        <ele>130.5</ele>
        <time>2017-06-07T11:23:23Z</time>
      </trkpt>
      <trkpt lat="43.63864" lon="3.82801">
        <ele>131.3</ele>
        <time>2017-06-07T11:23:25Z</time>
      </trkpt>
      <trkpt lat="43.63854" lon="3.82807">
        <ele>130.8</ele>
        <time>2017-06-07T11:23:27Z</time>
      </trkpt>
      <trkpt lat="43.63843" lon="3.82808">
        <ele>129.6</ele>
        <time>2017-06-07T11:23:29Z</time>
      </trkpt>
      <trkpt lat="43.63831" lon="3.82803">
        <ele>128.5</ele>
        <time>2017-06-07T11:23:35Z</time>
      </trkpt>
      <trkpt lat="43.6381" lon="3.8281">
        <ele>129.1</ele>
        <time>2017-06-07T11:23:35Z</time>
      </trkpt>
      <trkpt lat="43.63803" lon="3.82813">
        <ele>129.3</ele>
        <time>2017-06-07T11:23:38Z</time>
      </trkpt>
      <trkpt lat="43.63793" lon="3.82817">
        <ele>129.4</ele>
        <time>2017-06-07T11:23:39Z</time>
      </trkpt>
      <trkpt lat="43.63784" lon="3.8282">
        <ele>129</ele>
        <time>2017-06-07T11:23:41Z</time>
      </trkpt>
      <trkpt lat="43.63779" lon="3.8283">
        <ele>128.9</ele>
        <time>2017-06-07T11:23:43Z</time>
      </trkpt>
      <trkpt lat="43.63781" lon="3.82842">
        <ele>128.4</ele>
        <time>2017-06-07T11:23:46Z</time>
      </trkpt>
      <trkpt lat="43.6378" lon="3.82855">
        <ele>127.8</ele>
        <time>2017-06-07T11:23:48Z</time>
      </trkpt>
      <trkpt lat="43.63772" lon="3.82852">
        <ele>127.3</ele>
        <time>2017-06-07T11:23:51Z</time>
      </trkpt>
      <trkpt lat="43.63766" lon="3.82854">
        <ele>126.4</ele>
        <time>2017-06-07T11:23:58Z</time>
      </trkpt>
    </trkseg>
  </trk>
</gpx>